<?xml version="1.0" encoding="UTF-8" standalone="no" ?>
<gpx xmlns="http://www.topografix.com/GPX/1/1" xmlns:xsi="http://www.w3.org/2001/XMLSchema-instance" xsi:schemaLocation="http://www.topografix.com/GPX/1/1 http://www.topografix.com/GPX/1/1/gpx.xsd" version="1.1" creator="VisuGPX - https://www.visugpx.com">
  <metadata>
    <name>Sortie_cyclo_09_05_2013 (Lannion  - Tonquédec - Plouaret)</name>
    <desc><![CDATA[Petit circuit de 46 kms autour de Lannion.]]></desc>
  </metadata>
  <trk>
    <name><![CDATA[09-MAI-13 18:04:21]]></name>
    <trkseg>
      <trkpt lat="48.747" lon="-3.45522">
        <ele>56.37</ele>
        <time>2013-05-09T14:00:02Z</time>
      </trkpt>
      <trkpt lat="48.7471" lon="-3.45519">
        <ele>55.41</ele>
        <time>2013-05-09T14:00:23Z</time>
      </trkpt>
      <trkpt lat="48.7471" lon="-3.45524">
        <ele>55.41</ele>
        <time>2013-05-09T14:00:44Z</time>
      </trkpt>
      <trkpt lat="48.74702" lon="-3.45553">
        <ele>58.3</ele>
        <time>2013-05-09T14:01:08Z</time>
      </trkpt>
      <trkpt lat="48.74695" lon="-3.45515">
        <ele>56.37</ele>
        <time>2013-05-09T14:03:16Z</time>
      </trkpt>
      <trkpt lat="48.74694" lon="-3.45517">
        <ele>56.37</ele>
        <time>2013-05-09T14:03:25Z</time>
      </trkpt>
      <trkpt lat="48.7469" lon="-3.45524">
        <ele>55.41</ele>
        <time>2013-05-09T14:03:30Z</time>
      </trkpt>
      <trkpt lat="48.74682" lon="-3.45517">
        <ele>54.93</ele>
        <time>2013-05-09T14:03:33Z</time>
      </trkpt>
      <trkpt lat="48.7465" lon="-3.45489">
        <ele>53.49</ele>
        <time>2013-05-09T14:03:40Z</time>
      </trkpt>
      <trkpt lat="48.74645" lon="-3.45486">
        <ele>52.53</ele>
        <time>2013-05-09T14:03:41Z</time>
      </trkpt>
      <trkpt lat="48.74639" lon="-3.45485">
        <ele>51.09</ele>
        <time>2013-05-09T14:03:42Z</time>
      </trkpt>
      <trkpt lat="48.74633" lon="-3.45486">
        <ele>50.61</ele>
        <time>2013-05-09T14:03:43Z</time>
      </trkpt>
      <trkpt lat="48.74627" lon="-3.45487">
        <ele>49.16</ele>
        <time>2013-05-09T14:03:44Z</time>
      </trkpt>
      <trkpt lat="48.74622" lon="-3.45489">
        <ele>48.68</ele>
        <time>2013-05-09T14:03:45Z</time>
      </trkpt>
      <trkpt lat="48.74617" lon="-3.45491">
        <ele>48.68</ele>
        <time>2013-05-09T14:03:46Z</time>
      </trkpt>
      <trkpt lat="48.74589" lon="-3.45501">
        <ele>47.24</ele>
        <time>2013-05-09T14:03:56Z</time>
      </trkpt>
      <trkpt lat="48.74583" lon="-3.45494">
        <ele>46.76</ele>
        <time>2013-05-09T14:03:58Z</time>
      </trkpt>
      <trkpt lat="48.74576" lon="-3.45484">
        <ele>45.32</ele>
        <time>2013-05-09T14:04:00Z</time>
      </trkpt>
      <trkpt lat="48.74525" lon="-3.45402">
        <ele>44.84</ele>
        <time>2013-05-09T14:04:10Z</time>
      </trkpt>
      <trkpt lat="48.74501" lon="-3.45363">
        <ele>46.28</ele>
        <time>2013-05-09T14:04:19Z</time>
      </trkpt>
      <trkpt lat="48.74484" lon="-3.45345">
        <ele>50.61</ele>
        <time>2013-05-09T14:04:26Z</time>
      </trkpt>
      <trkpt lat="48.74481" lon="-3.45341">
        <ele>50.61</ele>
        <time>2013-05-09T14:04:27Z</time>
      </trkpt>
      <trkpt lat="48.74438" lon="-3.45284">
        <ele>52.05</ele>
        <time>2013-05-09T14:04:44Z</time>
      </trkpt>
      <trkpt lat="48.74431" lon="-3.45271">
        <ele>52.05</ele>
        <time>2013-05-09T14:05:00Z</time>
      </trkpt>
      <trkpt lat="48.74431" lon="-3.4527">
        <ele>53.01</ele>
        <time>2013-05-09T14:05:02Z</time>
      </trkpt>
      <trkpt lat="48.7443" lon="-3.45268">
        <ele>53.01</ele>
        <time>2013-05-09T14:05:03Z</time>
      </trkpt>
      <trkpt lat="48.74429" lon="-3.45266">
        <ele>53.01</ele>
        <time>2013-05-09T14:05:04Z</time>
      </trkpt>
      <trkpt lat="48.74427" lon="-3.45264">
        <ele>53.97</ele>
        <time>2013-05-09T14:05:05Z</time>
      </trkpt>
      <trkpt lat="48.74424" lon="-3.45262">
        <ele>54.93</ele>
        <time>2013-05-09T14:05:06Z</time>
      </trkpt>
      <trkpt lat="48.74422" lon="-3.45259">
        <ele>54.93</ele>
        <time>2013-05-09T14:05:07Z</time>
      </trkpt>
      <trkpt lat="48.74416" lon="-3.45253">
        <ele>53.49</ele>
        <time>2013-05-09T14:05:09Z</time>
      </trkpt>
      <trkpt lat="48.74381" lon="-3.45233">
        <ele>54.45</ele>
        <time>2013-05-09T14:05:18Z</time>
      </trkpt>
      <trkpt lat="48.74367" lon="-3.45226">
        <ele>52.53</ele>
        <time>2013-05-09T14:05:21Z</time>
      </trkpt>
      <trkpt lat="48.74362" lon="-3.45221">
        <ele>53.01</ele>
        <time>2013-05-09T14:05:22Z</time>
      </trkpt>
      <trkpt lat="48.74352" lon="-3.45212">
        <ele>57.34</ele>
        <time>2013-05-09T14:05:24Z</time>
      </trkpt>
      <trkpt lat="48.74335" lon="-3.45196">
        <ele>61.66</ele>
        <time>2013-05-09T14:05:27Z</time>
      </trkpt>
      <trkpt lat="48.74329" lon="-3.45189">
        <ele>62.62</ele>
        <time>2013-05-09T14:05:28Z</time>
      </trkpt>
      <trkpt lat="48.74323" lon="-3.45182">
        <ele>63.1</ele>
        <time>2013-05-09T14:05:29Z</time>
      </trkpt>
      <trkpt lat="48.74318" lon="-3.45173">
        <ele>64.55</ele>
        <time>2013-05-09T14:05:30Z</time>
      </trkpt>
      <trkpt lat="48.74313" lon="-3.45163">
        <ele>65.51</ele>
        <time>2013-05-09T14:05:31Z</time>
      </trkpt>
      <trkpt lat="48.74309" lon="-3.45152">
        <ele>66.47</ele>
        <time>2013-05-09T14:05:32Z</time>
      </trkpt>
      <trkpt lat="48.74305" lon="-3.45141">
        <ele>68.39</ele>
        <time>2013-05-09T14:05:33Z</time>
      </trkpt>
      <trkpt lat="48.74302" lon="-3.45128">
        <ele>69.83</ele>
        <time>2013-05-09T14:05:34Z</time>
      </trkpt>
      <trkpt lat="48.743" lon="-3.45116">
        <ele>71.27</ele>
        <time>2013-05-09T14:05:35Z</time>
      </trkpt>
      <trkpt lat="48.74295" lon="-3.45075">
        <ele>72.72</ele>
        <time>2013-05-09T14:05:38Z</time>
      </trkpt>
      <trkpt lat="48.74294" lon="-3.45061">
        <ele>72.24</ele>
        <time>2013-05-09T14:05:39Z</time>
      </trkpt>
      <trkpt lat="48.74295" lon="-3.45033">
        <ele>75.12</ele>
        <time>2013-05-09T14:05:41Z</time>
      </trkpt>
      <trkpt lat="48.74294" lon="-3.45003">
        <ele>77.04</ele>
        <time>2013-05-09T14:05:43Z</time>
      </trkpt>
      <trkpt lat="48.74293" lon="-3.44912">
        <ele>78.97</ele>
        <time>2013-05-09T14:05:49Z</time>
      </trkpt>
      <trkpt lat="48.74298" lon="-3.44818">
        <ele>81.37</ele>
        <time>2013-05-09T14:05:56Z</time>
      </trkpt>
      <trkpt lat="48.74298" lon="-3.44784">
        <ele>83.77</ele>
        <time>2013-05-09T14:05:59Z</time>
      </trkpt>
      <trkpt lat="48.74294" lon="-3.44701">
        <ele>86.66</ele>
        <time>2013-05-09T14:06:06Z</time>
      </trkpt>
      <trkpt lat="48.7429" lon="-3.44675">
        <ele>87.14</ele>
        <time>2013-05-09T14:06:08Z</time>
      </trkpt>
      <trkpt lat="48.74287" lon="-3.44663">
        <ele>87.14</ele>
        <time>2013-05-09T14:06:09Z</time>
      </trkpt>
      <trkpt lat="48.74259" lon="-3.44599">
        <ele>89.06</ele>
        <time>2013-05-09T14:06:15Z</time>
      </trkpt>
      <trkpt lat="48.74252" lon="-3.44591">
        <ele>88.58</ele>
        <time>2013-05-09T14:06:16Z</time>
      </trkpt>
      <trkpt lat="48.74245" lon="-3.44583">
        <ele>89.06</ele>
        <time>2013-05-09T14:06:17Z</time>
      </trkpt>
      <trkpt lat="48.74163" lon="-3.44549">
        <ele>91.94</ele>
        <time>2013-05-09T14:06:27Z</time>
      </trkpt>
      <trkpt lat="48.74044" lon="-3.44503">
        <ele>92.42</ele>
        <time>2013-05-09T14:06:42Z</time>
      </trkpt>
      <trkpt lat="48.74016" lon="-3.44496">
        <ele>91.94</ele>
        <time>2013-05-09T14:06:46Z</time>
      </trkpt>
      <trkpt lat="48.7401" lon="-3.44498">
        <ele>90.98</ele>
        <time>2013-05-09T14:06:47Z</time>
      </trkpt>
      <trkpt lat="48.74005" lon="-3.44502">
        <ele>90.5</ele>
        <time>2013-05-09T14:06:48Z</time>
      </trkpt>
      <trkpt lat="48.73999" lon="-3.44506">
        <ele>90.98</ele>
        <time>2013-05-09T14:06:49Z</time>
      </trkpt>
      <trkpt lat="48.73994" lon="-3.44509">
        <ele>91.46</ele>
        <time>2013-05-09T14:06:50Z</time>
      </trkpt>
      <trkpt lat="48.73988" lon="-3.44512">
        <ele>90.02</ele>
        <time>2013-05-09T14:06:51Z</time>
      </trkpt>
      <trkpt lat="48.73981" lon="-3.44513">
        <ele>89.54</ele>
        <time>2013-05-09T14:06:52Z</time>
      </trkpt>
      <trkpt lat="48.73955" lon="-3.44513">
        <ele>89.54</ele>
        <time>2013-05-09T14:06:57Z</time>
      </trkpt>
      <trkpt lat="48.73951" lon="-3.44511">
        <ele>89.54</ele>
        <time>2013-05-09T14:06:58Z</time>
      </trkpt>
      <trkpt lat="48.73889" lon="-3.44482">
        <ele>85.69</ele>
        <time>2013-05-09T14:07:10Z</time>
      </trkpt>
      <trkpt lat="48.73882" lon="-3.44481">
        <ele>85.21</ele>
        <time>2013-05-09T14:07:11Z</time>
      </trkpt>
      <trkpt lat="48.73811" lon="-3.44453">
        <ele>85.21</ele>
        <time>2013-05-09T14:07:12Z</time>
      </trkpt>
      <trkpt lat="48.73792" lon="-3.44455">
        <ele>83.29</ele>
        <time>2013-05-09T14:07:14Z</time>
      </trkpt>
      <trkpt lat="48.73739" lon="-3.44457">
        <ele>80.41</ele>
        <time>2013-05-09T14:07:19Z</time>
      </trkpt>
      <trkpt lat="48.7373" lon="-3.44457">
        <ele>80.41</ele>
        <time>2013-05-09T14:07:20Z</time>
      </trkpt>
      <trkpt lat="48.73677" lon="-3.44469">
        <ele>77.52</ele>
        <time>2013-05-09T14:07:30Z</time>
      </trkpt>
      <trkpt lat="48.73626" lon="-3.44429">
        <ele>80.41</ele>
        <time>2013-05-09T14:07:41Z</time>
      </trkpt>
      <trkpt lat="48.73622" lon="-3.44426">
        <ele>80.41</ele>
        <time>2013-05-09T14:07:42Z</time>
      </trkpt>
      <trkpt lat="48.73604" lon="-3.44418">
        <ele>81.85</ele>
        <time>2013-05-09T14:07:47Z</time>
      </trkpt>
      <trkpt lat="48.73574" lon="-3.44413">
        <ele>84.73</ele>
        <time>2013-05-09T14:07:56Z</time>
      </trkpt>
      <trkpt lat="48.73571" lon="-3.44414">
        <ele>85.21</ele>
        <time>2013-05-09T14:07:57Z</time>
      </trkpt>
      <trkpt lat="48.73516" lon="-3.44419">
        <ele>88.1</ele>
        <time>2013-05-09T14:08:12Z</time>
      </trkpt>
      <trkpt lat="48.73495" lon="-3.44427">
        <ele>87.14</ele>
        <time>2013-05-09T14:08:18Z</time>
      </trkpt>
      <trkpt lat="48.73487" lon="-3.44434">
        <ele>90.02</ele>
        <time>2013-05-09T14:08:21Z</time>
      </trkpt>
      <trkpt lat="48.73466" lon="-3.44458">
        <ele>91.46</ele>
        <time>2013-05-09T14:08:29Z</time>
      </trkpt>
      <trkpt lat="48.73432" lon="-3.44483">
        <ele>91.46</ele>
        <time>2013-05-09T14:08:40Z</time>
      </trkpt>
      <trkpt lat="48.73428" lon="-3.44481">
        <ele>91.94</ele>
        <time>2013-05-09T14:08:41Z</time>
      </trkpt>
      <trkpt lat="48.73424" lon="-3.44479">
        <ele>92.9</ele>
        <time>2013-05-09T14:08:42Z</time>
      </trkpt>
      <trkpt lat="48.7342" lon="-3.44475">
        <ele>92.9</ele>
        <time>2013-05-09T14:08:43Z</time>
      </trkpt>
      <trkpt lat="48.73418" lon="-3.44472">
        <ele>92.42</ele>
        <time>2013-05-09T14:08:44Z</time>
      </trkpt>
      <trkpt lat="48.73416" lon="-3.44468">
        <ele>91.94</ele>
        <time>2013-05-09T14:08:45Z</time>
      </trkpt>
      <trkpt lat="48.73414" lon="-3.44464">
        <ele>91.94</ele>
        <time>2013-05-09T14:08:46Z</time>
      </trkpt>
      <trkpt lat="48.73413" lon="-3.44459">
        <ele>91.46</ele>
        <time>2013-05-09T14:08:47Z</time>
      </trkpt>
      <trkpt lat="48.73413" lon="-3.44455">
        <ele>91.46</ele>
        <time>2013-05-09T14:08:48Z</time>
      </trkpt>
      <trkpt lat="48.73402" lon="-3.44356">
        <ele>91.46</ele>
        <time>2013-05-09T14:09:03Z</time>
      </trkpt>
      <trkpt lat="48.73394" lon="-3.44197">
        <ele>90.98</ele>
        <time>2013-05-09T14:09:22Z</time>
      </trkpt>
      <trkpt lat="48.73395" lon="-3.44189">
        <ele>90.5</ele>
        <time>2013-05-09T14:09:23Z</time>
      </trkpt>
      <trkpt lat="48.73415" lon="-3.44084">
        <ele>93.39</ele>
        <time>2013-05-09T14:09:38Z</time>
      </trkpt>
      <trkpt lat="48.73406" lon="-3.44039">
        <ele>96.27</ele>
        <time>2013-05-09T14:09:46Z</time>
      </trkpt>
      <trkpt lat="48.73403" lon="-3.44035">
        <ele>94.83</ele>
        <time>2013-05-09T14:09:47Z</time>
      </trkpt>
      <trkpt lat="48.73401" lon="-3.4403">
        <ele>94.35</ele>
        <time>2013-05-09T14:09:48Z</time>
      </trkpt>
      <trkpt lat="48.73395" lon="-3.44019">
        <ele>95.31</ele>
        <time>2013-05-09T14:09:50Z</time>
      </trkpt>
      <trkpt lat="48.73392" lon="-3.44014">
        <ele>95.79</ele>
        <time>2013-05-09T14:09:51Z</time>
      </trkpt>
      <trkpt lat="48.73345" lon="-3.43947">
        <ele>97.23</ele>
        <time>2013-05-09T14:10:05Z</time>
      </trkpt>
      <trkpt lat="48.73342" lon="-3.43941">
        <ele>96.27</ele>
        <time>2013-05-09T14:10:06Z</time>
      </trkpt>
      <trkpt lat="48.73342" lon="-3.43935">
        <ele>97.23</ele>
        <time>2013-05-09T14:10:07Z</time>
      </trkpt>
      <trkpt lat="48.73342" lon="-3.43931">
        <ele>98.19</ele>
        <time>2013-05-09T14:10:08Z</time>
      </trkpt>
      <trkpt lat="48.73341" lon="-3.43929">
        <ele>98.19</ele>
        <time>2013-05-09T14:10:11Z</time>
      </trkpt>
      <trkpt lat="48.73343" lon="-3.43928">
        <ele>96.27</ele>
        <time>2013-05-09T14:10:12Z</time>
      </trkpt>
      <trkpt lat="48.73346" lon="-3.43927">
        <ele>95.79</ele>
        <time>2013-05-09T14:10:13Z</time>
      </trkpt>
      <trkpt lat="48.73354" lon="-3.43928">
        <ele>96.27</ele>
        <time>2013-05-09T14:10:15Z</time>
      </trkpt>
      <trkpt lat="48.73358" lon="-3.4393">
        <ele>96.75</ele>
        <time>2013-05-09T14:10:16Z</time>
      </trkpt>
      <trkpt lat="48.73362" lon="-3.43929">
        <ele>98.19</ele>
        <time>2013-05-09T14:10:17Z</time>
      </trkpt>
      <trkpt lat="48.73366" lon="-3.43929">
        <ele>98.19</ele>
        <time>2013-05-09T14:10:18Z</time>
      </trkpt>
      <trkpt lat="48.73369" lon="-3.43931">
        <ele>98.19</ele>
        <time>2013-05-09T14:10:19Z</time>
      </trkpt>
      <trkpt lat="48.73397" lon="-3.43954">
        <ele>98.19</ele>
        <time>2013-05-09T14:10:27Z</time>
      </trkpt>
      <trkpt lat="48.73399" lon="-3.43954">
        <ele>98.19</ele>
        <time>2013-05-09T14:10:28Z</time>
      </trkpt>
      <trkpt lat="48.73426" lon="-3.43937">
        <ele>97.71</ele>
        <time>2013-05-09T14:10:37Z</time>
      </trkpt>
      <trkpt lat="48.73429" lon="-3.43933">
        <ele>96.75</ele>
        <time>2013-05-09T14:10:38Z</time>
      </trkpt>
      <trkpt lat="48.73431" lon="-3.43927">
        <ele>98.19</ele>
        <time>2013-05-09T14:10:39Z</time>
      </trkpt>
      <trkpt lat="48.73433" lon="-3.43922">
        <ele>97.71</ele>
        <time>2013-05-09T14:10:40Z</time>
      </trkpt>
      <trkpt lat="48.73435" lon="-3.43916">
        <ele>98.19</ele>
        <time>2013-05-09T14:10:41Z</time>
      </trkpt>
      <trkpt lat="48.73436" lon="-3.43911">
        <ele>98.19</ele>
        <time>2013-05-09T14:10:42Z</time>
      </trkpt>
      <trkpt lat="48.73438" lon="-3.43904">
        <ele>98.67</ele>
        <time>2013-05-09T14:10:43Z</time>
      </trkpt>
      <trkpt lat="48.7344" lon="-3.43898">
        <ele>99.15</ele>
        <time>2013-05-09T14:10:44Z</time>
      </trkpt>
      <trkpt lat="48.73443" lon="-3.43893">
        <ele>98.67</ele>
        <time>2013-05-09T14:10:45Z</time>
      </trkpt>
      <trkpt lat="48.73445" lon="-3.43888">
        <ele>99.63</ele>
        <time>2013-05-09T14:10:46Z</time>
      </trkpt>
      <trkpt lat="48.73449" lon="-3.43884">
        <ele>100.6</ele>
        <time>2013-05-09T14:10:47Z</time>
      </trkpt>
      <trkpt lat="48.73452" lon="-3.43881">
        <ele>100.6</ele>
        <time>2013-05-09T14:10:48Z</time>
      </trkpt>
      <trkpt lat="48.73489" lon="-3.4382">
        <ele>102.52</ele>
        <time>2013-05-09T14:11:00Z</time>
      </trkpt>
      <trkpt lat="48.73517" lon="-3.43747">
        <ele>103</ele>
        <time>2013-05-09T14:11:14Z</time>
      </trkpt>
      <trkpt lat="48.73516" lon="-3.43735">
        <ele>103.48</ele>
        <time>2013-05-09T14:11:16Z</time>
      </trkpt>
      <trkpt lat="48.73515" lon="-3.43728">
        <ele>103</ele>
        <time>2013-05-09T14:11:17Z</time>
      </trkpt>
      <trkpt lat="48.73516" lon="-3.43722">
        <ele>103.48</ele>
        <time>2013-05-09T14:11:18Z</time>
      </trkpt>
      <trkpt lat="48.73517" lon="-3.43715">
        <ele>103.48</ele>
        <time>2013-05-09T14:11:19Z</time>
      </trkpt>
      <trkpt lat="48.73519" lon="-3.43709">
        <ele>103.96</ele>
        <time>2013-05-09T14:11:20Z</time>
      </trkpt>
      <trkpt lat="48.73521" lon="-3.43702">
        <ele>103.96</ele>
        <time>2013-05-09T14:11:21Z</time>
      </trkpt>
      <trkpt lat="48.73526" lon="-3.43689">
        <ele>103.48</ele>
        <time>2013-05-09T14:11:23Z</time>
      </trkpt>
      <trkpt lat="48.73527" lon="-3.43682">
        <ele>103.48</ele>
        <time>2013-05-09T14:11:24Z</time>
      </trkpt>
      <trkpt lat="48.73527" lon="-3.43676">
        <ele>103</ele>
        <time>2013-05-09T14:11:25Z</time>
      </trkpt>
      <trkpt lat="48.73525" lon="-3.4367">
        <ele>103.96</ele>
        <time>2013-05-09T14:11:26Z</time>
      </trkpt>
      <trkpt lat="48.73522" lon="-3.43666">
        <ele>104.44</ele>
        <time>2013-05-09T14:11:27Z</time>
      </trkpt>
      <trkpt lat="48.73518" lon="-3.43662">
        <ele>104.44</ele>
        <time>2013-05-09T14:11:28Z</time>
      </trkpt>
      <trkpt lat="48.73513" lon="-3.43659">
        <ele>104.92</ele>
        <time>2013-05-09T14:11:29Z</time>
      </trkpt>
      <trkpt lat="48.73509" lon="-3.43656">
        <ele>103.96</ele>
        <time>2013-05-09T14:11:30Z</time>
      </trkpt>
      <trkpt lat="48.735" lon="-3.43648">
        <ele>105.4</ele>
        <time>2013-05-09T14:11:32Z</time>
      </trkpt>
      <trkpt lat="48.73496" lon="-3.43644">
        <ele>105.4</ele>
        <time>2013-05-09T14:11:33Z</time>
      </trkpt>
      <trkpt lat="48.73491" lon="-3.4364">
        <ele>105.4</ele>
        <time>2013-05-09T14:11:34Z</time>
      </trkpt>
      <trkpt lat="48.73487" lon="-3.43636">
        <ele>105.4</ele>
        <time>2013-05-09T14:11:35Z</time>
      </trkpt>
      <trkpt lat="48.73483" lon="-3.43632">
        <ele>106.36</ele>
        <time>2013-05-09T14:11:36Z</time>
      </trkpt>
      <trkpt lat="48.73479" lon="-3.43627">
        <ele>106.36</ele>
        <time>2013-05-09T14:11:37Z</time>
      </trkpt>
      <trkpt lat="48.73476" lon="-3.43622">
        <ele>106.36</ele>
        <time>2013-05-09T14:11:38Z</time>
      </trkpt>
      <trkpt lat="48.73431" lon="-3.43525">
        <ele>108.29</ele>
        <time>2013-05-09T14:11:55Z</time>
      </trkpt>
      <trkpt lat="48.73411" lon="-3.43414">
        <ele>110.69</ele>
        <time>2013-05-09T14:12:10Z</time>
      </trkpt>
      <trkpt lat="48.7341" lon="-3.43407">
        <ele>110.69</ele>
        <time>2013-05-09T14:12:11Z</time>
      </trkpt>
      <trkpt lat="48.734" lon="-3.43347">
        <ele>112.61</ele>
        <time>2013-05-09T14:12:20Z</time>
      </trkpt>
      <trkpt lat="48.73397" lon="-3.43335">
        <ele>113.57</ele>
        <time>2013-05-09T14:12:22Z</time>
      </trkpt>
      <trkpt lat="48.73396" lon="-3.43328">
        <ele>114.05</ele>
        <time>2013-05-09T14:12:23Z</time>
      </trkpt>
      <trkpt lat="48.73396" lon="-3.43322">
        <ele>114.53</ele>
        <time>2013-05-09T14:12:24Z</time>
      </trkpt>
      <trkpt lat="48.73395" lon="-3.43302">
        <ele>113.57</ele>
        <time>2013-05-09T14:12:27Z</time>
      </trkpt>
      <trkpt lat="48.73394" lon="-3.43296">
        <ele>114.05</ele>
        <time>2013-05-09T14:12:28Z</time>
      </trkpt>
      <trkpt lat="48.73387" lon="-3.43223">
        <ele>116.94</ele>
        <time>2013-05-09T14:12:40Z</time>
      </trkpt>
      <trkpt lat="48.73387" lon="-3.43146">
        <ele>119.82</ele>
        <time>2013-05-09T14:12:56Z</time>
      </trkpt>
      <trkpt lat="48.73389" lon="-3.43071">
        <ele>120.78</ele>
        <time>2013-05-09T14:13:07Z</time>
      </trkpt>
      <trkpt lat="48.73383" lon="-3.42948">
        <ele>121.74</ele>
        <time>2013-05-09T14:13:25Z</time>
      </trkpt>
      <trkpt lat="48.73374" lon="-3.42843">
        <ele>118.38</ele>
        <time>2013-05-09T14:13:38Z</time>
      </trkpt>
      <trkpt lat="48.73364" lon="-3.42674">
        <ele>117.42</ele>
        <time>2013-05-09T14:13:57Z</time>
      </trkpt>
      <trkpt lat="48.73358" lon="-3.42557">
        <ele>118.38</ele>
        <time>2013-05-09T14:14:15Z</time>
      </trkpt>
      <trkpt lat="48.73344" lon="-3.42385">
        <ele>120.3</ele>
        <time>2013-05-09T14:14:35Z</time>
      </trkpt>
      <trkpt lat="48.73342" lon="-3.42216">
        <ele>117.42</ele>
        <time>2013-05-09T14:14:51Z</time>
      </trkpt>
      <trkpt lat="48.73357" lon="-3.4211">
        <ele>115.5</ele>
        <time>2013-05-09T14:14:59Z</time>
      </trkpt>
      <trkpt lat="48.73358" lon="-3.42096">
        <ele>114.53</ele>
        <time>2013-05-09T14:15:00Z</time>
      </trkpt>
      <trkpt lat="48.73358" lon="-3.42081">
        <ele>114.05</ele>
        <time>2013-05-09T14:15:01Z</time>
      </trkpt>
      <trkpt lat="48.73357" lon="-3.42067">
        <ele>114.05</ele>
        <time>2013-05-09T14:15:02Z</time>
      </trkpt>
      <trkpt lat="48.73355" lon="-3.42054">
        <ele>113.57</ele>
        <time>2013-05-09T14:15:03Z</time>
      </trkpt>
      <trkpt lat="48.73352" lon="-3.42041">
        <ele>113.57</ele>
        <time>2013-05-09T14:15:04Z</time>
      </trkpt>
      <trkpt lat="48.73349" lon="-3.42028">
        <ele>114.05</ele>
        <time>2013-05-09T14:15:05Z</time>
      </trkpt>
      <trkpt lat="48.73345" lon="-3.42017">
        <ele>114.05</ele>
        <time>2013-05-09T14:15:06Z</time>
      </trkpt>
      <trkpt lat="48.73341" lon="-3.42008">
        <ele>115.01</ele>
        <time>2013-05-09T14:15:07Z</time>
      </trkpt>
      <trkpt lat="48.73336" lon="-3.41999">
        <ele>114.53</ele>
        <time>2013-05-09T14:15:08Z</time>
      </trkpt>
      <trkpt lat="48.73302" lon="-3.41951">
        <ele>117.9</ele>
        <time>2013-05-09T14:15:15Z</time>
      </trkpt>
      <trkpt lat="48.73297" lon="-3.41947">
        <ele>118.38</ele>
        <time>2013-05-09T14:15:16Z</time>
      </trkpt>
      <trkpt lat="48.73251" lon="-3.41858">
        <ele>121.26</ele>
        <time>2013-05-09T14:15:32Z</time>
      </trkpt>
      <trkpt lat="48.73225" lon="-3.41728">
        <ele>121.26</ele>
        <time>2013-05-09T14:15:50Z</time>
      </trkpt>
      <trkpt lat="48.73206" lon="-3.4159">
        <ele>124.15</ele>
        <time>2013-05-09T14:16:09Z</time>
      </trkpt>
      <trkpt lat="48.73213" lon="-3.41467">
        <ele>126.07</ele>
        <time>2013-05-09T14:16:26Z</time>
      </trkpt>
      <trkpt lat="48.73213" lon="-3.41332">
        <ele>126.07</ele>
        <time>2013-05-09T14:16:43Z</time>
      </trkpt>
      <trkpt lat="48.73211" lon="-3.41325">
        <ele>126.07</ele>
        <time>2013-05-09T14:16:44Z</time>
      </trkpt>
      <trkpt lat="48.73209" lon="-3.4132">
        <ele>127.51</ele>
        <time>2013-05-09T14:16:45Z</time>
      </trkpt>
      <trkpt lat="48.73206" lon="-3.41316">
        <ele>128.47</ele>
        <time>2013-05-09T14:16:46Z</time>
      </trkpt>
      <trkpt lat="48.73203" lon="-3.41313">
        <ele>127.03</ele>
        <time>2013-05-09T14:16:47Z</time>
      </trkpt>
      <trkpt lat="48.73199" lon="-3.41311">
        <ele>127.03</ele>
        <time>2013-05-09T14:16:48Z</time>
      </trkpt>
      <trkpt lat="48.73195" lon="-3.41313">
        <ele>126.55</ele>
        <time>2013-05-09T14:16:49Z</time>
      </trkpt>
      <trkpt lat="48.73191" lon="-3.41315">
        <ele>127.51</ele>
        <time>2013-05-09T14:16:50Z</time>
      </trkpt>
      <trkpt lat="48.73187" lon="-3.41317">
        <ele>128.47</ele>
        <time>2013-05-09T14:16:51Z</time>
      </trkpt>
      <trkpt lat="48.7312" lon="-3.41368">
        <ele>128.95</ele>
        <time>2013-05-09T14:17:08Z</time>
      </trkpt>
      <trkpt lat="48.73109" lon="-3.41373">
        <ele>128.47</ele>
        <time>2013-05-09T14:17:11Z</time>
      </trkpt>
      <trkpt lat="48.7303" lon="-3.41392">
        <ele>129.43</ele>
        <time>2013-05-09T14:17:29Z</time>
      </trkpt>
      <trkpt lat="48.72979" lon="-3.41416">
        <ele>131.84</ele>
        <time>2013-05-09T14:17:45Z</time>
      </trkpt>
      <trkpt lat="48.72906" lon="-3.41414">
        <ele>133.28</ele>
        <time>2013-05-09T14:18:03Z</time>
      </trkpt>
      <trkpt lat="48.72901" lon="-3.41412">
        <ele>133.76</ele>
        <time>2013-05-09T14:18:04Z</time>
      </trkpt>
      <trkpt lat="48.72833" lon="-3.41376">
        <ele>135.2</ele>
        <time>2013-05-09T14:18:21Z</time>
      </trkpt>
      <trkpt lat="48.72771" lon="-3.41357">
        <ele>134.24</ele>
        <time>2013-05-09T14:18:39Z</time>
      </trkpt>
      <trkpt lat="48.72737" lon="-3.41361">
        <ele>133.28</ele>
        <time>2013-05-09T14:18:47Z</time>
      </trkpt>
      <trkpt lat="48.72733" lon="-3.41365">
        <ele>134.24</ele>
        <time>2013-05-09T14:18:48Z</time>
      </trkpt>
      <trkpt lat="48.7273" lon="-3.41369">
        <ele>134.24</ele>
        <time>2013-05-09T14:18:49Z</time>
      </trkpt>
      <trkpt lat="48.72728" lon="-3.41374">
        <ele>133.76</ele>
        <time>2013-05-09T14:18:50Z</time>
      </trkpt>
      <trkpt lat="48.72726" lon="-3.4138">
        <ele>134.24</ele>
        <time>2013-05-09T14:18:51Z</time>
      </trkpt>
      <trkpt lat="48.72705" lon="-3.4143">
        <ele>133.28</ele>
        <time>2013-05-09T14:19:05Z</time>
      </trkpt>
      <trkpt lat="48.72692" lon="-3.41441">
        <ele>133.76</ele>
        <time>2013-05-09T14:19:13Z</time>
      </trkpt>
      <trkpt lat="48.72687" lon="-3.41443">
        <ele>133.76</ele>
        <time>2013-05-09T14:19:14Z</time>
      </trkpt>
      <trkpt lat="48.72628" lon="-3.41425">
        <ele>132.8</ele>
        <time>2013-05-09T14:19:27Z</time>
      </trkpt>
      <trkpt lat="48.72483" lon="-3.41359">
        <ele>132.32</ele>
        <time>2013-05-09T14:19:43Z</time>
      </trkpt>
      <trkpt lat="48.72401" lon="-3.41344">
        <ele>129.43</ele>
        <time>2013-05-09T14:19:58Z</time>
      </trkpt>
      <trkpt lat="48.7231" lon="-3.4131">
        <ele>126.07</ele>
        <time>2013-05-09T14:20:13Z</time>
      </trkpt>
      <trkpt lat="48.72276" lon="-3.41291">
        <ele>122.71</ele>
        <time>2013-05-09T14:20:18Z</time>
      </trkpt>
      <trkpt lat="48.72269" lon="-3.41286">
        <ele>122.71</ele>
        <time>2013-05-09T14:20:19Z</time>
      </trkpt>
      <trkpt lat="48.72235" lon="-3.41267">
        <ele>122.22</ele>
        <time>2013-05-09T14:20:23Z</time>
      </trkpt>
      <trkpt lat="48.72227" lon="-3.41265">
        <ele>122.71</ele>
        <time>2013-05-09T14:20:24Z</time>
      </trkpt>
      <trkpt lat="48.72165" lon="-3.41257">
        <ele>121.74</ele>
        <time>2013-05-09T14:20:34Z</time>
      </trkpt>
      <trkpt lat="48.72163" lon="-3.41254">
        <ele>122.22</ele>
        <time>2013-05-09T14:20:35Z</time>
      </trkpt>
      <trkpt lat="48.72161" lon="-3.41249">
        <ele>122.22</ele>
        <time>2013-05-09T14:20:36Z</time>
      </trkpt>
      <trkpt lat="48.72134" lon="-3.41207">
        <ele>125.59</ele>
        <time>2013-05-09T14:20:44Z</time>
      </trkpt>
      <trkpt lat="48.72083" lon="-3.41144">
        <ele>126.07</ele>
        <time>2013-05-09T14:21:00Z</time>
      </trkpt>
      <trkpt lat="48.72053" lon="-3.41149">
        <ele>126.07</ele>
        <time>2013-05-09T14:21:15Z</time>
      </trkpt>
      <trkpt lat="48.72036" lon="-3.41191">
        <ele>123.67</ele>
        <time>2013-05-09T14:21:22Z</time>
      </trkpt>
      <trkpt lat="48.72031" lon="-3.41192">
        <ele>122.71</ele>
        <time>2013-05-09T14:21:23Z</time>
      </trkpt>
      <trkpt lat="48.72019" lon="-3.41203">
        <ele>121.74</ele>
        <time>2013-05-09T14:21:24Z</time>
      </trkpt>
      <trkpt lat="48.7201" lon="-3.41218">
        <ele>121.74</ele>
        <time>2013-05-09T14:21:25Z</time>
      </trkpt>
      <trkpt lat="48.72008" lon="-3.41227">
        <ele>122.71</ele>
        <time>2013-05-09T14:21:26Z</time>
      </trkpt>
      <trkpt lat="48.72003" lon="-3.4123">
        <ele>122.22</ele>
        <time>2013-05-09T14:21:27Z</time>
      </trkpt>
      <trkpt lat="48.71997" lon="-3.41233">
        <ele>122.71</ele>
        <time>2013-05-09T14:21:28Z</time>
      </trkpt>
      <trkpt lat="48.71992" lon="-3.41234">
        <ele>122.71</ele>
        <time>2013-05-09T14:21:29Z</time>
      </trkpt>
      <trkpt lat="48.71986" lon="-3.41235">
        <ele>122.22</ele>
        <time>2013-05-09T14:21:30Z</time>
      </trkpt>
      <trkpt lat="48.7198" lon="-3.41234">
        <ele>122.22</ele>
        <time>2013-05-09T14:21:31Z</time>
      </trkpt>
      <trkpt lat="48.71952" lon="-3.41231">
        <ele>122.22</ele>
        <time>2013-05-09T14:21:34Z</time>
      </trkpt>
      <trkpt lat="48.71949" lon="-3.41229">
        <ele>122.22</ele>
        <time>2013-05-09T14:21:35Z</time>
      </trkpt>
      <trkpt lat="48.71947" lon="-3.41227">
        <ele>123.19</ele>
        <time>2013-05-09T14:21:36Z</time>
      </trkpt>
      <trkpt lat="48.71948" lon="-3.41225">
        <ele>121.74</ele>
        <time>2013-05-09T14:21:37Z</time>
      </trkpt>
      <trkpt lat="48.7195" lon="-3.41223">
        <ele>123.19</ele>
        <time>2013-05-09T14:21:38Z</time>
      </trkpt>
      <trkpt lat="48.7195" lon="-3.41221">
        <ele>122.71</ele>
        <time>2013-05-09T14:21:39Z</time>
      </trkpt>
      <trkpt lat="48.71951" lon="-3.4122">
        <ele>122.22</ele>
        <time>2013-05-09T14:21:40Z</time>
      </trkpt>
      <trkpt lat="48.71952" lon="-3.41213">
        <ele>122.71</ele>
        <time>2013-05-09T14:21:45Z</time>
      </trkpt>
      <trkpt lat="48.7195" lon="-3.41215">
        <ele>122.22</ele>
        <time>2013-05-09T14:21:46Z</time>
      </trkpt>
      <trkpt lat="48.71949" lon="-3.41217">
        <ele>121.74</ele>
        <time>2013-05-09T14:21:47Z</time>
      </trkpt>
      <trkpt lat="48.71939" lon="-3.41238">
        <ele>119.34</ele>
        <time>2013-05-09T14:21:53Z</time>
      </trkpt>
      <trkpt lat="48.71929" lon="-3.41264">
        <ele>118.86</ele>
        <time>2013-05-09T14:21:57Z</time>
      </trkpt>
      <trkpt lat="48.719" lon="-3.41301">
        <ele>117.9</ele>
        <time>2013-05-09T14:22:04Z</time>
      </trkpt>
      <trkpt lat="48.71895" lon="-3.41305">
        <ele>117.42</ele>
        <time>2013-05-09T14:22:05Z</time>
      </trkpt>
      <trkpt lat="48.7189" lon="-3.41308">
        <ele>117.42</ele>
        <time>2013-05-09T14:22:06Z</time>
      </trkpt>
      <trkpt lat="48.71884" lon="-3.41312">
        <ele>119.34</ele>
        <time>2013-05-09T14:22:07Z</time>
      </trkpt>
      <trkpt lat="48.71878" lon="-3.41317">
        <ele>119.34</ele>
        <time>2013-05-09T14:22:08Z</time>
      </trkpt>
      <trkpt lat="48.7185" lon="-3.41332">
        <ele>115.98</ele>
        <time>2013-05-09T14:22:12Z</time>
      </trkpt>
      <trkpt lat="48.71835" lon="-3.41338">
        <ele>114.05</ele>
        <time>2013-05-09T14:22:14Z</time>
      </trkpt>
      <trkpt lat="48.71827" lon="-3.41339">
        <ele>115.01</ele>
        <time>2013-05-09T14:22:15Z</time>
      </trkpt>
      <trkpt lat="48.71818" lon="-3.4134">
        <ele>114.05</ele>
        <time>2013-05-09T14:22:16Z</time>
      </trkpt>
      <trkpt lat="48.7181" lon="-3.41342">
        <ele>112.61</ele>
        <time>2013-05-09T14:22:17Z</time>
      </trkpt>
      <trkpt lat="48.71802" lon="-3.41345">
        <ele>112.13</ele>
        <time>2013-05-09T14:22:18Z</time>
      </trkpt>
      <trkpt lat="48.71795" lon="-3.41346">
        <ele>111.17</ele>
        <time>2013-05-09T14:22:19Z</time>
      </trkpt>
      <trkpt lat="48.71787" lon="-3.41346">
        <ele>110.69</ele>
        <time>2013-05-09T14:22:20Z</time>
      </trkpt>
      <trkpt lat="48.7178" lon="-3.41342">
        <ele>110.69</ele>
        <time>2013-05-09T14:22:21Z</time>
      </trkpt>
      <trkpt lat="48.71775" lon="-3.41337">
        <ele>109.73</ele>
        <time>2013-05-09T14:22:22Z</time>
      </trkpt>
      <trkpt lat="48.71771" lon="-3.41332">
        <ele>109.25</ele>
        <time>2013-05-09T14:22:23Z</time>
      </trkpt>
      <trkpt lat="48.71768" lon="-3.41326">
        <ele>109.25</ele>
        <time>2013-05-09T14:22:24Z</time>
      </trkpt>
      <trkpt lat="48.71766" lon="-3.41321">
        <ele>108.77</ele>
        <time>2013-05-09T14:22:25Z</time>
      </trkpt>
      <trkpt lat="48.71764" lon="-3.41316">
        <ele>109.73</ele>
        <time>2013-05-09T14:22:26Z</time>
      </trkpt>
      <trkpt lat="48.7172" lon="-3.41228">
        <ele>113.57</ele>
        <time>2013-05-09T14:22:44Z</time>
      </trkpt>
      <trkpt lat="48.71703" lon="-3.41135">
        <ele>118.38</ele>
        <time>2013-05-09T14:22:58Z</time>
      </trkpt>
      <trkpt lat="48.71702" lon="-3.41129">
        <ele>117.42</ele>
        <time>2013-05-09T14:22:59Z</time>
      </trkpt>
      <trkpt lat="48.71701" lon="-3.41117">
        <ele>117.9</ele>
        <time>2013-05-09T14:23:01Z</time>
      </trkpt>
      <trkpt lat="48.71699" lon="-3.41111">
        <ele>116.94</ele>
        <time>2013-05-09T14:23:02Z</time>
      </trkpt>
      <trkpt lat="48.71685" lon="-3.41074">
        <ele>120.3</ele>
        <time>2013-05-09T14:23:09Z</time>
      </trkpt>
      <trkpt lat="48.71683" lon="-3.4107">
        <ele>119.82</ele>
        <time>2013-05-09T14:23:10Z</time>
      </trkpt>
      <trkpt lat="48.71674" lon="-3.4106">
        <ele>116.46</ele>
        <time>2013-05-09T14:23:13Z</time>
      </trkpt>
      <trkpt lat="48.71652" lon="-3.41036">
        <ele>116.94</ele>
        <time>2013-05-09T14:23:19Z</time>
      </trkpt>
      <trkpt lat="48.71648" lon="-3.41032">
        <ele>117.42</ele>
        <time>2013-05-09T14:23:20Z</time>
      </trkpt>
      <trkpt lat="48.716" lon="-3.40996">
        <ele>116.46</ele>
        <time>2013-05-09T14:23:31Z</time>
      </trkpt>
      <trkpt lat="48.71591" lon="-3.40987">
        <ele>115.98</ele>
        <time>2013-05-09T14:23:33Z</time>
      </trkpt>
      <trkpt lat="48.71587" lon="-3.40982">
        <ele>115.98</ele>
        <time>2013-05-09T14:23:34Z</time>
      </trkpt>
      <trkpt lat="48.71531" lon="-3.40888">
        <ele>115.5</ele>
        <time>2013-05-09T14:23:50Z</time>
      </trkpt>
      <trkpt lat="48.71496" lon="-3.4082">
        <ele>112.61</ele>
        <time>2013-05-09T14:23:59Z</time>
      </trkpt>
      <trkpt lat="48.71476" lon="-3.40791">
        <ele>110.21</ele>
        <time>2013-05-09T14:24:03Z</time>
      </trkpt>
      <trkpt lat="48.71472" lon="-3.40783">
        <ele>111.17</ele>
        <time>2013-05-09T14:24:04Z</time>
      </trkpt>
      <trkpt lat="48.71468" lon="-3.40773">
        <ele>110.69</ele>
        <time>2013-05-09T14:24:05Z</time>
      </trkpt>
      <trkpt lat="48.71465" lon="-3.40763">
        <ele>113.09</ele>
        <time>2013-05-09T14:24:06Z</time>
      </trkpt>
      <trkpt lat="48.71462" lon="-3.40753">
        <ele>112.61</ele>
        <time>2013-05-09T14:24:07Z</time>
      </trkpt>
      <trkpt lat="48.71454" lon="-3.40717">
        <ele>111.17</ele>
        <time>2013-05-09T14:24:10Z</time>
      </trkpt>
      <trkpt lat="48.71432" lon="-3.40592">
        <ele>109.73</ele>
        <time>2013-05-09T14:24:20Z</time>
      </trkpt>
      <trkpt lat="48.71425" lon="-3.40528">
        <ele>107.32</ele>
        <time>2013-05-09T14:24:25Z</time>
      </trkpt>
      <trkpt lat="48.71418" lon="-3.40428">
        <ele>106.36</ele>
        <time>2013-05-09T14:24:33Z</time>
      </trkpt>
      <trkpt lat="48.71415" lon="-3.40417">
        <ele>107.32</ele>
        <time>2013-05-09T14:24:34Z</time>
      </trkpt>
      <trkpt lat="48.71411" lon="-3.40406">
        <ele>107.32</ele>
        <time>2013-05-09T14:24:35Z</time>
      </trkpt>
      <trkpt lat="48.71406" lon="-3.40398">
        <ele>107.32</ele>
        <time>2013-05-09T14:24:36Z</time>
      </trkpt>
      <trkpt lat="48.71401" lon="-3.40389">
        <ele>108.29</ele>
        <time>2013-05-09T14:24:37Z</time>
      </trkpt>
      <trkpt lat="48.71396" lon="-3.40382">
        <ele>107.32</ele>
        <time>2013-05-09T14:24:38Z</time>
      </trkpt>
      <trkpt lat="48.71391" lon="-3.40376">
        <ele>108.77</ele>
        <time>2013-05-09T14:24:39Z</time>
      </trkpt>
      <trkpt lat="48.71386" lon="-3.40371">
        <ele>108.77</ele>
        <time>2013-05-09T14:24:40Z</time>
      </trkpt>
      <trkpt lat="48.7129" lon="-3.40296">
        <ele>109.73</ele>
        <time>2013-05-09T14:25:00Z</time>
      </trkpt>
      <trkpt lat="48.71205" lon="-3.4027">
        <ele>111.65</ele>
        <time>2013-05-09T14:25:18Z</time>
      </trkpt>
      <trkpt lat="48.7114" lon="-3.40256">
        <ele>114.05</ele>
        <time>2013-05-09T14:25:31Z</time>
      </trkpt>
      <trkpt lat="48.71136" lon="-3.40253">
        <ele>114.05</ele>
        <time>2013-05-09T14:25:32Z</time>
      </trkpt>
      <trkpt lat="48.71132" lon="-3.40249">
        <ele>114.05</ele>
        <time>2013-05-09T14:25:33Z</time>
      </trkpt>
      <trkpt lat="48.71129" lon="-3.40245">
        <ele>114.53</ele>
        <time>2013-05-09T14:25:34Z</time>
      </trkpt>
      <trkpt lat="48.71126" lon="-3.40241">
        <ele>114.05</ele>
        <time>2013-05-09T14:25:35Z</time>
      </trkpt>
      <trkpt lat="48.71124" lon="-3.40237">
        <ele>115.01</ele>
        <time>2013-05-09T14:25:36Z</time>
      </trkpt>
      <trkpt lat="48.71116" lon="-3.40225">
        <ele>115.98</ele>
        <time>2013-05-09T14:25:39Z</time>
      </trkpt>
      <trkpt lat="48.71099" lon="-3.40206">
        <ele>119.34</ele>
        <time>2013-05-09T14:25:45Z</time>
      </trkpt>
      <trkpt lat="48.71096" lon="-3.40207">
        <ele>118.86</ele>
        <time>2013-05-09T14:25:46Z</time>
      </trkpt>
      <trkpt lat="48.71093" lon="-3.4021">
        <ele>118.86</ele>
        <time>2013-05-09T14:25:47Z</time>
      </trkpt>
      <trkpt lat="48.71091" lon="-3.40213">
        <ele>119.82</ele>
        <time>2013-05-09T14:25:48Z</time>
      </trkpt>
      <trkpt lat="48.71088" lon="-3.40217">
        <ele>119.34</ele>
        <time>2013-05-09T14:25:49Z</time>
      </trkpt>
      <trkpt lat="48.71031" lon="-3.4026">
        <ele>120.78</ele>
        <time>2013-05-09T14:26:05Z</time>
      </trkpt>
      <trkpt lat="48.70981" lon="-3.40266">
        <ele>124.15</ele>
        <time>2013-05-09T14:26:18Z</time>
      </trkpt>
      <trkpt lat="48.70896" lon="-3.4026">
        <ele>126.07</ele>
        <time>2013-05-09T14:26:40Z</time>
      </trkpt>
      <trkpt lat="48.70806" lon="-3.40244">
        <ele>127.03</ele>
        <time>2013-05-09T14:27:01Z</time>
      </trkpt>
      <trkpt lat="48.70715" lon="-3.40226">
        <ele>126.07</ele>
        <time>2013-05-09T14:27:21Z</time>
      </trkpt>
      <trkpt lat="48.70627" lon="-3.40216">
        <ele>126.55</ele>
        <time>2013-05-09T14:27:40Z</time>
      </trkpt>
      <trkpt lat="48.70535" lon="-3.40236">
        <ele>125.11</ele>
        <time>2013-05-09T14:27:57Z</time>
      </trkpt>
      <trkpt lat="48.7044" lon="-3.40283">
        <ele>124.15</ele>
        <time>2013-05-09T14:28:14Z</time>
      </trkpt>
      <trkpt lat="48.70316" lon="-3.40285">
        <ele>122.71</ele>
        <time>2013-05-09T14:28:34Z</time>
      </trkpt>
      <trkpt lat="48.70236" lon="-3.40299">
        <ele>124.63</ele>
        <time>2013-05-09T14:28:48Z</time>
      </trkpt>
      <trkpt lat="48.7015" lon="-3.40323">
        <ele>127.51</ele>
        <time>2013-05-09T14:29:07Z</time>
      </trkpt>
      <trkpt lat="48.70079" lon="-3.40329">
        <ele>130.88</ele>
        <time>2013-05-09T14:29:22Z</time>
      </trkpt>
      <trkpt lat="48.6996" lon="-3.40341">
        <ele>131.36</ele>
        <time>2013-05-09T14:29:47Z</time>
      </trkpt>
      <trkpt lat="48.69854" lon="-3.4036">
        <ele>130.88</ele>
        <time>2013-05-09T14:30:09Z</time>
      </trkpt>
      <trkpt lat="48.6977" lon="-3.40402">
        <ele>129.92</ele>
        <time>2013-05-09T14:30:27Z</time>
      </trkpt>
      <trkpt lat="48.69693" lon="-3.40409">
        <ele>126.55</ele>
        <time>2013-05-09T14:30:40Z</time>
      </trkpt>
      <trkpt lat="48.69591" lon="-3.40412">
        <ele>125.59</ele>
        <time>2013-05-09T14:30:56Z</time>
      </trkpt>
      <trkpt lat="48.69486" lon="-3.40385">
        <ele>123.19</ele>
        <time>2013-05-09T14:31:12Z</time>
      </trkpt>
      <trkpt lat="48.69395" lon="-3.40375">
        <ele>124.15</ele>
        <time>2013-05-09T14:31:27Z</time>
      </trkpt>
      <trkpt lat="48.69322" lon="-3.40335">
        <ele>121.74</ele>
        <time>2013-05-09T14:31:41Z</time>
      </trkpt>
      <trkpt lat="48.69301" lon="-3.40321">
        <ele>120.78</ele>
        <time>2013-05-09T14:31:45Z</time>
      </trkpt>
      <trkpt lat="48.69213" lon="-3.40232">
        <ele>119.34</ele>
        <time>2013-05-09T14:32:02Z</time>
      </trkpt>
      <trkpt lat="48.69126" lon="-3.40163">
        <ele>117.42</ele>
        <time>2013-05-09T14:32:17Z</time>
      </trkpt>
      <trkpt lat="48.6904" lon="-3.40087">
        <ele>113.57</ele>
        <time>2013-05-09T14:32:33Z</time>
      </trkpt>
      <trkpt lat="48.69035" lon="-3.40082">
        <ele>113.57</ele>
        <time>2013-05-09T14:32:34Z</time>
      </trkpt>
      <trkpt lat="48.68946" lon="-3.40039">
        <ele>113.57</ele>
        <time>2013-05-09T14:32:49Z</time>
      </trkpt>
      <trkpt lat="48.68892" lon="-3.4003">
        <ele>114.05</ele>
        <time>2013-05-09T14:32:59Z</time>
      </trkpt>
      <trkpt lat="48.68791" lon="-3.40007">
        <ele>114.53</ele>
        <time>2013-05-09T14:33:19Z</time>
      </trkpt>
      <trkpt lat="48.68704" lon="-3.3998">
        <ele>117.42</ele>
        <time>2013-05-09T14:33:35Z</time>
      </trkpt>
      <trkpt lat="48.6858" lon="-3.39956">
        <ele>115.01</ele>
        <time>2013-05-09T14:33:57Z</time>
      </trkpt>
      <trkpt lat="48.68468" lon="-3.3997">
        <ele>115.5</ele>
        <time>2013-05-09T14:34:17Z</time>
      </trkpt>
      <trkpt lat="48.68402" lon="-3.39918">
        <ele>115.5</ele>
        <time>2013-05-09T14:34:30Z</time>
      </trkpt>
      <trkpt lat="48.68355" lon="-3.39898">
        <ele>115.01</ele>
        <time>2013-05-09T14:34:38Z</time>
      </trkpt>
      <trkpt lat="48.68225" lon="-3.39839">
        <ele>115.01</ele>
        <time>2013-05-09T14:35:00Z</time>
      </trkpt>
      <trkpt lat="48.68206" lon="-3.3982">
        <ele>112.13</ele>
        <time>2013-05-09T14:35:04Z</time>
      </trkpt>
      <trkpt lat="48.68112" lon="-3.39719">
        <ele>113.57</ele>
        <time>2013-05-09T14:35:23Z</time>
      </trkpt>
      <trkpt lat="48.68008" lon="-3.39629">
        <ele>115.01</ele>
        <time>2013-05-09T14:35:44Z</time>
      </trkpt>
      <trkpt lat="48.67951" lon="-3.39593">
        <ele>118.38</ele>
        <time>2013-05-09T14:35:56Z</time>
      </trkpt>
      <trkpt lat="48.67941" lon="-3.3959">
        <ele>119.82</ele>
        <time>2013-05-09T14:35:58Z</time>
      </trkpt>
      <trkpt lat="48.67863" lon="-3.3958">
        <ele>119.82</ele>
        <time>2013-05-09T14:36:14Z</time>
      </trkpt>
      <trkpt lat="48.67778" lon="-3.39572">
        <ele>120.3</ele>
        <time>2013-05-09T14:36:30Z</time>
      </trkpt>
      <trkpt lat="48.67654" lon="-3.39523">
        <ele>121.74</ele>
        <time>2013-05-09T14:36:49Z</time>
      </trkpt>
      <trkpt lat="48.67546" lon="-3.39462">
        <ele>121.26</ele>
        <time>2013-05-09T14:37:06Z</time>
      </trkpt>
      <trkpt lat="48.67493" lon="-3.39449">
        <ele>123.19</ele>
        <time>2013-05-09T14:37:14Z</time>
      </trkpt>
      <trkpt lat="48.67463" lon="-3.39437">
        <ele>122.22</ele>
        <time>2013-05-09T14:37:19Z</time>
      </trkpt>
      <trkpt lat="48.67427" lon="-3.39417">
        <ele>123.19</ele>
        <time>2013-05-09T14:37:25Z</time>
      </trkpt>
      <trkpt lat="48.67321" lon="-3.39387">
        <ele>124.15</ele>
        <time>2013-05-09T14:37:41Z</time>
      </trkpt>
      <trkpt lat="48.6722" lon="-3.39423">
        <ele>126.07</ele>
        <time>2013-05-09T14:37:56Z</time>
      </trkpt>
      <trkpt lat="48.67144" lon="-3.39434">
        <ele>128.95</ele>
        <time>2013-05-09T14:38:08Z</time>
      </trkpt>
      <trkpt lat="48.67019" lon="-3.39471">
        <ele>129.92</ele>
        <time>2013-05-09T14:38:28Z</time>
      </trkpt>
      <trkpt lat="48.66983" lon="-3.39491">
        <ele>129.43</ele>
        <time>2013-05-09T14:38:34Z</time>
      </trkpt>
      <trkpt lat="48.6696" lon="-3.39519">
        <ele>129.43</ele>
        <time>2013-05-09T14:38:40Z</time>
      </trkpt>
      <trkpt lat="48.66956" lon="-3.39523">
        <ele>128.95</ele>
        <time>2013-05-09T14:38:41Z</time>
      </trkpt>
      <trkpt lat="48.66952" lon="-3.39527">
        <ele>129.92</ele>
        <time>2013-05-09T14:38:42Z</time>
      </trkpt>
      <trkpt lat="48.66949" lon="-3.39529">
        <ele>129.92</ele>
        <time>2013-05-09T14:38:43Z</time>
      </trkpt>
      <trkpt lat="48.66946" lon="-3.39534">
        <ele>130.4</ele>
        <time>2013-05-09T14:38:44Z</time>
      </trkpt>
      <trkpt lat="48.66944" lon="-3.39539">
        <ele>131.36</ele>
        <time>2013-05-09T14:38:45Z</time>
      </trkpt>
      <trkpt lat="48.66942" lon="-3.39546">
        <ele>130.88</ele>
        <time>2013-05-09T14:38:46Z</time>
      </trkpt>
      <trkpt lat="48.6694" lon="-3.39553">
        <ele>130.4</ele>
        <time>2013-05-09T14:38:47Z</time>
      </trkpt>
      <trkpt lat="48.66937" lon="-3.39557">
        <ele>129.92</ele>
        <time>2013-05-09T14:38:48Z</time>
      </trkpt>
      <trkpt lat="48.66864" lon="-3.39613">
        <ele>131.36</ele>
        <time>2013-05-09T14:39:05Z</time>
      </trkpt>
      <trkpt lat="48.66861" lon="-3.39617">
        <ele>131.84</ele>
        <time>2013-05-09T14:39:06Z</time>
      </trkpt>
      <trkpt lat="48.66857" lon="-3.39622">
        <ele>131.36</ele>
        <time>2013-05-09T14:39:07Z</time>
      </trkpt>
      <trkpt lat="48.66826" lon="-3.39687">
        <ele>132.32</ele>
        <time>2013-05-09T14:39:19Z</time>
      </trkpt>
      <trkpt lat="48.668" lon="-3.39718">
        <ele>134.24</ele>
        <time>2013-05-09T14:39:29Z</time>
      </trkpt>
      <trkpt lat="48.66768" lon="-3.3973">
        <ele>137.13</ele>
        <time>2013-05-09T14:39:43Z</time>
      </trkpt>
      <trkpt lat="48.66768" lon="-3.3973">
        <ele>137.13</ele>
        <time>2013-05-09T14:39:44Z</time>
      </trkpt>
      <trkpt lat="48.66763" lon="-3.39733">
        <ele>137.61</ele>
        <time>2013-05-09T14:39:47Z</time>
      </trkpt>
      <trkpt lat="48.6676" lon="-3.39733">
        <ele>140.01</ele>
        <time>2013-05-09T14:39:48Z</time>
      </trkpt>
      <trkpt lat="48.66756" lon="-3.39733">
        <ele>140.49</ele>
        <time>2013-05-09T14:39:49Z</time>
      </trkpt>
      <trkpt lat="48.66737" lon="-3.39733">
        <ele>138.09</ele>
        <time>2013-05-09T14:39:52Z</time>
      </trkpt>
      <trkpt lat="48.6666" lon="-3.39715">
        <ele>138.09</ele>
        <time>2013-05-09T14:40:07Z</time>
      </trkpt>
      <trkpt lat="48.66538" lon="-3.39703">
        <ele>140.49</ele>
        <time>2013-05-09T14:40:26Z</time>
      </trkpt>
      <trkpt lat="48.66451" lon="-3.39713">
        <ele>141.93</ele>
        <time>2013-05-09T14:40:43Z</time>
      </trkpt>
      <trkpt lat="48.66349" lon="-3.3969">
        <ele>143.37</ele>
        <time>2013-05-09T14:41:00Z</time>
      </trkpt>
      <trkpt lat="48.66221" lon="-3.39642">
        <ele>142.41</ele>
        <time>2013-05-09T14:41:21Z</time>
      </trkpt>
      <trkpt lat="48.66114" lon="-3.39598">
        <ele>140.97</ele>
        <time>2013-05-09T14:41:41Z</time>
      </trkpt>
      <trkpt lat="48.65987" lon="-3.39552">
        <ele>141.93</ele>
        <time>2013-05-09T14:42:03Z</time>
      </trkpt>
      <trkpt lat="48.65868" lon="-3.395">
        <ele>140.49</ele>
        <time>2013-05-09T14:42:24Z</time>
      </trkpt>
      <trkpt lat="48.65862" lon="-3.39498">
        <ele>140.49</ele>
        <time>2013-05-09T14:42:25Z</time>
      </trkpt>
      <trkpt lat="48.65745" lon="-3.39477">
        <ele>142.89</ele>
        <time>2013-05-09T14:42:45Z</time>
      </trkpt>
      <trkpt lat="48.65635" lon="-3.3948">
        <ele>142.41</ele>
        <time>2013-05-09T14:43:04Z</time>
      </trkpt>
      <trkpt lat="48.65565" lon="-3.39468">
        <ele>141.93</ele>
        <time>2013-05-09T14:43:16Z</time>
      </trkpt>
      <trkpt lat="48.65548" lon="-3.39471">
        <ele>140.49</ele>
        <time>2013-05-09T14:43:19Z</time>
      </trkpt>
      <trkpt lat="48.65525" lon="-3.39479">
        <ele>143.85</ele>
        <time>2013-05-09T14:43:23Z</time>
      </trkpt>
      <trkpt lat="48.655" lon="-3.39493">
        <ele>140.01</ele>
        <time>2013-05-09T14:43:28Z</time>
      </trkpt>
      <trkpt lat="48.65496" lon="-3.39495">
        <ele>140.49</ele>
        <time>2013-05-09T14:43:29Z</time>
      </trkpt>
      <trkpt lat="48.65487" lon="-3.39498">
        <ele>141.93</ele>
        <time>2013-05-09T14:43:31Z</time>
      </trkpt>
      <trkpt lat="48.65483" lon="-3.395">
        <ele>141.93</ele>
        <time>2013-05-09T14:43:32Z</time>
      </trkpt>
      <trkpt lat="48.65458" lon="-3.39502">
        <ele>143.37</ele>
        <time>2013-05-09T14:43:37Z</time>
      </trkpt>
      <trkpt lat="48.65381" lon="-3.3949">
        <ele>140.01</ele>
        <time>2013-05-09T14:43:52Z</time>
      </trkpt>
      <trkpt lat="48.65375" lon="-3.39489">
        <ele>140.49</ele>
        <time>2013-05-09T14:43:53Z</time>
      </trkpt>
      <trkpt lat="48.65261" lon="-3.39462">
        <ele>144.34</ele>
        <time>2013-05-09T14:44:13Z</time>
      </trkpt>
      <trkpt lat="48.6514" lon="-3.39427">
        <ele>142.89</ele>
        <time>2013-05-09T14:44:36Z</time>
      </trkpt>
      <trkpt lat="48.65044" lon="-3.39395">
        <ele>142.41</ele>
        <time>2013-05-09T14:44:56Z</time>
      </trkpt>
      <trkpt lat="48.65005" lon="-3.39408">
        <ele>143.85</ele>
        <time>2013-05-09T14:45:06Z</time>
      </trkpt>
      <trkpt lat="48.65001" lon="-3.39412">
        <ele>144.34</ele>
        <time>2013-05-09T14:45:07Z</time>
      </trkpt>
      <trkpt lat="48.64996" lon="-3.39417">
        <ele>144.34</ele>
        <time>2013-05-09T14:45:08Z</time>
      </trkpt>
      <trkpt lat="48.64934" lon="-3.39502">
        <ele>144.34</ele>
        <time>2013-05-09T14:45:25Z</time>
      </trkpt>
      <trkpt lat="48.64866" lon="-3.39623">
        <ele>142.89</ele>
        <time>2013-05-09T14:45:44Z</time>
      </trkpt>
      <trkpt lat="48.64849" lon="-3.39644">
        <ele>142.89</ele>
        <time>2013-05-09T14:45:48Z</time>
      </trkpt>
      <trkpt lat="48.64777" lon="-3.39727">
        <ele>141.45</ele>
        <time>2013-05-09T14:46:04Z</time>
      </trkpt>
      <trkpt lat="48.64744" lon="-3.39788">
        <ele>140.49</ele>
        <time>2013-05-09T14:46:13Z</time>
      </trkpt>
      <trkpt lat="48.64696" lon="-3.3982">
        <ele>140.01</ele>
        <time>2013-05-09T14:46:27Z</time>
      </trkpt>
      <trkpt lat="48.64661" lon="-3.39815">
        <ele>138.57</ele>
        <time>2013-05-09T14:46:37Z</time>
      </trkpt>
      <trkpt lat="48.64653" lon="-3.39822">
        <ele>139.05</ele>
        <time>2013-05-09T14:46:38Z</time>
      </trkpt>
      <trkpt lat="48.64647" lon="-3.39832">
        <ele>139.53</ele>
        <time>2013-05-09T14:46:39Z</time>
      </trkpt>
      <trkpt lat="48.64643" lon="-3.39843">
        <ele>138.57</ele>
        <time>2013-05-09T14:46:40Z</time>
      </trkpt>
      <trkpt lat="48.6464" lon="-3.39855">
        <ele>139.05</ele>
        <time>2013-05-09T14:46:41Z</time>
      </trkpt>
      <trkpt lat="48.64638" lon="-3.39867">
        <ele>138.57</ele>
        <time>2013-05-09T14:46:42Z</time>
      </trkpt>
      <trkpt lat="48.64637" lon="-3.3988">
        <ele>138.57</ele>
        <time>2013-05-09T14:46:43Z</time>
      </trkpt>
      <trkpt lat="48.64636" lon="-3.39894">
        <ele>137.61</ele>
        <time>2013-05-09T14:46:44Z</time>
      </trkpt>
      <trkpt lat="48.64636" lon="-3.39907">
        <ele>137.13</ele>
        <time>2013-05-09T14:46:45Z</time>
      </trkpt>
      <trkpt lat="48.64636" lon="-3.39921">
        <ele>137.13</ele>
        <time>2013-05-09T14:46:46Z</time>
      </trkpt>
      <trkpt lat="48.64683" lon="-3.40254">
        <ele>136.16</ele>
        <time>2013-05-09T14:47:01Z</time>
      </trkpt>
      <trkpt lat="48.64719" lon="-3.40383">
        <ele>135.68</ele>
        <time>2013-05-09T14:47:17Z</time>
      </trkpt>
      <trkpt lat="48.6474" lon="-3.40436">
        <ele>136.64</ele>
        <time>2013-05-09T14:47:29Z</time>
      </trkpt>
      <trkpt lat="48.64758" lon="-3.40452">
        <ele>136.16</ele>
        <time>2013-05-09T14:47:44Z</time>
      </trkpt>
      <trkpt lat="48.64777" lon="-3.40471">
        <ele>136.64</ele>
        <time>2013-05-09T14:47:59Z</time>
      </trkpt>
      <trkpt lat="48.64778" lon="-3.40473">
        <ele>136.64</ele>
        <time>2013-05-09T14:48:00Z</time>
      </trkpt>
      <trkpt lat="48.64779" lon="-3.40478">
        <ele>137.61</ele>
        <time>2013-05-09T14:48:01Z</time>
      </trkpt>
      <trkpt lat="48.6478" lon="-3.4049">
        <ele>136.64</ele>
        <time>2013-05-09T14:48:03Z</time>
      </trkpt>
      <trkpt lat="48.64781" lon="-3.40639">
        <ele>140.49</ele>
        <time>2013-05-09T14:48:19Z</time>
      </trkpt>
      <trkpt lat="48.64782" lon="-3.40667">
        <ele>139.53</ele>
        <time>2013-05-09T14:48:22Z</time>
      </trkpt>
      <trkpt lat="48.64821" lon="-3.40891">
        <ele>140.49</ele>
        <time>2013-05-09T14:48:24Z</time>
      </trkpt>
      <trkpt lat="48.64822" lon="-3.40896">
        <ele>140.49</ele>
        <time>2013-05-09T14:48:25Z</time>
      </trkpt>
      <trkpt lat="48.64819" lon="-3.40963">
        <ele>137.61</ele>
        <time>2013-05-09T14:48:35Z</time>
      </trkpt>
      <trkpt lat="48.64817" lon="-3.41126">
        <ele>136.16</ele>
        <time>2013-05-09T14:48:57Z</time>
      </trkpt>
      <trkpt lat="48.64817" lon="-3.41141">
        <ele>135.2</ele>
        <time>2013-05-09T14:48:59Z</time>
      </trkpt>
      <trkpt lat="48.6484" lon="-3.41255">
        <ele>133.28</ele>
        <time>2013-05-09T14:49:14Z</time>
      </trkpt>
      <trkpt lat="48.6486" lon="-3.41294">
        <ele>131.36</ele>
        <time>2013-05-09T14:49:19Z</time>
      </trkpt>
      <trkpt lat="48.64871" lon="-3.41312">
        <ele>129.92</ele>
        <time>2013-05-09T14:49:21Z</time>
      </trkpt>
      <trkpt lat="48.649" lon="-3.41361">
        <ele>128.47</ele>
        <time>2013-05-09T14:49:27Z</time>
      </trkpt>
      <trkpt lat="48.64913" lon="-3.4139">
        <ele>126.55</ele>
        <time>2013-05-09T14:49:30Z</time>
      </trkpt>
      <trkpt lat="48.64959" lon="-3.41484">
        <ele>124.63</ele>
        <time>2013-05-09T14:49:40Z</time>
      </trkpt>
      <trkpt lat="48.64982" lon="-3.41551">
        <ele>120.3</ele>
        <time>2013-05-09T14:49:47Z</time>
      </trkpt>
      <trkpt lat="48.64981" lon="-3.41564">
        <ele>120.3</ele>
        <time>2013-05-09T14:49:48Z</time>
      </trkpt>
      <trkpt lat="48.6498" lon="-3.41602">
        <ele>118.86</ele>
        <time>2013-05-09T14:49:50Z</time>
      </trkpt>
      <trkpt lat="48.64978" lon="-3.41618">
        <ele>117.9</ele>
        <time>2013-05-09T14:49:51Z</time>
      </trkpt>
      <trkpt lat="48.64975" lon="-3.41633">
        <ele>117.42</ele>
        <time>2013-05-09T14:49:52Z</time>
      </trkpt>
      <trkpt lat="48.64964" lon="-3.41675">
        <ele>114.05</ele>
        <time>2013-05-09T14:49:55Z</time>
      </trkpt>
      <trkpt lat="48.64958" lon="-3.41701">
        <ele>113.09</ele>
        <time>2013-05-09T14:49:57Z</time>
      </trkpt>
      <trkpt lat="48.64949" lon="-3.41739">
        <ele>110.21</ele>
        <time>2013-05-09T14:50:00Z</time>
      </trkpt>
      <trkpt lat="48.64945" lon="-3.4178">
        <ele>109.73</ele>
        <time>2013-05-09T14:50:03Z</time>
      </trkpt>
      <trkpt lat="48.64949" lon="-3.41837">
        <ele>106.84</ele>
        <time>2013-05-09T14:50:07Z</time>
      </trkpt>
      <trkpt lat="48.6495" lon="-3.41874">
        <ele>104.92</ele>
        <time>2013-05-09T14:50:10Z</time>
      </trkpt>
      <trkpt lat="48.64936" lon="-3.41959">
        <ele>101.56</ele>
        <time>2013-05-09T14:50:16Z</time>
      </trkpt>
      <trkpt lat="48.64933" lon="-3.41972">
        <ele>101.56</ele>
        <time>2013-05-09T14:50:17Z</time>
      </trkpt>
      <trkpt lat="48.6493" lon="-3.41986">
        <ele>100.11</ele>
        <time>2013-05-09T14:50:18Z</time>
      </trkpt>
      <trkpt lat="48.64926" lon="-3.42001">
        <ele>97.71</ele>
        <time>2013-05-09T14:50:19Z</time>
      </trkpt>
      <trkpt lat="48.6491" lon="-3.4207">
        <ele>93.87</ele>
        <time>2013-05-09T14:50:24Z</time>
      </trkpt>
      <trkpt lat="48.64886" lon="-3.42167">
        <ele>90.02</ele>
        <time>2013-05-09T14:50:30Z</time>
      </trkpt>
      <trkpt lat="48.64866" lon="-3.4225">
        <ele>86.66</ele>
        <time>2013-05-09T14:50:36Z</time>
      </trkpt>
      <trkpt lat="48.64846" lon="-3.42333">
        <ele>83.29</ele>
        <time>2013-05-09T14:50:42Z</time>
      </trkpt>
      <trkpt lat="48.64992" lon="-3.42724">
        <ele>72.24</ele>
        <time>2013-05-09T14:51:27Z</time>
      </trkpt>
      <trkpt lat="48.6503" lon="-3.42712">
        <ele>73.68</ele>
        <time>2013-05-09T14:51:33Z</time>
      </trkpt>
      <trkpt lat="48.6508" lon="-3.42701">
        <ele>76.56</ele>
        <time>2013-05-09T14:51:47Z</time>
      </trkpt>
      <trkpt lat="48.65112" lon="-3.42715">
        <ele>79.93</ele>
        <time>2013-05-09T14:51:58Z</time>
      </trkpt>
      <trkpt lat="48.65118" lon="-3.42715">
        <ele>80.89</ele>
        <time>2013-05-09T14:52:00Z</time>
      </trkpt>
      <trkpt lat="48.6519" lon="-3.42672">
        <ele>82.33</ele>
        <time>2013-05-09T14:52:15Z</time>
      </trkpt>
      <trkpt lat="48.65232" lon="-3.42659">
        <ele>85.69</ele>
        <time>2013-05-09T14:52:27Z</time>
      </trkpt>
      <trkpt lat="48.65265" lon="-3.42654">
        <ele>87.14</ele>
        <time>2013-05-09T14:52:30Z</time>
      </trkpt>
      <trkpt lat="48.65304" lon="-3.42649">
        <ele>90.98</ele>
        <time>2013-05-09T14:52:44Z</time>
      </trkpt>
      <trkpt lat="48.6531" lon="-3.4264">
        <ele>91.46</ele>
        <time>2013-05-09T14:52:48Z</time>
      </trkpt>
      <trkpt lat="48.65309" lon="-3.42639">
        <ele>92.9</ele>
        <time>2013-05-09T14:52:50Z</time>
      </trkpt>
      <trkpt lat="48.65297" lon="-3.42644">
        <ele>96.27</ele>
        <time>2013-05-09T14:53:01Z</time>
      </trkpt>
      <trkpt lat="48.65283" lon="-3.42651">
        <ele>98.67</ele>
        <time>2013-05-09T14:53:10Z</time>
      </trkpt>
      <trkpt lat="48.65308" lon="-3.42829">
        <ele>100.11</ele>
        <time>2013-05-09T14:53:13Z</time>
      </trkpt>
      <trkpt lat="48.65289" lon="-3.42848">
        <ele>103.48</ele>
        <time>2013-05-09T14:53:26Z</time>
      </trkpt>
      <trkpt lat="48.65274" lon="-3.42943">
        <ele>106.36</ele>
        <time>2013-05-09T14:53:44Z</time>
      </trkpt>
      <trkpt lat="48.6525" lon="-3.43019">
        <ele>107.81</ele>
        <time>2013-05-09T14:54:04Z</time>
      </trkpt>
      <trkpt lat="48.65226" lon="-3.4307">
        <ele>109.73</ele>
        <time>2013-05-09T14:54:23Z</time>
      </trkpt>
      <trkpt lat="48.65224" lon="-3.43072">
        <ele>110.69</ele>
        <time>2013-05-09T14:54:24Z</time>
      </trkpt>
      <trkpt lat="48.65222" lon="-3.43073">
        <ele>110.69</ele>
        <time>2013-05-09T14:54:25Z</time>
      </trkpt>
      <trkpt lat="48.6522" lon="-3.43077">
        <ele>111.17</ele>
        <time>2013-05-09T14:54:26Z</time>
      </trkpt>
      <trkpt lat="48.65218" lon="-3.43081">
        <ele>111.65</ele>
        <time>2013-05-09T14:54:27Z</time>
      </trkpt>
      <trkpt lat="48.65217" lon="-3.43084">
        <ele>111.65</ele>
        <time>2013-05-09T14:54:28Z</time>
      </trkpt>
      <trkpt lat="48.65223" lon="-3.43231">
        <ele>115.01</ele>
        <time>2013-05-09T14:54:40Z</time>
      </trkpt>
      <trkpt lat="48.65249" lon="-3.43377">
        <ele>118.38</ele>
        <time>2013-05-09T14:54:56Z</time>
      </trkpt>
      <trkpt lat="48.65275" lon="-3.43459">
        <ele>120.78</ele>
        <time>2013-05-09T14:55:10Z</time>
      </trkpt>
      <trkpt lat="48.65328" lon="-3.43542">
        <ele>121.26</ele>
        <time>2013-05-09T14:55:29Z</time>
      </trkpt>
      <trkpt lat="48.65375" lon="-3.43607">
        <ele>124.63</ele>
        <time>2013-05-09T14:55:46Z</time>
      </trkpt>
      <trkpt lat="48.65436" lon="-3.43684">
        <ele>127.03</ele>
        <time>2013-05-09T14:56:05Z</time>
      </trkpt>
      <trkpt lat="48.65456" lon="-3.43708">
        <ele>130.4</ele>
        <time>2013-05-09T14:56:10Z</time>
      </trkpt>
      <trkpt lat="48.65493" lon="-3.4377">
        <ele>133.28</ele>
        <time>2013-05-09T14:56:26Z</time>
      </trkpt>
      <trkpt lat="48.65519" lon="-3.43854">
        <ele>136.64</ele>
        <time>2013-05-09T14:56:40Z</time>
      </trkpt>
      <trkpt lat="48.65553" lon="-3.43962">
        <ele>139.05</ele>
        <time>2013-05-09T14:57:00Z</time>
      </trkpt>
      <trkpt lat="48.65584" lon="-3.44084">
        <ele>139.53</ele>
        <time>2013-05-09T14:57:19Z</time>
      </trkpt>
      <trkpt lat="48.65584" lon="-3.4409">
        <ele>138.57</ele>
        <time>2013-05-09T14:57:20Z</time>
      </trkpt>
      <trkpt lat="48.65586" lon="-3.44218">
        <ele>138.57</ele>
        <time>2013-05-09T14:57:37Z</time>
      </trkpt>
      <trkpt lat="48.65587" lon="-3.44336">
        <ele>140.01</ele>
        <time>2013-05-09T14:57:53Z</time>
      </trkpt>
      <trkpt lat="48.65581" lon="-3.44378">
        <ele>141.45</ele>
        <time>2013-05-09T14:57:59Z</time>
      </trkpt>
      <trkpt lat="48.65579" lon="-3.44391">
        <ele>140.01</ele>
        <time>2013-05-09T14:58:01Z</time>
      </trkpt>
      <trkpt lat="48.65578" lon="-3.44459">
        <ele>139.05</ele>
        <time>2013-05-09T14:58:13Z</time>
      </trkpt>
      <trkpt lat="48.65549" lon="-3.44474">
        <ele>139.05</ele>
        <time>2013-05-09T14:58:22Z</time>
      </trkpt>
      <trkpt lat="48.65456" lon="-3.44504">
        <ele>141.45</ele>
        <time>2013-05-09T14:58:43Z</time>
      </trkpt>
      <trkpt lat="48.65394" lon="-3.44533">
        <ele>140.97</ele>
        <time>2013-05-09T14:58:58Z</time>
      </trkpt>
      <trkpt lat="48.6538" lon="-3.44539">
        <ele>142.89</ele>
        <time>2013-05-09T14:59:01Z</time>
      </trkpt>
      <trkpt lat="48.65272" lon="-3.44585">
        <ele>140.97</ele>
        <time>2013-05-09T14:59:26Z</time>
      </trkpt>
      <trkpt lat="48.65173" lon="-3.4461">
        <ele>140.49</ele>
        <time>2013-05-09T14:59:46Z</time>
      </trkpt>
      <trkpt lat="48.65073" lon="-3.44636">
        <ele>140.49</ele>
        <time>2013-05-09T15:00:06Z</time>
      </trkpt>
      <trkpt lat="48.65007" lon="-3.44644">
        <ele>140.49</ele>
        <time>2013-05-09T15:00:19Z</time>
      </trkpt>
      <trkpt lat="48.64893" lon="-3.44637">
        <ele>139.05</ele>
        <time>2013-05-09T15:00:41Z</time>
      </trkpt>
      <trkpt lat="48.64761" lon="-3.44609">
        <ele>138.57</ele>
        <time>2013-05-09T15:01:06Z</time>
      </trkpt>
      <trkpt lat="48.64712" lon="-3.44598">
        <ele>138.57</ele>
        <time>2013-05-09T15:01:15Z</time>
      </trkpt>
      <trkpt lat="48.64613" lon="-3.44592">
        <ele>140.49</ele>
        <time>2013-05-09T15:01:35Z</time>
      </trkpt>
      <trkpt lat="48.64518" lon="-3.44627">
        <ele>140.49</ele>
        <time>2013-05-09T15:01:56Z</time>
      </trkpt>
      <trkpt lat="48.64408" lon="-3.44711">
        <ele>144.82</ele>
        <time>2013-05-09T15:02:20Z</time>
      </trkpt>
      <trkpt lat="48.64323" lon="-3.44815">
        <ele>143.85</ele>
        <time>2013-05-09T15:02:42Z</time>
      </trkpt>
      <trkpt lat="48.64254" lon="-3.44908">
        <ele>142.89</ele>
        <time>2013-05-09T15:03:01Z</time>
      </trkpt>
      <trkpt lat="48.64173" lon="-3.45055">
        <ele>141.45</ele>
        <time>2013-05-09T15:03:25Z</time>
      </trkpt>
      <trkpt lat="48.64169" lon="-3.4506">
        <ele>141.45</ele>
        <time>2013-05-09T15:03:26Z</time>
      </trkpt>
      <trkpt lat="48.64095" lon="-3.45185">
        <ele>140.49</ele>
        <time>2013-05-09T15:03:47Z</time>
      </trkpt>
      <trkpt lat="48.64018" lon="-3.45304">
        <ele>141.45</ele>
        <time>2013-05-09T15:04:10Z</time>
      </trkpt>
      <trkpt lat="48.63936" lon="-3.45424">
        <ele>144.82</ele>
        <time>2013-05-09T15:04:35Z</time>
      </trkpt>
      <trkpt lat="48.63927" lon="-3.45437">
        <ele>142.89</ele>
        <time>2013-05-09T15:04:38Z</time>
      </trkpt>
      <trkpt lat="48.63887" lon="-3.45501">
        <ele>143.85</ele>
        <time>2013-05-09T15:04:51Z</time>
      </trkpt>
      <trkpt lat="48.63823" lon="-3.45586">
        <ele>144.34</ele>
        <time>2013-05-09T15:05:11Z</time>
      </trkpt>
      <trkpt lat="48.63753" lon="-3.45695">
        <ele>143.85</ele>
        <time>2013-05-09T15:05:34Z</time>
      </trkpt>
      <trkpt lat="48.6366" lon="-3.45815">
        <ele>144.82</ele>
        <time>2013-05-09T15:05:59Z</time>
      </trkpt>
      <trkpt lat="48.6356" lon="-3.45914">
        <ele>146.74</ele>
        <time>2013-05-09T15:06:22Z</time>
      </trkpt>
      <trkpt lat="48.63538" lon="-3.45931">
        <ele>146.26</ele>
        <time>2013-05-09T15:06:27Z</time>
      </trkpt>
      <trkpt lat="48.63424" lon="-3.46041">
        <ele>149.14</ele>
        <time>2013-05-09T15:06:53Z</time>
      </trkpt>
      <trkpt lat="48.63371" lon="-3.46099">
        <ele>149.62</ele>
        <time>2013-05-09T15:07:05Z</time>
      </trkpt>
      <trkpt lat="48.63272" lon="-3.46198">
        <ele>152.03</ele>
        <time>2013-05-09T15:07:28Z</time>
      </trkpt>
      <trkpt lat="48.63191" lon="-3.46283">
        <ele>152.99</ele>
        <time>2013-05-09T15:07:48Z</time>
      </trkpt>
      <trkpt lat="48.63115" lon="-3.4637">
        <ele>156.35</ele>
        <time>2013-05-09T15:08:07Z</time>
      </trkpt>
      <trkpt lat="48.63073" lon="-3.46417">
        <ele>155.39</ele>
        <time>2013-05-09T15:08:18Z</time>
      </trkpt>
      <trkpt lat="48.63062" lon="-3.46429">
        <ele>157.79</ele>
        <time>2013-05-09T15:08:21Z</time>
      </trkpt>
      <trkpt lat="48.63034" lon="-3.4646">
        <ele>156.83</ele>
        <time>2013-05-09T15:08:29Z</time>
      </trkpt>
      <trkpt lat="48.62937" lon="-3.46544">
        <ele>158.27</ele>
        <time>2013-05-09T15:08:53Z</time>
      </trkpt>
      <trkpt lat="48.62872" lon="-3.46582">
        <ele>161.16</ele>
        <time>2013-05-09T15:09:08Z</time>
      </trkpt>
      <trkpt lat="48.62762" lon="-3.46611">
        <ele>160.68</ele>
        <time>2013-05-09T15:09:32Z</time>
      </trkpt>
      <trkpt lat="48.62731" lon="-3.46617">
        <ele>161.16</ele>
        <time>2013-05-09T15:09:38Z</time>
      </trkpt>
      <trkpt lat="48.62625" lon="-3.46629">
        <ele>160.68</ele>
        <time>2013-05-09T15:09:58Z</time>
      </trkpt>
      <trkpt lat="48.6252" lon="-3.46644">
        <ele>161.64</ele>
        <time>2013-05-09T15:10:19Z</time>
      </trkpt>
      <trkpt lat="48.62409" lon="-3.4667">
        <ele>162.12</ele>
        <time>2013-05-09T15:10:40Z</time>
      </trkpt>
      <trkpt lat="48.62308" lon="-3.46719">
        <ele>159.72</ele>
        <time>2013-05-09T15:10:58Z</time>
      </trkpt>
      <trkpt lat="48.62294" lon="-3.46722">
        <ele>158.75</ele>
        <time>2013-05-09T15:11:00Z</time>
      </trkpt>
      <trkpt lat="48.62172" lon="-3.46748">
        <ele>157.31</ele>
        <time>2013-05-09T15:11:17Z</time>
      </trkpt>
      <trkpt lat="48.62048" lon="-3.46794">
        <ele>155.87</ele>
        <time>2013-05-09T15:11:37Z</time>
      </trkpt>
      <trkpt lat="48.61924" lon="-3.46811">
        <ele>154.91</ele>
        <time>2013-05-09T15:11:57Z</time>
      </trkpt>
      <trkpt lat="48.6186" lon="-3.46814">
        <ele>151.54</ele>
        <time>2013-05-09T15:12:07Z</time>
      </trkpt>
      <trkpt lat="48.61813" lon="-3.46796">
        <ele>148.18</ele>
        <time>2013-05-09T15:12:14Z</time>
      </trkpt>
      <trkpt lat="48.61799" lon="-3.46792">
        <ele>147.7</ele>
        <time>2013-05-09T15:12:16Z</time>
      </trkpt>
      <trkpt lat="48.6172" lon="-3.46806">
        <ele>146.74</ele>
        <time>2013-05-09T15:12:27Z</time>
      </trkpt>
      <trkpt lat="48.61594" lon="-3.46906">
        <ele>144.34</ele>
        <time>2013-05-09T15:12:46Z</time>
      </trkpt>
      <trkpt lat="48.61549" lon="-3.4695">
        <ele>140.97</ele>
        <time>2013-05-09T15:12:54Z</time>
      </trkpt>
      <trkpt lat="48.61496" lon="-3.47004">
        <ele>137.13</ele>
        <time>2013-05-09T15:13:04Z</time>
      </trkpt>
      <trkpt lat="48.61492" lon="-3.47009">
        <ele>137.13</ele>
        <time>2013-05-09T15:13:05Z</time>
      </trkpt>
      <trkpt lat="48.61449" lon="-3.47046">
        <ele>140.49</ele>
        <time>2013-05-09T15:13:14Z</time>
      </trkpt>
      <trkpt lat="48.61387" lon="-3.47108">
        <ele>143.37</ele>
        <time>2013-05-09T15:13:31Z</time>
      </trkpt>
      <trkpt lat="48.61337" lon="-3.47187">
        <ele>146.74</ele>
        <time>2013-05-09T15:13:48Z</time>
      </trkpt>
      <trkpt lat="48.61324" lon="-3.47213">
        <ele>148.18</ele>
        <time>2013-05-09T15:13:53Z</time>
      </trkpt>
      <trkpt lat="48.61301" lon="-3.47253">
        <ele>150.58</ele>
        <time>2013-05-09T15:14:02Z</time>
      </trkpt>
      <trkpt lat="48.61274" lon="-3.47273">
        <ele>152.51</ele>
        <time>2013-05-09T15:14:11Z</time>
      </trkpt>
      <trkpt lat="48.61245" lon="-3.47285">
        <ele>149.62</ele>
        <time>2013-05-09T15:14:21Z</time>
      </trkpt>
      <trkpt lat="48.61244" lon="-3.47283">
        <ele>150.1</ele>
        <time>2013-05-09T15:14:22Z</time>
      </trkpt>
      <trkpt lat="48.61233" lon="-3.47271">
        <ele>149.62</ele>
        <time>2013-05-09T15:14:28Z</time>
      </trkpt>
      <trkpt lat="48.61211" lon="-3.47265">
        <ele>150.1</ele>
        <time>2013-05-09T15:14:40Z</time>
      </trkpt>
      <trkpt lat="48.6121" lon="-3.47261">
        <ele>148.18</ele>
        <time>2013-05-09T15:14:47Z</time>
      </trkpt>
      <trkpt lat="48.61227" lon="-3.47358">
        <ele>151.54</ele>
        <time>2013-05-09T15:14:59Z</time>
      </trkpt>
      <trkpt lat="48.61237" lon="-3.47405">
        <ele>151.54</ele>
        <time>2013-05-09T15:15:00Z</time>
      </trkpt>
      <trkpt lat="48.61261" lon="-3.47504">
        <ele>148.18</ele>
        <time>2013-05-09T15:15:06Z</time>
      </trkpt>
      <trkpt lat="48.61285" lon="-3.47565">
        <ele>152.03</ele>
        <time>2013-05-09T15:15:16Z</time>
      </trkpt>
      <trkpt lat="48.61289" lon="-3.47576">
        <ele>152.99</ele>
        <time>2013-05-09T15:15:18Z</time>
      </trkpt>
      <trkpt lat="48.61294" lon="-3.47586">
        <ele>151.54</ele>
        <time>2013-05-09T15:15:20Z</time>
      </trkpt>
      <trkpt lat="48.61328" lon="-3.4769">
        <ele>154.43</ele>
        <time>2013-05-09T15:15:36Z</time>
      </trkpt>
      <trkpt lat="48.61334" lon="-3.47703">
        <ele>155.39</ele>
        <time>2013-05-09T15:15:38Z</time>
      </trkpt>
      <trkpt lat="48.61351" lon="-3.47735">
        <ele>155.39</ele>
        <time>2013-05-09T15:15:43Z</time>
      </trkpt>
      <trkpt lat="48.61368" lon="-3.47772">
        <ele>158.75</ele>
        <time>2013-05-09T15:15:48Z</time>
      </trkpt>
      <trkpt lat="48.61391" lon="-3.47806">
        <ele>158.27</ele>
        <time>2013-05-09T15:15:54Z</time>
      </trkpt>
      <trkpt lat="48.61455" lon="-3.47906">
        <ele>157.31</ele>
        <time>2013-05-09T15:16:12Z</time>
      </trkpt>
      <trkpt lat="48.615" lon="-3.47976">
        <ele>156.83</ele>
        <time>2013-05-09T15:16:25Z</time>
      </trkpt>
      <trkpt lat="48.61538" lon="-3.48034">
        <ele>153.47</ele>
        <time>2013-05-09T15:16:34Z</time>
      </trkpt>
      <trkpt lat="48.61611" lon="-3.48157">
        <ele>153.95</ele>
        <time>2013-05-09T15:16:50Z</time>
      </trkpt>
      <trkpt lat="48.61668" lon="-3.48232">
        <ele>155.87</ele>
        <time>2013-05-09T15:17:03Z</time>
      </trkpt>
      <trkpt lat="48.61766" lon="-3.48311">
        <ele>158.27</ele>
        <time>2013-05-09T15:17:23Z</time>
      </trkpt>
      <trkpt lat="48.61802" lon="-3.48351">
        <ele>161.64</ele>
        <time>2013-05-09T15:17:31Z</time>
      </trkpt>
      <trkpt lat="48.61806" lon="-3.48355">
        <ele>161.64</ele>
        <time>2013-05-09T15:17:32Z</time>
      </trkpt>
      <trkpt lat="48.61881" lon="-3.48437">
        <ele>165.48</ele>
        <time>2013-05-09T15:17:49Z</time>
      </trkpt>
      <trkpt lat="48.61966" lon="-3.48482">
        <ele>166.93</ele>
        <time>2013-05-09T15:18:05Z</time>
      </trkpt>
      <trkpt lat="48.62054" lon="-3.48537">
        <ele>165.96</ele>
        <time>2013-05-09T15:18:22Z</time>
      </trkpt>
      <trkpt lat="48.62058" lon="-3.4854">
        <ele>163.56</ele>
        <time>2013-05-09T15:18:34Z</time>
      </trkpt>
      <trkpt lat="48.62057" lon="-3.4854">
        <ele>164.04</ele>
        <time>2013-05-09T15:18:35Z</time>
      </trkpt>
      <trkpt lat="48.62057" lon="-3.4854">
        <ele>165.48</ele>
        <time>2013-05-09T15:18:39Z</time>
      </trkpt>
      <trkpt lat="48.62056" lon="-3.4854">
        <ele>163.08</ele>
        <time>2013-05-09T15:18:48Z</time>
      </trkpt>
      <trkpt lat="48.62056" lon="-3.4854">
        <ele>159.72</ele>
        <time>2013-05-09T15:19:10Z</time>
      </trkpt>
      <trkpt lat="48.62056" lon="-3.4854">
        <ele>160.2</ele>
        <time>2013-05-09T15:19:11Z</time>
      </trkpt>
      <trkpt lat="48.62056" lon="-3.4854">
        <ele>161.64</ele>
        <time>2013-05-09T15:19:14Z</time>
      </trkpt>
      <trkpt lat="48.62056" lon="-3.4854">
        <ele>164.04</ele>
        <time>2013-05-09T15:19:21Z</time>
      </trkpt>
      <trkpt lat="48.62057" lon="-3.4854">
        <ele>160.68</ele>
        <time>2013-05-09T15:19:41Z</time>
      </trkpt>
      <trkpt lat="48.62057" lon="-3.4854">
        <ele>160.68</ele>
        <time>2013-05-09T15:19:42Z</time>
      </trkpt>
      <trkpt lat="48.62057" lon="-3.48541">
        <ele>163.08</ele>
        <time>2013-05-09T15:19:45Z</time>
      </trkpt>
      <trkpt lat="48.62057" lon="-3.48541">
        <ele>165.96</ele>
        <time>2013-05-09T15:20:03Z</time>
      </trkpt>
      <trkpt lat="48.62057" lon="-3.48541">
        <ele>165.96</ele>
        <time>2013-05-09T15:20:04Z</time>
      </trkpt>
      <trkpt lat="48.62057" lon="-3.4854">
        <ele>164.04</ele>
        <time>2013-05-09T15:20:22Z</time>
      </trkpt>
      <trkpt lat="48.62055" lon="-3.48544">
        <ele>164.04</ele>
        <time>2013-05-09T15:20:26Z</time>
      </trkpt>
      <trkpt lat="48.62055" lon="-3.48546">
        <ele>164.04</ele>
        <time>2013-05-09T15:20:40Z</time>
      </trkpt>
      <trkpt lat="48.62055" lon="-3.48545">
        <ele>162.6</ele>
        <time>2013-05-09T15:20:58Z</time>
      </trkpt>
      <trkpt lat="48.62057" lon="-3.48547">
        <ele>162.12</ele>
        <time>2013-05-09T15:21:03Z</time>
      </trkpt>
      <trkpt lat="48.6206" lon="-3.48554">
        <ele>163.08</ele>
        <time>2013-05-09T15:21:06Z</time>
      </trkpt>
      <trkpt lat="48.62079" lon="-3.48615">
        <ele>162.12</ele>
        <time>2013-05-09T15:21:16Z</time>
      </trkpt>
      <trkpt lat="48.62089" lon="-3.48635">
        <ele>160.68</ele>
        <time>2013-05-09T15:21:19Z</time>
      </trkpt>
      <trkpt lat="48.621" lon="-3.48652">
        <ele>161.16</ele>
        <time>2013-05-09T15:21:22Z</time>
      </trkpt>
      <trkpt lat="48.62105" lon="-3.48657">
        <ele>160.68</ele>
        <time>2013-05-09T15:21:23Z</time>
      </trkpt>
      <trkpt lat="48.62142" lon="-3.48696">
        <ele>162.12</ele>
        <time>2013-05-09T15:21:31Z</time>
      </trkpt>
      <trkpt lat="48.62162" lon="-3.48728">
        <ele>160.2</ele>
        <time>2013-05-09T15:21:35Z</time>
      </trkpt>
      <trkpt lat="48.62252" lon="-3.48797">
        <ele>158.27</ele>
        <time>2013-05-09T15:21:49Z</time>
      </trkpt>
      <trkpt lat="48.62333" lon="-3.48875">
        <ele>160.2</ele>
        <time>2013-05-09T15:22:04Z</time>
      </trkpt>
      <trkpt lat="48.6241" lon="-3.4898">
        <ele>159.72</ele>
        <time>2013-05-09T15:22:20Z</time>
      </trkpt>
      <trkpt lat="48.62435" lon="-3.49009">
        <ele>158.75</ele>
        <time>2013-05-09T15:22:25Z</time>
      </trkpt>
      <trkpt lat="48.62518" lon="-3.49064">
        <ele>159.24</ele>
        <time>2013-05-09T15:22:39Z</time>
      </trkpt>
      <trkpt lat="48.62538" lon="-3.49071">
        <ele>161.16</ele>
        <time>2013-05-09T15:22:42Z</time>
      </trkpt>
      <trkpt lat="48.62571" lon="-3.49082">
        <ele>158.27</ele>
        <time>2013-05-09T15:22:47Z</time>
      </trkpt>
      <trkpt lat="48.62678" lon="-3.49117">
        <ele>160.2</ele>
        <time>2013-05-09T15:23:04Z</time>
      </trkpt>
      <trkpt lat="48.62765" lon="-3.49151">
        <ele>160.2</ele>
        <time>2013-05-09T15:23:19Z</time>
      </trkpt>
      <trkpt lat="48.6287" lon="-3.49182">
        <ele>161.64</ele>
        <time>2013-05-09T15:23:35Z</time>
      </trkpt>
      <trkpt lat="48.62964" lon="-3.49208">
        <ele>161.16</ele>
        <time>2013-05-09T15:23:49Z</time>
      </trkpt>
      <trkpt lat="48.62971" lon="-3.49211">
        <ele>161.16</ele>
        <time>2013-05-09T15:23:50Z</time>
      </trkpt>
      <trkpt lat="48.63036" lon="-3.49277">
        <ele>161.64</ele>
        <time>2013-05-09T15:24:02Z</time>
      </trkpt>
      <trkpt lat="48.63115" lon="-3.49339">
        <ele>162.6</ele>
        <time>2013-05-09T15:24:17Z</time>
      </trkpt>
      <trkpt lat="48.63189" lon="-3.49376">
        <ele>162.6</ele>
        <time>2013-05-09T15:24:30Z</time>
      </trkpt>
      <trkpt lat="48.63288" lon="-3.49401">
        <ele>163.08</ele>
        <time>2013-05-09T15:24:46Z</time>
      </trkpt>
      <trkpt lat="48.63396" lon="-3.4941">
        <ele>165</ele>
        <time>2013-05-09T15:25:02Z</time>
      </trkpt>
      <trkpt lat="48.63464" lon="-3.49413">
        <ele>164.52</ele>
        <time>2013-05-09T15:25:11Z</time>
      </trkpt>
      <trkpt lat="48.63471" lon="-3.49411">
        <ele>164.04</ele>
        <time>2013-05-09T15:25:12Z</time>
      </trkpt>
      <trkpt lat="48.63479" lon="-3.49408">
        <ele>164.04</ele>
        <time>2013-05-09T15:25:13Z</time>
      </trkpt>
      <trkpt lat="48.63486" lon="-3.49404">
        <ele>164.04</ele>
        <time>2013-05-09T15:25:14Z</time>
      </trkpt>
      <trkpt lat="48.63493" lon="-3.494">
        <ele>163.56</ele>
        <time>2013-05-09T15:25:15Z</time>
      </trkpt>
      <trkpt lat="48.63536" lon="-3.4937">
        <ele>162.12</ele>
        <time>2013-05-09T15:25:21Z</time>
      </trkpt>
      <trkpt lat="48.63544" lon="-3.49367">
        <ele>162.12</ele>
        <time>2013-05-09T15:25:22Z</time>
      </trkpt>
      <trkpt lat="48.63552" lon="-3.49364">
        <ele>162.12</ele>
        <time>2013-05-09T15:25:23Z</time>
      </trkpt>
      <trkpt lat="48.6356" lon="-3.49363">
        <ele>162.12</ele>
        <time>2013-05-09T15:25:24Z</time>
      </trkpt>
      <trkpt lat="48.63568" lon="-3.49364">
        <ele>162.6</ele>
        <time>2013-05-09T15:25:25Z</time>
      </trkpt>
      <trkpt lat="48.63576" lon="-3.49366">
        <ele>162.6</ele>
        <time>2013-05-09T15:25:26Z</time>
      </trkpt>
      <trkpt lat="48.63585" lon="-3.49368">
        <ele>162.6</ele>
        <time>2013-05-09T15:25:27Z</time>
      </trkpt>
      <trkpt lat="48.63636" lon="-3.49393">
        <ele>163.56</ele>
        <time>2013-05-09T15:25:34Z</time>
      </trkpt>
      <trkpt lat="48.63642" lon="-3.49399">
        <ele>163.56</ele>
        <time>2013-05-09T15:25:35Z</time>
      </trkpt>
      <trkpt lat="48.63647" lon="-3.49405">
        <ele>163.08</ele>
        <time>2013-05-09T15:25:36Z</time>
      </trkpt>
      <trkpt lat="48.63653" lon="-3.49412">
        <ele>163.56</ele>
        <time>2013-05-09T15:25:37Z</time>
      </trkpt>
      <trkpt lat="48.63658" lon="-3.49419">
        <ele>163.08</ele>
        <time>2013-05-09T15:25:38Z</time>
      </trkpt>
      <trkpt lat="48.63662" lon="-3.49427">
        <ele>163.56</ele>
        <time>2013-05-09T15:25:39Z</time>
      </trkpt>
      <trkpt lat="48.63666" lon="-3.49436">
        <ele>163.56</ele>
        <time>2013-05-09T15:25:40Z</time>
      </trkpt>
      <trkpt lat="48.637" lon="-3.49533">
        <ele>165</ele>
        <time>2013-05-09T15:25:51Z</time>
      </trkpt>
      <trkpt lat="48.63704" lon="-3.49541">
        <ele>164.52</ele>
        <time>2013-05-09T15:25:52Z</time>
      </trkpt>
      <trkpt lat="48.63709" lon="-3.49547">
        <ele>164.52</ele>
        <time>2013-05-09T15:25:53Z</time>
      </trkpt>
      <trkpt lat="48.63799" lon="-3.49652">
        <ele>165</ele>
        <time>2013-05-09T15:26:10Z</time>
      </trkpt>
      <trkpt lat="48.63875" lon="-3.49733">
        <ele>164.52</ele>
        <time>2013-05-09T15:26:24Z</time>
      </trkpt>
      <trkpt lat="48.63882" lon="-3.49737">
        <ele>164.52</ele>
        <time>2013-05-09T15:26:25Z</time>
      </trkpt>
      <trkpt lat="48.63889" lon="-3.4974">
        <ele>164.52</ele>
        <time>2013-05-09T15:26:26Z</time>
      </trkpt>
      <trkpt lat="48.63895" lon="-3.49742">
        <ele>164.04</ele>
        <time>2013-05-09T15:26:27Z</time>
      </trkpt>
      <trkpt lat="48.63902" lon="-3.49743">
        <ele>164.04</ele>
        <time>2013-05-09T15:26:28Z</time>
      </trkpt>
      <trkpt lat="48.63909" lon="-3.49743">
        <ele>163.56</ele>
        <time>2013-05-09T15:26:29Z</time>
      </trkpt>
      <trkpt lat="48.63915" lon="-3.49743">
        <ele>163.56</ele>
        <time>2013-05-09T15:26:30Z</time>
      </trkpt>
      <trkpt lat="48.63922" lon="-3.49742">
        <ele>163.56</ele>
        <time>2013-05-09T15:26:31Z</time>
      </trkpt>
      <trkpt lat="48.63929" lon="-3.4974">
        <ele>163.56</ele>
        <time>2013-05-09T15:26:32Z</time>
      </trkpt>
      <trkpt lat="48.63935" lon="-3.49738">
        <ele>163.08</ele>
        <time>2013-05-09T15:26:33Z</time>
      </trkpt>
      <trkpt lat="48.64053" lon="-3.49721">
        <ele>165</ele>
        <time>2013-05-09T15:26:50Z</time>
      </trkpt>
      <trkpt lat="48.64059" lon="-3.49723">
        <ele>164.52</ele>
        <time>2013-05-09T15:26:51Z</time>
      </trkpt>
      <trkpt lat="48.64066" lon="-3.49725">
        <ele>164.04</ele>
        <time>2013-05-09T15:26:52Z</time>
      </trkpt>
      <trkpt lat="48.64158" lon="-3.49797">
        <ele>162.6</ele>
        <time>2013-05-09T15:27:07Z</time>
      </trkpt>
      <trkpt lat="48.64246" lon="-3.49885">
        <ele>162.12</ele>
        <time>2013-05-09T15:27:22Z</time>
      </trkpt>
      <trkpt lat="48.64272" lon="-3.49934">
        <ele>162.6</ele>
        <time>2013-05-09T15:27:28Z</time>
      </trkpt>
      <trkpt lat="48.64275" lon="-3.49944">
        <ele>161.64</ele>
        <time>2013-05-09T15:27:29Z</time>
      </trkpt>
      <trkpt lat="48.64305" lon="-3.50037">
        <ele>160.2</ele>
        <time>2013-05-09T15:27:39Z</time>
      </trkpt>
      <trkpt lat="48.6431" lon="-3.50045">
        <ele>160.2</ele>
        <time>2013-05-09T15:27:40Z</time>
      </trkpt>
      <trkpt lat="48.64392" lon="-3.50162">
        <ele>157.31</ele>
        <time>2013-05-09T15:27:55Z</time>
      </trkpt>
      <trkpt lat="48.64464" lon="-3.50296">
        <ele>156.35</ele>
        <time>2013-05-09T15:28:10Z</time>
      </trkpt>
      <trkpt lat="48.64502" lon="-3.50423">
        <ele>155.39</ele>
        <time>2013-05-09T15:28:23Z</time>
      </trkpt>
      <trkpt lat="48.64503" lon="-3.50546">
        <ele>152.99</ele>
        <time>2013-05-09T15:28:35Z</time>
      </trkpt>
      <trkpt lat="48.64506" lon="-3.50621">
        <ele>152.51</ele>
        <time>2013-05-09T15:28:42Z</time>
      </trkpt>
      <trkpt lat="48.64506" lon="-3.50632">
        <ele>151.06</ele>
        <time>2013-05-09T15:28:43Z</time>
      </trkpt>
      <trkpt lat="48.64507" lon="-3.50644">
        <ele>150.58</ele>
        <time>2013-05-09T15:28:44Z</time>
      </trkpt>
      <trkpt lat="48.64509" lon="-3.50654">
        <ele>151.06</ele>
        <time>2013-05-09T15:28:45Z</time>
      </trkpt>
      <trkpt lat="48.64512" lon="-3.50664">
        <ele>150.58</ele>
        <time>2013-05-09T15:28:46Z</time>
      </trkpt>
      <trkpt lat="48.64548" lon="-3.50768">
        <ele>149.14</ele>
        <time>2013-05-09T15:28:57Z</time>
      </trkpt>
      <trkpt lat="48.64552" lon="-3.50775">
        <ele>148.66</ele>
        <time>2013-05-09T15:28:58Z</time>
      </trkpt>
      <trkpt lat="48.64558" lon="-3.50781">
        <ele>149.14</ele>
        <time>2013-05-09T15:28:59Z</time>
      </trkpt>
      <trkpt lat="48.64575" lon="-3.50801">
        <ele>147.7</ele>
        <time>2013-05-09T15:29:02Z</time>
      </trkpt>
      <trkpt lat="48.64581" lon="-3.50805">
        <ele>147.7</ele>
        <time>2013-05-09T15:29:03Z</time>
      </trkpt>
      <trkpt lat="48.64588" lon="-3.5081">
        <ele>148.66</ele>
        <time>2013-05-09T15:29:04Z</time>
      </trkpt>
      <trkpt lat="48.64595" lon="-3.50813">
        <ele>148.66</ele>
        <time>2013-05-09T15:29:05Z</time>
      </trkpt>
      <trkpt lat="48.64603" lon="-3.50815">
        <ele>148.18</ele>
        <time>2013-05-09T15:29:06Z</time>
      </trkpt>
      <trkpt lat="48.6461" lon="-3.50816">
        <ele>148.18</ele>
        <time>2013-05-09T15:29:07Z</time>
      </trkpt>
      <trkpt lat="48.64618" lon="-3.50815">
        <ele>148.18</ele>
        <time>2013-05-09T15:29:08Z</time>
      </trkpt>
      <trkpt lat="48.64625" lon="-3.50813">
        <ele>148.66</ele>
        <time>2013-05-09T15:29:09Z</time>
      </trkpt>
      <trkpt lat="48.64666" lon="-3.50808">
        <ele>147.7</ele>
        <time>2013-05-09T15:29:15Z</time>
      </trkpt>
      <trkpt lat="48.64718" lon="-3.5081">
        <ele>151.06</ele>
        <time>2013-05-09T15:29:22Z</time>
      </trkpt>
      <trkpt lat="48.6474" lon="-3.50816">
        <ele>147.7</ele>
        <time>2013-05-09T15:29:25Z</time>
      </trkpt>
      <trkpt lat="48.64762" lon="-3.50823">
        <ele>145.78</ele>
        <time>2013-05-09T15:29:28Z</time>
      </trkpt>
      <trkpt lat="48.64817" lon="-3.50836">
        <ele>146.74</ele>
        <time>2013-05-09T15:29:36Z</time>
      </trkpt>
      <trkpt lat="48.649" lon="-3.50796">
        <ele>145.78</ele>
        <time>2013-05-09T15:29:48Z</time>
      </trkpt>
      <trkpt lat="48.6492" lon="-3.50779">
        <ele>146.26</ele>
        <time>2013-05-09T15:29:51Z</time>
      </trkpt>
      <trkpt lat="48.64927" lon="-3.50774">
        <ele>145.78</ele>
        <time>2013-05-09T15:29:52Z</time>
      </trkpt>
      <trkpt lat="48.64934" lon="-3.50771">
        <ele>145.78</ele>
        <time>2013-05-09T15:29:53Z</time>
      </trkpt>
      <trkpt lat="48.64949" lon="-3.50767">
        <ele>144.34</ele>
        <time>2013-05-09T15:29:55Z</time>
      </trkpt>
      <trkpt lat="48.64957" lon="-3.50767">
        <ele>143.85</ele>
        <time>2013-05-09T15:29:56Z</time>
      </trkpt>
      <trkpt lat="48.64964" lon="-3.50768">
        <ele>144.34</ele>
        <time>2013-05-09T15:29:57Z</time>
      </trkpt>
      <trkpt lat="48.64972" lon="-3.5077">
        <ele>145.3</ele>
        <time>2013-05-09T15:29:58Z</time>
      </trkpt>
      <trkpt lat="48.6498" lon="-3.50773">
        <ele>143.37</ele>
        <time>2013-05-09T15:29:59Z</time>
      </trkpt>
      <trkpt lat="48.64987" lon="-3.50777">
        <ele>143.37</ele>
        <time>2013-05-09T15:30:00Z</time>
      </trkpt>
      <trkpt lat="48.65018" lon="-3.50794">
        <ele>142.89</ele>
        <time>2013-05-09T15:30:04Z</time>
      </trkpt>
      <trkpt lat="48.65027" lon="-3.50797">
        <ele>142.41</ele>
        <time>2013-05-09T15:30:05Z</time>
      </trkpt>
      <trkpt lat="48.65073" lon="-3.50811">
        <ele>141.45</ele>
        <time>2013-05-09T15:30:10Z</time>
      </trkpt>
      <trkpt lat="48.65081" lon="-3.50816">
        <ele>141.93</ele>
        <time>2013-05-09T15:30:11Z</time>
      </trkpt>
      <trkpt lat="48.65089" lon="-3.50823">
        <ele>140.01</ele>
        <time>2013-05-09T15:30:12Z</time>
      </trkpt>
      <trkpt lat="48.65096" lon="-3.50832">
        <ele>140.01</ele>
        <time>2013-05-09T15:30:13Z</time>
      </trkpt>
      <trkpt lat="48.65102" lon="-3.50842">
        <ele>140.01</ele>
        <time>2013-05-09T15:30:14Z</time>
      </trkpt>
      <trkpt lat="48.65125" lon="-3.50887">
        <ele>140.01</ele>
        <time>2013-05-09T15:30:18Z</time>
      </trkpt>
      <trkpt lat="48.65132" lon="-3.50897">
        <ele>140.01</ele>
        <time>2013-05-09T15:30:19Z</time>
      </trkpt>
      <trkpt lat="48.65147" lon="-3.50915">
        <ele>138.57</ele>
        <time>2013-05-09T15:30:21Z</time>
      </trkpt>
      <trkpt lat="48.65156" lon="-3.50921">
        <ele>138.09</ele>
        <time>2013-05-09T15:30:22Z</time>
      </trkpt>
      <trkpt lat="48.65166" lon="-3.50926">
        <ele>137.13</ele>
        <time>2013-05-09T15:30:23Z</time>
      </trkpt>
      <trkpt lat="48.65176" lon="-3.50929">
        <ele>136.64</ele>
        <time>2013-05-09T15:30:24Z</time>
      </trkpt>
      <trkpt lat="48.65185" lon="-3.5093">
        <ele>136.64</ele>
        <time>2013-05-09T15:30:25Z</time>
      </trkpt>
      <trkpt lat="48.65195" lon="-3.50929">
        <ele>138.09</ele>
        <time>2013-05-09T15:30:26Z</time>
      </trkpt>
      <trkpt lat="48.65204" lon="-3.50927">
        <ele>135.68</ele>
        <time>2013-05-09T15:30:27Z</time>
      </trkpt>
      <trkpt lat="48.65213" lon="-3.50924">
        <ele>135.2</ele>
        <time>2013-05-09T15:30:28Z</time>
      </trkpt>
      <trkpt lat="48.65221" lon="-3.5092">
        <ele>135.2</ele>
        <time>2013-05-09T15:30:29Z</time>
      </trkpt>
      <trkpt lat="48.6523" lon="-3.50915">
        <ele>135.68</ele>
        <time>2013-05-09T15:30:30Z</time>
      </trkpt>
      <trkpt lat="48.65238" lon="-3.50909">
        <ele>133.76</ele>
        <time>2013-05-09T15:30:31Z</time>
      </trkpt>
      <trkpt lat="48.65245" lon="-3.509">
        <ele>134.24</ele>
        <time>2013-05-09T15:30:32Z</time>
      </trkpt>
      <trkpt lat="48.65253" lon="-3.50891">
        <ele>134.24</ele>
        <time>2013-05-09T15:30:33Z</time>
      </trkpt>
      <trkpt lat="48.65259" lon="-3.50881">
        <ele>134.24</ele>
        <time>2013-05-09T15:30:34Z</time>
      </trkpt>
      <trkpt lat="48.65265" lon="-3.50871">
        <ele>134.24</ele>
        <time>2013-05-09T15:30:35Z</time>
      </trkpt>
      <trkpt lat="48.65306" lon="-3.50816">
        <ele>133.76</ele>
        <time>2013-05-09T15:30:41Z</time>
      </trkpt>
      <trkpt lat="48.65314" lon="-3.5081">
        <ele>133.76</ele>
        <time>2013-05-09T15:30:42Z</time>
      </trkpt>
      <trkpt lat="48.65323" lon="-3.50805">
        <ele>133.76</ele>
        <time>2013-05-09T15:30:43Z</time>
      </trkpt>
      <trkpt lat="48.65432" lon="-3.50784">
        <ele>133.28</ele>
        <time>2013-05-09T15:30:55Z</time>
      </trkpt>
      <trkpt lat="48.65441" lon="-3.50786">
        <ele>133.28</ele>
        <time>2013-05-09T15:30:56Z</time>
      </trkpt>
      <trkpt lat="48.65449" lon="-3.5079">
        <ele>133.76</ele>
        <time>2013-05-09T15:30:57Z</time>
      </trkpt>
      <trkpt lat="48.65553" lon="-3.50852">
        <ele>131.84</ele>
        <time>2013-05-09T15:31:10Z</time>
      </trkpt>
      <trkpt lat="48.65657" lon="-3.50903">
        <ele>130.4</ele>
        <time>2013-05-09T15:31:23Z</time>
      </trkpt>
      <trkpt lat="48.65727" lon="-3.50948">
        <ele>128.47</ele>
        <time>2013-05-09T15:31:32Z</time>
      </trkpt>
      <trkpt lat="48.65736" lon="-3.5095">
        <ele>128.47</ele>
        <time>2013-05-09T15:31:33Z</time>
      </trkpt>
      <trkpt lat="48.65745" lon="-3.50951">
        <ele>128.47</ele>
        <time>2013-05-09T15:31:34Z</time>
      </trkpt>
      <trkpt lat="48.65781" lon="-3.50951">
        <ele>127.03</ele>
        <time>2013-05-09T15:31:38Z</time>
      </trkpt>
      <trkpt lat="48.6584" lon="-3.50972">
        <ele>126.55</ele>
        <time>2013-05-09T15:31:45Z</time>
      </trkpt>
      <trkpt lat="48.65853" lon="-3.50986">
        <ele>127.51</ele>
        <time>2013-05-09T15:31:47Z</time>
      </trkpt>
      <trkpt lat="48.65858" lon="-3.50994">
        <ele>127.51</ele>
        <time>2013-05-09T15:31:48Z</time>
      </trkpt>
      <trkpt lat="48.65873" lon="-3.51018">
        <ele>127.51</ele>
        <time>2013-05-09T15:31:51Z</time>
      </trkpt>
      <trkpt lat="48.6588" lon="-3.51025">
        <ele>127.51</ele>
        <time>2013-05-09T15:31:52Z</time>
      </trkpt>
      <trkpt lat="48.65886" lon="-3.51031">
        <ele>127.99</ele>
        <time>2013-05-09T15:31:53Z</time>
      </trkpt>
      <trkpt lat="48.65892" lon="-3.51036">
        <ele>127.99</ele>
        <time>2013-05-09T15:31:54Z</time>
      </trkpt>
      <trkpt lat="48.65899" lon="-3.5104">
        <ele>128.47</ele>
        <time>2013-05-09T15:31:55Z</time>
      </trkpt>
      <trkpt lat="48.65906" lon="-3.51044">
        <ele>128.47</ele>
        <time>2013-05-09T15:31:56Z</time>
      </trkpt>
      <trkpt lat="48.65913" lon="-3.51046">
        <ele>129.43</ele>
        <time>2013-05-09T15:31:57Z</time>
      </trkpt>
      <trkpt lat="48.6592" lon="-3.51047">
        <ele>127.99</ele>
        <time>2013-05-09T15:31:58Z</time>
      </trkpt>
      <trkpt lat="48.65927" lon="-3.51048">
        <ele>127.99</ele>
        <time>2013-05-09T15:31:59Z</time>
      </trkpt>
      <trkpt lat="48.65934" lon="-3.51048">
        <ele>128.47</ele>
        <time>2013-05-09T15:32:00Z</time>
      </trkpt>
      <trkpt lat="48.65941" lon="-3.51047">
        <ele>128.47</ele>
        <time>2013-05-09T15:32:01Z</time>
      </trkpt>
      <trkpt lat="48.65948" lon="-3.51045">
        <ele>128.47</ele>
        <time>2013-05-09T15:32:02Z</time>
      </trkpt>
      <trkpt lat="48.65954" lon="-3.51043">
        <ele>128.95</ele>
        <time>2013-05-09T15:32:03Z</time>
      </trkpt>
      <trkpt lat="48.6606" lon="-3.50998">
        <ele>127.99</ele>
        <time>2013-05-09T15:32:19Z</time>
      </trkpt>
      <trkpt lat="48.66134" lon="-3.50973">
        <ele>128.47</ele>
        <time>2013-05-09T15:32:29Z</time>
      </trkpt>
      <trkpt lat="48.66142" lon="-3.50973">
        <ele>128.47</ele>
        <time>2013-05-09T15:32:30Z</time>
      </trkpt>
      <trkpt lat="48.6615" lon="-3.50975">
        <ele>127.99</ele>
        <time>2013-05-09T15:32:31Z</time>
      </trkpt>
      <trkpt lat="48.66158" lon="-3.50978">
        <ele>127.99</ele>
        <time>2013-05-09T15:32:32Z</time>
      </trkpt>
      <trkpt lat="48.66166" lon="-3.50983">
        <ele>128.47</ele>
        <time>2013-05-09T15:32:33Z</time>
      </trkpt>
      <trkpt lat="48.66173" lon="-3.50988">
        <ele>128.95</ele>
        <time>2013-05-09T15:32:34Z</time>
      </trkpt>
      <trkpt lat="48.6618" lon="-3.50993">
        <ele>129.43</ele>
        <time>2013-05-09T15:32:35Z</time>
      </trkpt>
      <trkpt lat="48.66265" lon="-3.51059">
        <ele>127.51</ele>
        <time>2013-05-09T15:32:47Z</time>
      </trkpt>
      <trkpt lat="48.66323" lon="-3.51098">
        <ele>124.63</ele>
        <time>2013-05-09T15:32:55Z</time>
      </trkpt>
      <trkpt lat="48.66331" lon="-3.51104">
        <ele>124.15</ele>
        <time>2013-05-09T15:32:56Z</time>
      </trkpt>
      <trkpt lat="48.66365" lon="-3.51123">
        <ele>125.59</ele>
        <time>2013-05-09T15:33:00Z</time>
      </trkpt>
      <trkpt lat="48.66467" lon="-3.51128">
        <ele>123.67</ele>
        <time>2013-05-09T15:33:12Z</time>
      </trkpt>
      <trkpt lat="48.66571" lon="-3.51152">
        <ele>122.22</ele>
        <time>2013-05-09T15:33:25Z</time>
      </trkpt>
      <trkpt lat="48.66659" lon="-3.51132">
        <ele>121.74</ele>
        <time>2013-05-09T15:33:35Z</time>
      </trkpt>
      <trkpt lat="48.6674" lon="-3.51046">
        <ele>124.15</ele>
        <time>2013-05-09T15:33:48Z</time>
      </trkpt>
      <trkpt lat="48.66824" lon="-3.50922">
        <ele>125.11</ele>
        <time>2013-05-09T15:34:03Z</time>
      </trkpt>
      <trkpt lat="48.66913" lon="-3.50836">
        <ele>127.99</ele>
        <time>2013-05-09T15:34:17Z</time>
      </trkpt>
      <trkpt lat="48.66934" lon="-3.50821">
        <ele>126.55</ele>
        <time>2013-05-09T15:34:20Z</time>
      </trkpt>
      <trkpt lat="48.67056" lon="-3.50752">
        <ele>128.95</ele>
        <time>2013-05-09T15:34:37Z</time>
      </trkpt>
      <trkpt lat="48.67178" lon="-3.50722">
        <ele>129.92</ele>
        <time>2013-05-09T15:34:53Z</time>
      </trkpt>
      <trkpt lat="48.67291" lon="-3.50717">
        <ele>130.4</ele>
        <time>2013-05-09T15:35:08Z</time>
      </trkpt>
      <trkpt lat="48.67423" lon="-3.5072">
        <ele>130.4</ele>
        <time>2013-05-09T15:35:24Z</time>
      </trkpt>
      <trkpt lat="48.67455" lon="-3.50719">
        <ele>132.32</ele>
        <time>2013-05-09T15:35:28Z</time>
      </trkpt>
      <trkpt lat="48.67469" lon="-3.50718">
        <ele>130.88</ele>
        <time>2013-05-09T15:35:30Z</time>
      </trkpt>
      <trkpt lat="48.67476" lon="-3.50716">
        <ele>129.92</ele>
        <time>2013-05-09T15:35:31Z</time>
      </trkpt>
      <trkpt lat="48.67483" lon="-3.50711">
        <ele>129.92</ele>
        <time>2013-05-09T15:35:32Z</time>
      </trkpt>
      <trkpt lat="48.67488" lon="-3.50706">
        <ele>129.92</ele>
        <time>2013-05-09T15:35:33Z</time>
      </trkpt>
      <trkpt lat="48.67494" lon="-3.507">
        <ele>129.92</ele>
        <time>2013-05-09T15:35:34Z</time>
      </trkpt>
      <trkpt lat="48.675" lon="-3.50697">
        <ele>129.43</ele>
        <time>2013-05-09T15:35:35Z</time>
      </trkpt>
      <trkpt lat="48.67506" lon="-3.50696">
        <ele>129.43</ele>
        <time>2013-05-09T15:35:36Z</time>
      </trkpt>
      <trkpt lat="48.67512" lon="-3.507">
        <ele>129.92</ele>
        <time>2013-05-09T15:35:37Z</time>
      </trkpt>
      <trkpt lat="48.67518" lon="-3.50703">
        <ele>130.4</ele>
        <time>2013-05-09T15:35:38Z</time>
      </trkpt>
      <trkpt lat="48.67525" lon="-3.50706">
        <ele>130.4</ele>
        <time>2013-05-09T15:35:39Z</time>
      </trkpt>
      <trkpt lat="48.67532" lon="-3.50708">
        <ele>130.4</ele>
        <time>2013-05-09T15:35:40Z</time>
      </trkpt>
      <trkpt lat="48.67539" lon="-3.50709">
        <ele>129.43</ele>
        <time>2013-05-09T15:35:41Z</time>
      </trkpt>
      <trkpt lat="48.67546" lon="-3.5071">
        <ele>128.95</ele>
        <time>2013-05-09T15:35:42Z</time>
      </trkpt>
      <trkpt lat="48.67553" lon="-3.50711">
        <ele>129.43</ele>
        <time>2013-05-09T15:35:43Z</time>
      </trkpt>
      <trkpt lat="48.6756" lon="-3.50713">
        <ele>129.43</ele>
        <time>2013-05-09T15:35:44Z</time>
      </trkpt>
      <trkpt lat="48.67566" lon="-3.50712">
        <ele>129.43</ele>
        <time>2013-05-09T15:35:45Z</time>
      </trkpt>
      <trkpt lat="48.67571" lon="-3.50708">
        <ele>128.95</ele>
        <time>2013-05-09T15:35:46Z</time>
      </trkpt>
      <trkpt lat="48.67573" lon="-3.507">
        <ele>128.95</ele>
        <time>2013-05-09T15:35:47Z</time>
      </trkpt>
      <trkpt lat="48.67572" lon="-3.50691">
        <ele>129.92</ele>
        <time>2013-05-09T15:35:48Z</time>
      </trkpt>
      <trkpt lat="48.67571" lon="-3.50683">
        <ele>129.92</ele>
        <time>2013-05-09T15:35:49Z</time>
      </trkpt>
      <trkpt lat="48.67569" lon="-3.50674">
        <ele>130.4</ele>
        <time>2013-05-09T15:35:50Z</time>
      </trkpt>
      <trkpt lat="48.67568" lon="-3.50665">
        <ele>129.43</ele>
        <time>2013-05-09T15:35:51Z</time>
      </trkpt>
      <trkpt lat="48.6756" lon="-3.50527">
        <ele>128.47</ele>
        <time>2013-05-09T15:36:05Z</time>
      </trkpt>
      <trkpt lat="48.6756" lon="-3.50413">
        <ele>129.43</ele>
        <time>2013-05-09T15:36:16Z</time>
      </trkpt>
      <trkpt lat="48.67568" lon="-3.50348">
        <ele>127.99</ele>
        <time>2013-05-09T15:36:22Z</time>
      </trkpt>
      <trkpt lat="48.67568" lon="-3.50336">
        <ele>127.99</ele>
        <time>2013-05-09T15:36:23Z</time>
      </trkpt>
      <trkpt lat="48.67567" lon="-3.50187">
        <ele>128.95</ele>
        <time>2013-05-09T15:36:36Z</time>
      </trkpt>
      <trkpt lat="48.67587" lon="-3.50035">
        <ele>128.47</ele>
        <time>2013-05-09T15:36:49Z</time>
      </trkpt>
      <trkpt lat="48.67594" lon="-3.49897">
        <ele>128.95</ele>
        <time>2013-05-09T15:37:01Z</time>
      </trkpt>
      <trkpt lat="48.67581" lon="-3.49754">
        <ele>127.99</ele>
        <time>2013-05-09T15:37:14Z</time>
      </trkpt>
      <trkpt lat="48.67576" lon="-3.49721">
        <ele>127.03</ele>
        <time>2013-05-09T15:37:17Z</time>
      </trkpt>
      <trkpt lat="48.67576" lon="-3.4971">
        <ele>127.51</ele>
        <time>2013-05-09T15:37:18Z</time>
      </trkpt>
      <trkpt lat="48.67576" lon="-3.49698">
        <ele>127.99</ele>
        <time>2013-05-09T15:37:19Z</time>
      </trkpt>
      <trkpt lat="48.67578" lon="-3.49687">
        <ele>127.99</ele>
        <time>2013-05-09T15:37:20Z</time>
      </trkpt>
      <trkpt lat="48.67582" lon="-3.49678">
        <ele>127.99</ele>
        <time>2013-05-09T15:37:21Z</time>
      </trkpt>
      <trkpt lat="48.67588" lon="-3.4967">
        <ele>127.99</ele>
        <time>2013-05-09T15:37:22Z</time>
      </trkpt>
      <trkpt lat="48.67594" lon="-3.49663">
        <ele>127.99</ele>
        <time>2013-05-09T15:37:23Z</time>
      </trkpt>
      <trkpt lat="48.67601" lon="-3.49656">
        <ele>128.47</ele>
        <time>2013-05-09T15:37:24Z</time>
      </trkpt>
      <trkpt lat="48.67684" lon="-3.49599">
        <ele>127.51</ele>
        <time>2013-05-09T15:37:36Z</time>
      </trkpt>
      <trkpt lat="48.67754" lon="-3.49595">
        <ele>126.55</ele>
        <time>2013-05-09T15:37:44Z</time>
      </trkpt>
      <trkpt lat="48.67762" lon="-3.49594">
        <ele>127.03</ele>
        <time>2013-05-09T15:37:45Z</time>
      </trkpt>
      <trkpt lat="48.6777" lon="-3.49592">
        <ele>126.07</ele>
        <time>2013-05-09T15:37:46Z</time>
      </trkpt>
      <trkpt lat="48.67779" lon="-3.49588">
        <ele>125.59</ele>
        <time>2013-05-09T15:37:47Z</time>
      </trkpt>
      <trkpt lat="48.67786" lon="-3.49584">
        <ele>125.11</ele>
        <time>2013-05-09T15:37:48Z</time>
      </trkpt>
      <trkpt lat="48.67827" lon="-3.49562">
        <ele>125.59</ele>
        <time>2013-05-09T15:37:53Z</time>
      </trkpt>
      <trkpt lat="48.6787" lon="-3.49555">
        <ele>126.07</ele>
        <time>2013-05-09T15:37:58Z</time>
      </trkpt>
      <trkpt lat="48.67878" lon="-3.49551">
        <ele>124.15</ele>
        <time>2013-05-09T15:37:59Z</time>
      </trkpt>
      <trkpt lat="48.67885" lon="-3.49547">
        <ele>124.63</ele>
        <time>2013-05-09T15:38:00Z</time>
      </trkpt>
      <trkpt lat="48.67893" lon="-3.49542">
        <ele>124.63</ele>
        <time>2013-05-09T15:38:01Z</time>
      </trkpt>
      <trkpt lat="48.679" lon="-3.49535">
        <ele>124.15</ele>
        <time>2013-05-09T15:38:02Z</time>
      </trkpt>
      <trkpt lat="48.67915" lon="-3.49522">
        <ele>123.19</ele>
        <time>2013-05-09T15:38:04Z</time>
      </trkpt>
      <trkpt lat="48.6796" lon="-3.49486">
        <ele>122.22</ele>
        <time>2013-05-09T15:38:10Z</time>
      </trkpt>
      <trkpt lat="48.67966" lon="-3.49478">
        <ele>122.22</ele>
        <time>2013-05-09T15:38:11Z</time>
      </trkpt>
      <trkpt lat="48.67971" lon="-3.49469">
        <ele>122.22</ele>
        <time>2013-05-09T15:38:12Z</time>
      </trkpt>
      <trkpt lat="48.67974" lon="-3.49457">
        <ele>122.22</ele>
        <time>2013-05-09T15:38:13Z</time>
      </trkpt>
      <trkpt lat="48.67977" lon="-3.49446">
        <ele>122.22</ele>
        <time>2013-05-09T15:38:14Z</time>
      </trkpt>
      <trkpt lat="48.67979" lon="-3.49434">
        <ele>122.22</ele>
        <time>2013-05-09T15:38:15Z</time>
      </trkpt>
      <trkpt lat="48.68001" lon="-3.49317">
        <ele>122.22</ele>
        <time>2013-05-09T15:38:25Z</time>
      </trkpt>
      <trkpt lat="48.68004" lon="-3.49307">
        <ele>121.74</ele>
        <time>2013-05-09T15:38:26Z</time>
      </trkpt>
      <trkpt lat="48.68059" lon="-3.49164">
        <ele>119.34</ele>
        <time>2013-05-09T15:38:39Z</time>
      </trkpt>
      <trkpt lat="48.68063" lon="-3.49152">
        <ele>119.34</ele>
        <time>2013-05-09T15:38:40Z</time>
      </trkpt>
      <trkpt lat="48.68085" lon="-3.49077">
        <ele>117.9</ele>
        <time>2013-05-09T15:38:46Z</time>
      </trkpt>
      <trkpt lat="48.6809" lon="-3.49065">
        <ele>117.9</ele>
        <time>2013-05-09T15:38:47Z</time>
      </trkpt>
      <trkpt lat="48.68096" lon="-3.49054">
        <ele>117.42</ele>
        <time>2013-05-09T15:38:48Z</time>
      </trkpt>
      <trkpt lat="48.68104" lon="-3.49044">
        <ele>116.94</ele>
        <time>2013-05-09T15:38:49Z</time>
      </trkpt>
      <trkpt lat="48.68112" lon="-3.49034">
        <ele>116.94</ele>
        <time>2013-05-09T15:38:50Z</time>
      </trkpt>
      <trkpt lat="48.6812" lon="-3.49025">
        <ele>116.94</ele>
        <time>2013-05-09T15:38:51Z</time>
      </trkpt>
      <trkpt lat="48.68129" lon="-3.49018">
        <ele>116.94</ele>
        <time>2013-05-09T15:38:52Z</time>
      </trkpt>
      <trkpt lat="48.68234" lon="-3.48961">
        <ele>114.53</ele>
        <time>2013-05-09T15:39:03Z</time>
      </trkpt>
      <trkpt lat="48.68243" lon="-3.48956">
        <ele>114.05</ele>
        <time>2013-05-09T15:39:04Z</time>
      </trkpt>
      <trkpt lat="48.68252" lon="-3.48949">
        <ele>114.05</ele>
        <time>2013-05-09T15:39:05Z</time>
      </trkpt>
      <trkpt lat="48.6826" lon="-3.48941">
        <ele>113.57</ele>
        <time>2013-05-09T15:39:06Z</time>
      </trkpt>
      <trkpt lat="48.68266" lon="-3.48931">
        <ele>113.57</ele>
        <time>2013-05-09T15:39:07Z</time>
      </trkpt>
      <trkpt lat="48.68272" lon="-3.4892">
        <ele>113.09</ele>
        <time>2013-05-09T15:39:08Z</time>
      </trkpt>
      <trkpt lat="48.68276" lon="-3.48908">
        <ele>112.61</ele>
        <time>2013-05-09T15:39:09Z</time>
      </trkpt>
      <trkpt lat="48.68279" lon="-3.48894">
        <ele>112.61</ele>
        <time>2013-05-09T15:39:10Z</time>
      </trkpt>
      <trkpt lat="48.68282" lon="-3.48881">
        <ele>113.09</ele>
        <time>2013-05-09T15:39:11Z</time>
      </trkpt>
      <trkpt lat="48.68283" lon="-3.48868">
        <ele>113.09</ele>
        <time>2013-05-09T15:39:12Z</time>
      </trkpt>
      <trkpt lat="48.68297" lon="-3.48694">
        <ele>112.13</ele>
        <time>2013-05-09T15:39:26Z</time>
      </trkpt>
      <trkpt lat="48.68313" lon="-3.48495">
        <ele>110.21</ele>
        <time>2013-05-09T15:39:40Z</time>
      </trkpt>
      <trkpt lat="48.68316" lon="-3.48466">
        <ele>109.25</ele>
        <time>2013-05-09T15:39:42Z</time>
      </trkpt>
      <trkpt lat="48.68322" lon="-3.4837">
        <ele>110.21</ele>
        <time>2013-05-09T15:39:49Z</time>
      </trkpt>
      <trkpt lat="48.68319" lon="-3.48334">
        <ele>111.17</ele>
        <time>2013-05-09T15:39:52Z</time>
      </trkpt>
      <trkpt lat="48.68317" lon="-3.48323">
        <ele>111.65</ele>
        <time>2013-05-09T15:39:53Z</time>
      </trkpt>
      <trkpt lat="48.68314" lon="-3.48313">
        <ele>111.65</ele>
        <time>2013-05-09T15:39:54Z</time>
      </trkpt>
      <trkpt lat="48.6831" lon="-3.48293">
        <ele>112.61</ele>
        <time>2013-05-09T15:39:56Z</time>
      </trkpt>
      <trkpt lat="48.6831" lon="-3.48273">
        <ele>114.05</ele>
        <time>2013-05-09T15:39:58Z</time>
      </trkpt>
      <trkpt lat="48.6831" lon="-3.48263">
        <ele>114.05</ele>
        <time>2013-05-09T15:39:59Z</time>
      </trkpt>
      <trkpt lat="48.68312" lon="-3.4824">
        <ele>115.5</ele>
        <time>2013-05-09T15:40:02Z</time>
      </trkpt>
      <trkpt lat="48.68317" lon="-3.48209">
        <ele>117.42</ele>
        <time>2013-05-09T15:40:06Z</time>
      </trkpt>
      <trkpt lat="48.6832" lon="-3.48195">
        <ele>118.38</ele>
        <time>2013-05-09T15:40:08Z</time>
      </trkpt>
      <trkpt lat="48.6834" lon="-3.48076">
        <ele>119.34</ele>
        <time>2013-05-09T15:40:21Z</time>
      </trkpt>
      <trkpt lat="48.68381" lon="-3.47937">
        <ele>119.82</ele>
        <time>2013-05-09T15:40:35Z</time>
      </trkpt>
      <trkpt lat="48.6844" lon="-3.47751">
        <ele>119.34</ele>
        <time>2013-05-09T15:40:52Z</time>
      </trkpt>
      <trkpt lat="48.68442" lon="-3.47739">
        <ele>118.86</ele>
        <time>2013-05-09T15:40:53Z</time>
      </trkpt>
      <trkpt lat="48.68443" lon="-3.47726">
        <ele>117.9</ele>
        <time>2013-05-09T15:40:54Z</time>
      </trkpt>
      <trkpt lat="48.68443" lon="-3.47713">
        <ele>118.38</ele>
        <time>2013-05-09T15:40:55Z</time>
      </trkpt>
      <trkpt lat="48.68444" lon="-3.47701">
        <ele>118.38</ele>
        <time>2013-05-09T15:40:56Z</time>
      </trkpt>
      <trkpt lat="48.68445" lon="-3.47688">
        <ele>118.86</ele>
        <time>2013-05-09T15:40:57Z</time>
      </trkpt>
      <trkpt lat="48.68448" lon="-3.47677">
        <ele>119.34</ele>
        <time>2013-05-09T15:40:58Z</time>
      </trkpt>
      <trkpt lat="48.68452" lon="-3.47666">
        <ele>118.38</ele>
        <time>2013-05-09T15:40:59Z</time>
      </trkpt>
      <trkpt lat="48.68457" lon="-3.47656">
        <ele>119.34</ele>
        <time>2013-05-09T15:41:00Z</time>
      </trkpt>
      <trkpt lat="48.68463" lon="-3.47646">
        <ele>119.34</ele>
        <time>2013-05-09T15:41:01Z</time>
      </trkpt>
      <trkpt lat="48.68517" lon="-3.47557">
        <ele>121.26</ele>
        <time>2013-05-09T15:41:11Z</time>
      </trkpt>
      <trkpt lat="48.68536" lon="-3.47522">
        <ele>122.22</ele>
        <time>2013-05-09T15:41:15Z</time>
      </trkpt>
      <trkpt lat="48.68541" lon="-3.47512">
        <ele>122.71</ele>
        <time>2013-05-09T15:41:16Z</time>
      </trkpt>
      <trkpt lat="48.686" lon="-3.47416">
        <ele>125.59</ele>
        <time>2013-05-09T15:41:28Z</time>
      </trkpt>
      <trkpt lat="48.68621" lon="-3.47376">
        <ele>128.47</ele>
        <time>2013-05-09T15:41:33Z</time>
      </trkpt>
      <trkpt lat="48.6864" lon="-3.47336">
        <ele>127.51</ele>
        <time>2013-05-09T15:41:38Z</time>
      </trkpt>
      <trkpt lat="48.68647" lon="-3.47331">
        <ele>127.51</ele>
        <time>2013-05-09T15:41:39Z</time>
      </trkpt>
      <trkpt lat="48.68653" lon="-3.4733">
        <ele>127.51</ele>
        <time>2013-05-09T15:41:40Z</time>
      </trkpt>
      <trkpt lat="48.6866" lon="-3.47332">
        <ele>128.47</ele>
        <time>2013-05-09T15:41:41Z</time>
      </trkpt>
      <trkpt lat="48.68667" lon="-3.47336">
        <ele>128.95</ele>
        <time>2013-05-09T15:41:42Z</time>
      </trkpt>
      <trkpt lat="48.68673" lon="-3.4734">
        <ele>128.95</ele>
        <time>2013-05-09T15:41:43Z</time>
      </trkpt>
      <trkpt lat="48.68678" lon="-3.47346">
        <ele>129.43</ele>
        <time>2013-05-09T15:41:44Z</time>
      </trkpt>
      <trkpt lat="48.68684" lon="-3.47352">
        <ele>128.95</ele>
        <time>2013-05-09T15:41:45Z</time>
      </trkpt>
      <trkpt lat="48.6869" lon="-3.47358">
        <ele>128.95</ele>
        <time>2013-05-09T15:41:46Z</time>
      </trkpt>
      <trkpt lat="48.68709" lon="-3.47374">
        <ele>128.47</ele>
        <time>2013-05-09T15:41:49Z</time>
      </trkpt>
      <trkpt lat="48.68716" lon="-3.47378">
        <ele>128.47</ele>
        <time>2013-05-09T15:41:50Z</time>
      </trkpt>
      <trkpt lat="48.68759" lon="-3.47398">
        <ele>128.95</ele>
        <time>2013-05-09T15:41:56Z</time>
      </trkpt>
      <trkpt lat="48.68795" lon="-3.47417">
        <ele>128.47</ele>
        <time>2013-05-09T15:42:01Z</time>
      </trkpt>
      <trkpt lat="48.68802" lon="-3.47419">
        <ele>127.99</ele>
        <time>2013-05-09T15:42:02Z</time>
      </trkpt>
      <trkpt lat="48.6881" lon="-3.47421">
        <ele>128.47</ele>
        <time>2013-05-09T15:42:03Z</time>
      </trkpt>
      <trkpt lat="48.68848" lon="-3.47419">
        <ele>128.95</ele>
        <time>2013-05-09T15:42:08Z</time>
      </trkpt>
      <trkpt lat="48.68856" lon="-3.47416">
        <ele>128.47</ele>
        <time>2013-05-09T15:42:09Z</time>
      </trkpt>
      <trkpt lat="48.68863" lon="-3.47412">
        <ele>127.51</ele>
        <time>2013-05-09T15:42:10Z</time>
      </trkpt>
      <trkpt lat="48.68878" lon="-3.474">
        <ele>126.55</ele>
        <time>2013-05-09T15:42:12Z</time>
      </trkpt>
      <trkpt lat="48.68898" lon="-3.47375">
        <ele>124.63</ele>
        <time>2013-05-09T15:42:15Z</time>
      </trkpt>
      <trkpt lat="48.68926" lon="-3.47334">
        <ele>122.71</ele>
        <time>2013-05-09T15:42:19Z</time>
      </trkpt>
      <trkpt lat="48.68935" lon="-3.47324">
        <ele>122.22</ele>
        <time>2013-05-09T15:42:20Z</time>
      </trkpt>
      <trkpt lat="48.68944" lon="-3.47315">
        <ele>121.74</ele>
        <time>2013-05-09T15:42:21Z</time>
      </trkpt>
      <trkpt lat="48.68955" lon="-3.47307">
        <ele>121.74</ele>
        <time>2013-05-09T15:42:22Z</time>
      </trkpt>
      <trkpt lat="48.68966" lon="-3.47302">
        <ele>121.26</ele>
        <time>2013-05-09T15:42:23Z</time>
      </trkpt>
      <trkpt lat="48.68977" lon="-3.47299">
        <ele>120.78</ele>
        <time>2013-05-09T15:42:24Z</time>
      </trkpt>
      <trkpt lat="48.68989" lon="-3.47297">
        <ele>120.3</ele>
        <time>2013-05-09T15:42:25Z</time>
      </trkpt>
      <trkpt lat="48.69" lon="-3.47295">
        <ele>119.34</ele>
        <time>2013-05-09T15:42:26Z</time>
      </trkpt>
      <trkpt lat="48.69011" lon="-3.47292">
        <ele>118.86</ele>
        <time>2013-05-09T15:42:27Z</time>
      </trkpt>
      <trkpt lat="48.69022" lon="-3.47288">
        <ele>117.9</ele>
        <time>2013-05-09T15:42:28Z</time>
      </trkpt>
      <trkpt lat="48.69032" lon="-3.4728">
        <ele>117.9</ele>
        <time>2013-05-09T15:42:29Z</time>
      </trkpt>
      <trkpt lat="48.69041" lon="-3.47271">
        <ele>116.94</ele>
        <time>2013-05-09T15:42:30Z</time>
      </trkpt>
      <trkpt lat="48.69049" lon="-3.4726">
        <ele>115.98</ele>
        <time>2013-05-09T15:42:31Z</time>
      </trkpt>
      <trkpt lat="48.69058" lon="-3.47248">
        <ele>114.53</ele>
        <time>2013-05-09T15:42:32Z</time>
      </trkpt>
      <trkpt lat="48.69066" lon="-3.47237">
        <ele>114.53</ele>
        <time>2013-05-09T15:42:33Z</time>
      </trkpt>
      <trkpt lat="48.69093" lon="-3.47202">
        <ele>113.57</ele>
        <time>2013-05-09T15:42:36Z</time>
      </trkpt>
      <trkpt lat="48.69113" lon="-3.4718">
        <ele>109.73</ele>
        <time>2013-05-09T15:42:38Z</time>
      </trkpt>
      <trkpt lat="48.69145" lon="-3.47147">
        <ele>106.36</ele>
        <time>2013-05-09T15:42:41Z</time>
      </trkpt>
      <trkpt lat="48.69198" lon="-3.47083">
        <ele>102.52</ele>
        <time>2013-05-09T15:42:46Z</time>
      </trkpt>
      <trkpt lat="48.6922" lon="-3.47054">
        <ele>98.67</ele>
        <time>2013-05-09T15:42:48Z</time>
      </trkpt>
      <trkpt lat="48.69242" lon="-3.47025">
        <ele>96.75</ele>
        <time>2013-05-09T15:42:50Z</time>
      </trkpt>
      <trkpt lat="48.69285" lon="-3.46969">
        <ele>93.39</ele>
        <time>2013-05-09T15:42:54Z</time>
      </trkpt>
      <trkpt lat="48.69307" lon="-3.46949">
        <ele>90.98</ele>
        <time>2013-05-09T15:42:56Z</time>
      </trkpt>
      <trkpt lat="48.69319" lon="-3.46944">
        <ele>90.02</ele>
        <time>2013-05-09T15:42:57Z</time>
      </trkpt>
      <trkpt lat="48.69331" lon="-3.46942">
        <ele>89.54</ele>
        <time>2013-05-09T15:42:58Z</time>
      </trkpt>
      <trkpt lat="48.69342" lon="-3.46944">
        <ele>90.02</ele>
        <time>2013-05-09T15:42:59Z</time>
      </trkpt>
      <trkpt lat="48.69353" lon="-3.46949">
        <ele>89.54</ele>
        <time>2013-05-09T15:43:00Z</time>
      </trkpt>
      <trkpt lat="48.69363" lon="-3.46956">
        <ele>89.06</ele>
        <time>2013-05-09T15:43:01Z</time>
      </trkpt>
      <trkpt lat="48.69372" lon="-3.46965">
        <ele>89.06</ele>
        <time>2013-05-09T15:43:02Z</time>
      </trkpt>
      <trkpt lat="48.69397" lon="-3.46992">
        <ele>86.18</ele>
        <time>2013-05-09T15:43:05Z</time>
      </trkpt>
      <trkpt lat="48.69406" lon="-3.46998">
        <ele>86.18</ele>
        <time>2013-05-09T15:43:06Z</time>
      </trkpt>
      <trkpt lat="48.69416" lon="-3.47002">
        <ele>84.73</ele>
        <time>2013-05-09T15:43:07Z</time>
      </trkpt>
      <trkpt lat="48.69426" lon="-3.47003">
        <ele>84.25</ele>
        <time>2013-05-09T15:43:08Z</time>
      </trkpt>
      <trkpt lat="48.69437" lon="-3.47001">
        <ele>83.77</ele>
        <time>2013-05-09T15:43:09Z</time>
      </trkpt>
      <trkpt lat="48.69447" lon="-3.46996">
        <ele>83.29</ele>
        <time>2013-05-09T15:43:10Z</time>
      </trkpt>
      <trkpt lat="48.69455" lon="-3.46987">
        <ele>82.33</ele>
        <time>2013-05-09T15:43:11Z</time>
      </trkpt>
      <trkpt lat="48.69463" lon="-3.46976">
        <ele>80.89</ele>
        <time>2013-05-09T15:43:12Z</time>
      </trkpt>
      <trkpt lat="48.69469" lon="-3.46962">
        <ele>79.93</ele>
        <time>2013-05-09T15:43:13Z</time>
      </trkpt>
      <trkpt lat="48.69472" lon="-3.46948">
        <ele>79.45</ele>
        <time>2013-05-09T15:43:14Z</time>
      </trkpt>
      <trkpt lat="48.69473" lon="-3.46933">
        <ele>78.97</ele>
        <time>2013-05-09T15:43:15Z</time>
      </trkpt>
      <trkpt lat="48.69473" lon="-3.46917">
        <ele>78.48</ele>
        <time>2013-05-09T15:43:16Z</time>
      </trkpt>
      <trkpt lat="48.69471" lon="-3.46901">
        <ele>77.52</ele>
        <time>2013-05-09T15:43:17Z</time>
      </trkpt>
      <trkpt lat="48.69464" lon="-3.46853">
        <ele>76.08</ele>
        <time>2013-05-09T15:43:20Z</time>
      </trkpt>
      <trkpt lat="48.69461" lon="-3.46836">
        <ele>76.08</ele>
        <time>2013-05-09T15:43:21Z</time>
      </trkpt>
      <trkpt lat="48.69458" lon="-3.4682">
        <ele>75.12</ele>
        <time>2013-05-09T15:43:22Z</time>
      </trkpt>
      <trkpt lat="48.69452" lon="-3.46788">
        <ele>74.64</ele>
        <time>2013-05-09T15:43:24Z</time>
      </trkpt>
      <trkpt lat="48.69422" lon="-3.46741">
        <ele>71.27</ele>
        <time>2013-05-09T15:43:28Z</time>
      </trkpt>
      <trkpt lat="48.69414" lon="-3.46733">
        <ele>70.79</ele>
        <time>2013-05-09T15:43:29Z</time>
      </trkpt>
      <trkpt lat="48.69405" lon="-3.46726">
        <ele>69.35</ele>
        <time>2013-05-09T15:43:30Z</time>
      </trkpt>
      <trkpt lat="48.69396" lon="-3.46721">
        <ele>69.35</ele>
        <time>2013-05-09T15:43:31Z</time>
      </trkpt>
      <trkpt lat="48.69385" lon="-3.46721">
        <ele>68.39</ele>
        <time>2013-05-09T15:43:32Z</time>
      </trkpt>
      <trkpt lat="48.69375" lon="-3.46723">
        <ele>67.91</ele>
        <time>2013-05-09T15:43:33Z</time>
      </trkpt>
      <trkpt lat="48.69364" lon="-3.46726">
        <ele>67.43</ele>
        <time>2013-05-09T15:43:34Z</time>
      </trkpt>
      <trkpt lat="48.69294" lon="-3.46717">
        <ele>64.07</ele>
        <time>2013-05-09T15:43:41Z</time>
      </trkpt>
      <trkpt lat="48.69285" lon="-3.46711">
        <ele>63.58</ele>
        <time>2013-05-09T15:43:42Z</time>
      </trkpt>
      <trkpt lat="48.69276" lon="-3.46702">
        <ele>62.62</ele>
        <time>2013-05-09T15:43:43Z</time>
      </trkpt>
      <trkpt lat="48.6927" lon="-3.4669">
        <ele>61.66</ele>
        <time>2013-05-09T15:43:44Z</time>
      </trkpt>
      <trkpt lat="48.69265" lon="-3.46677">
        <ele>61.18</ele>
        <time>2013-05-09T15:43:45Z</time>
      </trkpt>
      <trkpt lat="48.69265" lon="-3.46661">
        <ele>60.22</ele>
        <time>2013-05-09T15:43:46Z</time>
      </trkpt>
      <trkpt lat="48.69268" lon="-3.46647">
        <ele>60.22</ele>
        <time>2013-05-09T15:43:47Z</time>
      </trkpt>
      <trkpt lat="48.69276" lon="-3.46635">
        <ele>60.22</ele>
        <time>2013-05-09T15:43:48Z</time>
      </trkpt>
      <trkpt lat="48.69286" lon="-3.46626">
        <ele>59.74</ele>
        <time>2013-05-09T15:43:49Z</time>
      </trkpt>
      <trkpt lat="48.69296" lon="-3.46621">
        <ele>59.74</ele>
        <time>2013-05-09T15:43:50Z</time>
      </trkpt>
      <trkpt lat="48.69306" lon="-3.46619">
        <ele>59.26</ele>
        <time>2013-05-09T15:43:51Z</time>
      </trkpt>
      <trkpt lat="48.69315" lon="-3.46621">
        <ele>58.3</ele>
        <time>2013-05-09T15:43:52Z</time>
      </trkpt>
      <trkpt lat="48.69322" lon="-3.46623">
        <ele>58.78</ele>
        <time>2013-05-09T15:43:53Z</time>
      </trkpt>
      <trkpt lat="48.69387" lon="-3.46618">
        <ele>60.7</ele>
        <time>2013-05-09T15:44:02Z</time>
      </trkpt>
      <trkpt lat="48.69393" lon="-3.46613">
        <ele>59.26</ele>
        <time>2013-05-09T15:44:03Z</time>
      </trkpt>
      <trkpt lat="48.69411" lon="-3.46594">
        <ele>59.74</ele>
        <time>2013-05-09T15:44:06Z</time>
      </trkpt>
      <trkpt lat="48.69415" lon="-3.46587">
        <ele>60.7</ele>
        <time>2013-05-09T15:44:07Z</time>
      </trkpt>
      <trkpt lat="48.69419" lon="-3.4658">
        <ele>60.7</ele>
        <time>2013-05-09T15:44:08Z</time>
      </trkpt>
      <trkpt lat="48.69421" lon="-3.46573">
        <ele>61.18</ele>
        <time>2013-05-09T15:44:09Z</time>
      </trkpt>
      <trkpt lat="48.69424" lon="-3.46566">
        <ele>61.66</ele>
        <time>2013-05-09T15:44:10Z</time>
      </trkpt>
      <trkpt lat="48.69426" lon="-3.46557">
        <ele>62.14</ele>
        <time>2013-05-09T15:44:11Z</time>
      </trkpt>
      <trkpt lat="48.69428" lon="-3.46549">
        <ele>62.62</ele>
        <time>2013-05-09T15:44:12Z</time>
      </trkpt>
      <trkpt lat="48.69434" lon="-3.46454">
        <ele>65.99</ele>
        <time>2013-05-09T15:44:24Z</time>
      </trkpt>
      <trkpt lat="48.69436" lon="-3.46366">
        <ele>70.31</ele>
        <time>2013-05-09T15:44:35Z</time>
      </trkpt>
      <trkpt lat="48.69437" lon="-3.46358">
        <ele>69.83</ele>
        <time>2013-05-09T15:44:36Z</time>
      </trkpt>
      <trkpt lat="48.69453" lon="-3.4628">
        <ele>72.24</ele>
        <time>2013-05-09T15:44:47Z</time>
      </trkpt>
      <trkpt lat="48.69455" lon="-3.46273">
        <ele>72.24</ele>
        <time>2013-05-09T15:44:48Z</time>
      </trkpt>
      <trkpt lat="48.69461" lon="-3.46262">
        <ele>73.2</ele>
        <time>2013-05-09T15:44:50Z</time>
      </trkpt>
      <trkpt lat="48.69465" lon="-3.46257">
        <ele>73.68</ele>
        <time>2013-05-09T15:44:51Z</time>
      </trkpt>
      <trkpt lat="48.69469" lon="-3.46254">
        <ele>74.16</ele>
        <time>2013-05-09T15:44:52Z</time>
      </trkpt>
      <trkpt lat="48.69473" lon="-3.4625">
        <ele>74.16</ele>
        <time>2013-05-09T15:44:53Z</time>
      </trkpt>
      <trkpt lat="48.69477" lon="-3.46248">
        <ele>74.64</ele>
        <time>2013-05-09T15:44:54Z</time>
      </trkpt>
      <trkpt lat="48.69499" lon="-3.46238">
        <ele>77.52</ele>
        <time>2013-05-09T15:44:59Z</time>
      </trkpt>
      <trkpt lat="48.69503" lon="-3.46234">
        <ele>77.04</ele>
        <time>2013-05-09T15:45:00Z</time>
      </trkpt>
      <trkpt lat="48.69514" lon="-3.4622">
        <ele>77.52</ele>
        <time>2013-05-09T15:45:03Z</time>
      </trkpt>
      <trkpt lat="48.69517" lon="-3.46214">
        <ele>77.52</ele>
        <time>2013-05-09T15:45:04Z</time>
      </trkpt>
      <trkpt lat="48.69527" lon="-3.46191">
        <ele>78</ele>
        <time>2013-05-09T15:45:08Z</time>
      </trkpt>
      <trkpt lat="48.69531" lon="-3.46177">
        <ele>77.52</ele>
        <time>2013-05-09T15:45:10Z</time>
      </trkpt>
      <trkpt lat="48.69542" lon="-3.46097">
        <ele>80.89</ele>
        <time>2013-05-09T15:45:21Z</time>
      </trkpt>
      <trkpt lat="48.69544" lon="-3.46081">
        <ele>81.85</ele>
        <time>2013-05-09T15:45:23Z</time>
      </trkpt>
      <trkpt lat="48.69545" lon="-3.46073">
        <ele>82.33</ele>
        <time>2013-05-09T15:45:24Z</time>
      </trkpt>
      <trkpt lat="48.69551" lon="-3.46021">
        <ele>82.33</ele>
        <time>2013-05-09T15:45:30Z</time>
      </trkpt>
      <trkpt lat="48.69572" lon="-3.45921">
        <ele>82.81</ele>
        <time>2013-05-09T15:45:42Z</time>
      </trkpt>
      <trkpt lat="48.69576" lon="-3.45914">
        <ele>83.29</ele>
        <time>2013-05-09T15:45:43Z</time>
      </trkpt>
      <trkpt lat="48.6958" lon="-3.45909">
        <ele>83.29</ele>
        <time>2013-05-09T15:45:44Z</time>
      </trkpt>
      <trkpt lat="48.69604" lon="-3.45887">
        <ele>85.21</ele>
        <time>2013-05-09T15:45:49Z</time>
      </trkpt>
      <trkpt lat="48.6961" lon="-3.45884">
        <ele>85.69</ele>
        <time>2013-05-09T15:45:50Z</time>
      </trkpt>
      <trkpt lat="48.69619" lon="-3.45877">
        <ele>85.69</ele>
        <time>2013-05-09T15:45:52Z</time>
      </trkpt>
      <trkpt lat="48.69652" lon="-3.45842">
        <ele>85.21</ele>
        <time>2013-05-09T15:45:59Z</time>
      </trkpt>
      <trkpt lat="48.6969" lon="-3.45755">
        <ele>85.21</ele>
        <time>2013-05-09T15:46:10Z</time>
      </trkpt>
      <trkpt lat="48.69721" lon="-3.4569">
        <ele>85.21</ele>
        <time>2013-05-09T15:46:18Z</time>
      </trkpt>
      <trkpt lat="48.69726" lon="-3.45683">
        <ele>85.21</ele>
        <time>2013-05-09T15:46:19Z</time>
      </trkpt>
      <trkpt lat="48.69731" lon="-3.45677">
        <ele>85.21</ele>
        <time>2013-05-09T15:46:20Z</time>
      </trkpt>
      <trkpt lat="48.69737" lon="-3.45672">
        <ele>85.21</ele>
        <time>2013-05-09T15:46:21Z</time>
      </trkpt>
      <trkpt lat="48.69742" lon="-3.45667">
        <ele>86.18</ele>
        <time>2013-05-09T15:46:22Z</time>
      </trkpt>
      <trkpt lat="48.69754" lon="-3.45658">
        <ele>86.18</ele>
        <time>2013-05-09T15:46:24Z</time>
      </trkpt>
      <trkpt lat="48.6976" lon="-3.45655">
        <ele>86.66</ele>
        <time>2013-05-09T15:46:25Z</time>
      </trkpt>
      <trkpt lat="48.69771" lon="-3.4565">
        <ele>88.58</ele>
        <time>2013-05-09T15:46:27Z</time>
      </trkpt>
      <trkpt lat="48.69776" lon="-3.45648">
        <ele>89.06</ele>
        <time>2013-05-09T15:46:28Z</time>
      </trkpt>
      <trkpt lat="48.69787" lon="-3.45646">
        <ele>90.02</ele>
        <time>2013-05-09T15:46:30Z</time>
      </trkpt>
      <trkpt lat="48.69796" lon="-3.45645">
        <ele>91.46</ele>
        <time>2013-05-09T15:46:32Z</time>
      </trkpt>
      <trkpt lat="48.69816" lon="-3.45652">
        <ele>89.54</ele>
        <time>2013-05-09T15:46:36Z</time>
      </trkpt>
      <trkpt lat="48.69821" lon="-3.45653">
        <ele>90.02</ele>
        <time>2013-05-09T15:46:37Z</time>
      </trkpt>
      <trkpt lat="48.69842" lon="-3.45653">
        <ele>90.5</ele>
        <time>2013-05-09T15:46:41Z</time>
      </trkpt>
      <trkpt lat="48.69847" lon="-3.45651">
        <ele>90.98</ele>
        <time>2013-05-09T15:46:42Z</time>
      </trkpt>
      <trkpt lat="48.6991" lon="-3.45614">
        <ele>93.87</ele>
        <time>2013-05-09T15:46:53Z</time>
      </trkpt>
      <trkpt lat="48.6998" lon="-3.45575">
        <ele>96.75</ele>
        <time>2013-05-09T15:47:06Z</time>
      </trkpt>
      <trkpt lat="48.69985" lon="-3.45571">
        <ele>96.27</ele>
        <time>2013-05-09T15:47:07Z</time>
      </trkpt>
      <trkpt lat="48.6999" lon="-3.45566">
        <ele>96.75</ele>
        <time>2013-05-09T15:47:08Z</time>
      </trkpt>
      <trkpt lat="48.70011" lon="-3.45544">
        <ele>97.71</ele>
        <time>2013-05-09T15:47:12Z</time>
      </trkpt>
      <trkpt lat="48.70036" lon="-3.45525">
        <ele>97.23</ele>
        <time>2013-05-09T15:47:16Z</time>
      </trkpt>
      <trkpt lat="48.70043" lon="-3.45522">
        <ele>97.23</ele>
        <time>2013-05-09T15:47:17Z</time>
      </trkpt>
      <trkpt lat="48.70049" lon="-3.45519">
        <ele>97.23</ele>
        <time>2013-05-09T15:47:18Z</time>
      </trkpt>
      <trkpt lat="48.70056" lon="-3.45518">
        <ele>97.23</ele>
        <time>2013-05-09T15:47:19Z</time>
      </trkpt>
      <trkpt lat="48.70062" lon="-3.45517">
        <ele>97.23</ele>
        <time>2013-05-09T15:47:20Z</time>
      </trkpt>
      <trkpt lat="48.70158" lon="-3.45508">
        <ele>96.75</ele>
        <time>2013-05-09T15:47:34Z</time>
      </trkpt>
      <trkpt lat="48.70261" lon="-3.45505">
        <ele>97.71</ele>
        <time>2013-05-09T15:47:47Z</time>
      </trkpt>
      <trkpt lat="48.70275" lon="-3.45502">
        <ele>97.23</ele>
        <time>2013-05-09T15:47:49Z</time>
      </trkpt>
      <trkpt lat="48.70281" lon="-3.45497">
        <ele>97.23</ele>
        <time>2013-05-09T15:47:50Z</time>
      </trkpt>
      <trkpt lat="48.70287" lon="-3.4549">
        <ele>97.71</ele>
        <time>2013-05-09T15:47:51Z</time>
      </trkpt>
      <trkpt lat="48.70291" lon="-3.45482">
        <ele>97.71</ele>
        <time>2013-05-09T15:47:52Z</time>
      </trkpt>
      <trkpt lat="48.70296" lon="-3.45474">
        <ele>97.71</ele>
        <time>2013-05-09T15:47:53Z</time>
      </trkpt>
      <trkpt lat="48.70299" lon="-3.45465">
        <ele>97.71</ele>
        <time>2013-05-09T15:47:54Z</time>
      </trkpt>
      <trkpt lat="48.70303" lon="-3.45455">
        <ele>97.71</ele>
        <time>2013-05-09T15:47:55Z</time>
      </trkpt>
      <trkpt lat="48.70344" lon="-3.4529">
        <ele>100.11</ele>
        <time>2013-05-09T15:48:12Z</time>
      </trkpt>
      <trkpt lat="48.70364" lon="-3.45212">
        <ele>102.52</ele>
        <time>2013-05-09T15:48:21Z</time>
      </trkpt>
      <trkpt lat="48.70368" lon="-3.45206">
        <ele>102.52</ele>
        <time>2013-05-09T15:48:22Z</time>
      </trkpt>
      <trkpt lat="48.70374" lon="-3.45203">
        <ele>102.52</ele>
        <time>2013-05-09T15:48:23Z</time>
      </trkpt>
      <trkpt lat="48.7038" lon="-3.45199">
        <ele>102.52</ele>
        <time>2013-05-09T15:48:24Z</time>
      </trkpt>
      <trkpt lat="48.70386" lon="-3.45194">
        <ele>102.52</ele>
        <time>2013-05-09T15:48:25Z</time>
      </trkpt>
      <trkpt lat="48.704" lon="-3.45177">
        <ele>103.48</ele>
        <time>2013-05-09T15:48:28Z</time>
      </trkpt>
      <trkpt lat="48.70404" lon="-3.45169">
        <ele>103.96</ele>
        <time>2013-05-09T15:48:29Z</time>
      </trkpt>
      <trkpt lat="48.70407" lon="-3.45161">
        <ele>103.48</ele>
        <time>2013-05-09T15:48:30Z</time>
      </trkpt>
      <trkpt lat="48.70417" lon="-3.45131">
        <ele>103</ele>
        <time>2013-05-09T15:48:33Z</time>
      </trkpt>
      <trkpt lat="48.70419" lon="-3.4512">
        <ele>103.48</ele>
        <time>2013-05-09T15:48:34Z</time>
      </trkpt>
      <trkpt lat="48.7042" lon="-3.45109">
        <ele>103.96</ele>
        <time>2013-05-09T15:48:35Z</time>
      </trkpt>
      <trkpt lat="48.7042" lon="-3.45074">
        <ele>100.6</ele>
        <time>2013-05-09T15:48:38Z</time>
      </trkpt>
      <trkpt lat="48.70419" lon="-3.45033">
        <ele>98.67</ele>
        <time>2013-05-09T15:48:41Z</time>
      </trkpt>
      <trkpt lat="48.70431" lon="-3.44908">
        <ele>94.83</ele>
        <time>2013-05-09T15:48:49Z</time>
      </trkpt>
      <trkpt lat="48.70443" lon="-3.44852">
        <ele>93.39</ele>
        <time>2013-05-09T15:48:54Z</time>
      </trkpt>
      <trkpt lat="48.70446" lon="-3.44847">
        <ele>92.9</ele>
        <time>2013-05-09T15:48:55Z</time>
      </trkpt>
      <trkpt lat="48.70444" lon="-3.44846">
        <ele>92.9</ele>
        <time>2013-05-09T15:48:56Z</time>
      </trkpt>
      <trkpt lat="48.70442" lon="-3.44847">
        <ele>92.42</ele>
        <time>2013-05-09T15:48:57Z</time>
      </trkpt>
      <trkpt lat="48.70441" lon="-3.44844">
        <ele>91.94</ele>
        <time>2013-05-09T15:49:02Z</time>
      </trkpt>
      <trkpt lat="48.70442" lon="-3.44841">
        <ele>92.42</ele>
        <time>2013-05-09T15:49:03Z</time>
      </trkpt>
      <trkpt lat="48.70445" lon="-3.44838">
        <ele>91.94</ele>
        <time>2013-05-09T15:49:04Z</time>
      </trkpt>
      <trkpt lat="48.70449" lon="-3.44836">
        <ele>91.94</ele>
        <time>2013-05-09T15:49:05Z</time>
      </trkpt>
      <trkpt lat="48.70453" lon="-3.44835">
        <ele>91.94</ele>
        <time>2013-05-09T15:49:06Z</time>
      </trkpt>
      <trkpt lat="48.7051" lon="-3.44815">
        <ele>93.39</ele>
        <time>2013-05-09T15:49:16Z</time>
      </trkpt>
      <trkpt lat="48.70562" lon="-3.44817">
        <ele>94.83</ele>
        <time>2013-05-09T15:49:24Z</time>
      </trkpt>
      <trkpt lat="48.70569" lon="-3.44816">
        <ele>95.31</ele>
        <time>2013-05-09T15:49:25Z</time>
      </trkpt>
      <trkpt lat="48.70596" lon="-3.44809">
        <ele>91.94</ele>
        <time>2013-05-09T15:49:29Z</time>
      </trkpt>
      <trkpt lat="48.70702" lon="-3.44798">
        <ele>90.02</ele>
        <time>2013-05-09T15:49:41Z</time>
      </trkpt>
      <trkpt lat="48.70744" lon="-3.44811">
        <ele>85.69</ele>
        <time>2013-05-09T15:49:45Z</time>
      </trkpt>
      <trkpt lat="48.70778" lon="-3.44826">
        <ele>81.85</ele>
        <time>2013-05-09T15:49:48Z</time>
      </trkpt>
      <trkpt lat="48.70888" lon="-3.44894">
        <ele>81.37</ele>
        <time>2013-05-09T15:49:58Z</time>
      </trkpt>
      <trkpt lat="48.70897" lon="-3.44902">
        <ele>81.37</ele>
        <time>2013-05-09T15:49:59Z</time>
      </trkpt>
      <trkpt lat="48.70916" lon="-3.44918">
        <ele>79.45</ele>
        <time>2013-05-09T15:50:01Z</time>
      </trkpt>
      <trkpt lat="48.70971" lon="-3.44959">
        <ele>78.48</ele>
        <time>2013-05-09T15:50:07Z</time>
      </trkpt>
      <trkpt lat="48.71008" lon="-3.44981">
        <ele>77.52</ele>
        <time>2013-05-09T15:50:11Z</time>
      </trkpt>
      <trkpt lat="48.71018" lon="-3.44984">
        <ele>78</ele>
        <time>2013-05-09T15:50:12Z</time>
      </trkpt>
      <trkpt lat="48.71027" lon="-3.44985">
        <ele>77.52</ele>
        <time>2013-05-09T15:50:13Z</time>
      </trkpt>
      <trkpt lat="48.71037" lon="-3.44986">
        <ele>77.52</ele>
        <time>2013-05-09T15:50:14Z</time>
      </trkpt>
      <trkpt lat="48.71046" lon="-3.44987">
        <ele>77.52</ele>
        <time>2013-05-09T15:50:15Z</time>
      </trkpt>
      <trkpt lat="48.71169" lon="-3.45">
        <ele>75.6</ele>
        <time>2013-05-09T15:50:29Z</time>
      </trkpt>
      <trkpt lat="48.71299" lon="-3.45059">
        <ele>74.64</ele>
        <time>2013-05-09T15:50:45Z</time>
      </trkpt>
      <trkpt lat="48.71414" lon="-3.4513">
        <ele>74.16</ele>
        <time>2013-05-09T15:51:00Z</time>
      </trkpt>
      <trkpt lat="48.71521" lon="-3.45206">
        <ele>74.64</ele>
        <time>2013-05-09T15:51:14Z</time>
      </trkpt>
      <trkpt lat="48.71565" lon="-3.45241">
        <ele>74.64</ele>
        <time>2013-05-09T15:51:20Z</time>
      </trkpt>
      <trkpt lat="48.71572" lon="-3.45249">
        <ele>74.64</ele>
        <time>2013-05-09T15:51:21Z</time>
      </trkpt>
      <trkpt lat="48.71578" lon="-3.45258">
        <ele>76.08</ele>
        <time>2013-05-09T15:51:22Z</time>
      </trkpt>
      <trkpt lat="48.71583" lon="-3.45267">
        <ele>75.6</ele>
        <time>2013-05-09T15:51:23Z</time>
      </trkpt>
      <trkpt lat="48.71588" lon="-3.45277">
        <ele>74.16</ele>
        <time>2013-05-09T15:51:24Z</time>
      </trkpt>
      <trkpt lat="48.71593" lon="-3.45287">
        <ele>74.16</ele>
        <time>2013-05-09T15:51:25Z</time>
      </trkpt>
      <trkpt lat="48.71606" lon="-3.4532">
        <ele>72.72</ele>
        <time>2013-05-09T15:51:28Z</time>
      </trkpt>
      <trkpt lat="48.71624" lon="-3.45377">
        <ele>71.27</ele>
        <time>2013-05-09T15:51:33Z</time>
      </trkpt>
      <trkpt lat="48.71678" lon="-3.45513">
        <ele>70.79</ele>
        <time>2013-05-09T15:51:45Z</time>
      </trkpt>
      <trkpt lat="48.71706" lon="-3.4558">
        <ele>66.95</ele>
        <time>2013-05-09T15:51:51Z</time>
      </trkpt>
      <trkpt lat="48.71711" lon="-3.45591">
        <ele>67.43</ele>
        <time>2013-05-09T15:51:52Z</time>
      </trkpt>
      <trkpt lat="48.71724" lon="-3.45611">
        <ele>65.99</ele>
        <time>2013-05-09T15:51:54Z</time>
      </trkpt>
      <trkpt lat="48.71731" lon="-3.4562">
        <ele>65.03</ele>
        <time>2013-05-09T15:51:55Z</time>
      </trkpt>
      <trkpt lat="48.71786" lon="-3.45679">
        <ele>61.66</ele>
        <time>2013-05-09T15:52:02Z</time>
      </trkpt>
      <trkpt lat="48.71887" lon="-3.45781">
        <ele>57.34</ele>
        <time>2013-05-09T15:52:14Z</time>
      </trkpt>
      <trkpt lat="48.71916" lon="-3.45815">
        <ele>56.86</ele>
        <time>2013-05-09T15:52:18Z</time>
      </trkpt>
      <trkpt lat="48.71922" lon="-3.45827">
        <ele>54.45</ele>
        <time>2013-05-09T15:52:19Z</time>
      </trkpt>
      <trkpt lat="48.71926" lon="-3.4584">
        <ele>54.93</ele>
        <time>2013-05-09T15:52:20Z</time>
      </trkpt>
      <trkpt lat="48.7195" lon="-3.45931">
        <ele>53.49</ele>
        <time>2013-05-09T15:52:27Z</time>
      </trkpt>
      <trkpt lat="48.71954" lon="-3.45943">
        <ele>53.49</ele>
        <time>2013-05-09T15:52:28Z</time>
      </trkpt>
      <trkpt lat="48.71959" lon="-3.45955">
        <ele>52.53</ele>
        <time>2013-05-09T15:52:29Z</time>
      </trkpt>
      <trkpt lat="48.71964" lon="-3.45967">
        <ele>51.57</ele>
        <time>2013-05-09T15:52:30Z</time>
      </trkpt>
      <trkpt lat="48.7197" lon="-3.45977">
        <ele>51.09</ele>
        <time>2013-05-09T15:52:31Z</time>
      </trkpt>
      <trkpt lat="48.71977" lon="-3.45986">
        <ele>50.13</ele>
        <time>2013-05-09T15:52:32Z</time>
      </trkpt>
      <trkpt lat="48.71985" lon="-3.45995">
        <ele>49.65</ele>
        <time>2013-05-09T15:52:33Z</time>
      </trkpt>
      <trkpt lat="48.71994" lon="-3.46002">
        <ele>48.68</ele>
        <time>2013-05-09T15:52:34Z</time>
      </trkpt>
      <trkpt lat="48.72003" lon="-3.46007">
        <ele>49.65</ele>
        <time>2013-05-09T15:52:35Z</time>
      </trkpt>
      <trkpt lat="48.72012" lon="-3.46011">
        <ele>49.16</ele>
        <time>2013-05-09T15:52:36Z</time>
      </trkpt>
      <trkpt lat="48.72022" lon="-3.46014">
        <ele>49.16</ele>
        <time>2013-05-09T15:52:37Z</time>
      </trkpt>
      <trkpt lat="48.72032" lon="-3.46014">
        <ele>48.2</ele>
        <time>2013-05-09T15:52:38Z</time>
      </trkpt>
      <trkpt lat="48.72042" lon="-3.46015">
        <ele>47.24</ele>
        <time>2013-05-09T15:52:39Z</time>
      </trkpt>
      <trkpt lat="48.72051" lon="-3.46016">
        <ele>47.24</ele>
        <time>2013-05-09T15:52:40Z</time>
      </trkpt>
      <trkpt lat="48.7206" lon="-3.46016">
        <ele>47.24</ele>
        <time>2013-05-09T15:52:41Z</time>
      </trkpt>
      <trkpt lat="48.72068" lon="-3.46014">
        <ele>45.8</ele>
        <time>2013-05-09T15:52:42Z</time>
      </trkpt>
      <trkpt lat="48.72077" lon="-3.46011">
        <ele>45.32</ele>
        <time>2013-05-09T15:52:43Z</time>
      </trkpt>
      <trkpt lat="48.72086" lon="-3.46007">
        <ele>45.32</ele>
        <time>2013-05-09T15:52:44Z</time>
      </trkpt>
      <trkpt lat="48.72127" lon="-3.45974">
        <ele>43.88</ele>
        <time>2013-05-09T15:52:48Z</time>
      </trkpt>
      <trkpt lat="48.72138" lon="-3.45969">
        <ele>43.88</ele>
        <time>2013-05-09T15:52:49Z</time>
      </trkpt>
      <trkpt lat="48.7215" lon="-3.45963">
        <ele>43.88</ele>
        <time>2013-05-09T15:52:50Z</time>
      </trkpt>
      <trkpt lat="48.72161" lon="-3.45963">
        <ele>42.92</ele>
        <time>2013-05-09T15:52:51Z</time>
      </trkpt>
      <trkpt lat="48.72173" lon="-3.45965">
        <ele>42.44</ele>
        <time>2013-05-09T15:52:52Z</time>
      </trkpt>
      <trkpt lat="48.72184" lon="-3.45969">
        <ele>41.95</ele>
        <time>2013-05-09T15:52:53Z</time>
      </trkpt>
      <trkpt lat="48.72217" lon="-3.45981">
        <ele>40.99</ele>
        <time>2013-05-09T15:52:56Z</time>
      </trkpt>
      <trkpt lat="48.7228" lon="-3.46008">
        <ele>39.55</ele>
        <time>2013-05-09T15:53:02Z</time>
      </trkpt>
      <trkpt lat="48.72292" lon="-3.4601">
        <ele>39.07</ele>
        <time>2013-05-09T15:53:03Z</time>
      </trkpt>
      <trkpt lat="48.72303" lon="-3.46011">
        <ele>37.63</ele>
        <time>2013-05-09T15:53:04Z</time>
      </trkpt>
      <trkpt lat="48.72314" lon="-3.4601">
        <ele>37.15</ele>
        <time>2013-05-09T15:53:05Z</time>
      </trkpt>
      <trkpt lat="48.72326" lon="-3.46008">
        <ele>37.15</ele>
        <time>2013-05-09T15:53:06Z</time>
      </trkpt>
      <trkpt lat="48.72338" lon="-3.46005">
        <ele>36.19</ele>
        <time>2013-05-09T15:53:07Z</time>
      </trkpt>
      <trkpt lat="48.72385" lon="-3.45993">
        <ele>34.26</ele>
        <time>2013-05-09T15:53:11Z</time>
      </trkpt>
      <trkpt lat="48.72397" lon="-3.45993">
        <ele>33.78</ele>
        <time>2013-05-09T15:53:12Z</time>
      </trkpt>
      <trkpt lat="48.72408" lon="-3.45995">
        <ele>32.82</ele>
        <time>2013-05-09T15:53:13Z</time>
      </trkpt>
      <trkpt lat="48.7242" lon="-3.46">
        <ele>33.3</ele>
        <time>2013-05-09T15:53:14Z</time>
      </trkpt>
      <trkpt lat="48.72431" lon="-3.46006">
        <ele>33.3</ele>
        <time>2013-05-09T15:53:15Z</time>
      </trkpt>
      <trkpt lat="48.72498" lon="-3.46031">
        <ele>29.46</ele>
        <time>2013-05-09T15:53:21Z</time>
      </trkpt>
      <trkpt lat="48.7251" lon="-3.46035">
        <ele>29.46</ele>
        <time>2013-05-09T15:53:22Z</time>
      </trkpt>
      <trkpt lat="48.72522" lon="-3.46038">
        <ele>30.42</ele>
        <time>2013-05-09T15:53:23Z</time>
      </trkpt>
      <trkpt lat="48.72533" lon="-3.46038">
        <ele>30.9</ele>
        <time>2013-05-09T15:53:24Z</time>
      </trkpt>
      <trkpt lat="48.72545" lon="-3.46036">
        <ele>28.5</ele>
        <time>2013-05-09T15:53:25Z</time>
      </trkpt>
      <trkpt lat="48.72641" lon="-3.46014">
        <ele>25.13</ele>
        <time>2013-05-09T15:53:33Z</time>
      </trkpt>
      <trkpt lat="48.72665" lon="-3.46008">
        <ele>24.17</ele>
        <time>2013-05-09T15:53:35Z</time>
      </trkpt>
      <trkpt lat="48.72701" lon="-3.46">
        <ele>20.32</ele>
        <time>2013-05-09T15:53:38Z</time>
      </trkpt>
      <trkpt lat="48.7273" lon="-3.45993">
        <ele>19.36</ele>
        <time>2013-05-09T15:53:41Z</time>
      </trkpt>
      <trkpt lat="48.72737" lon="-3.45992">
        <ele>18.88</ele>
        <time>2013-05-09T15:53:42Z</time>
      </trkpt>
      <trkpt lat="48.72748" lon="-3.4599">
        <ele>18.4</ele>
        <time>2013-05-09T15:53:44Z</time>
      </trkpt>
      <trkpt lat="48.72753" lon="-3.45988">
        <ele>17.92</ele>
        <time>2013-05-09T15:53:45Z</time>
      </trkpt>
      <trkpt lat="48.72764" lon="-3.45981">
        <ele>17.92</ele>
        <time>2013-05-09T15:53:47Z</time>
      </trkpt>
      <trkpt lat="48.7277" lon="-3.45979">
        <ele>17.92</ele>
        <time>2013-05-09T15:53:48Z</time>
      </trkpt>
      <trkpt lat="48.72776" lon="-3.4598">
        <ele>17.92</ele>
        <time>2013-05-09T15:53:49Z</time>
      </trkpt>
      <trkpt lat="48.72786" lon="-3.4598">
        <ele>18.4</ele>
        <time>2013-05-09T15:53:51Z</time>
      </trkpt>
      <trkpt lat="48.72822" lon="-3.45969">
        <ele>21.29</ele>
        <time>2013-05-09T15:53:57Z</time>
      </trkpt>
      <trkpt lat="48.72828" lon="-3.45967">
        <ele>21.29</ele>
        <time>2013-05-09T15:53:58Z</time>
      </trkpt>
      <trkpt lat="48.72853" lon="-3.45958">
        <ele>19.84</ele>
        <time>2013-05-09T15:54:02Z</time>
      </trkpt>
      <trkpt lat="48.72859" lon="-3.45958">
        <ele>19.84</ele>
        <time>2013-05-09T15:54:03Z</time>
      </trkpt>
      <trkpt lat="48.72865" lon="-3.4596">
        <ele>19.36</ele>
        <time>2013-05-09T15:54:04Z</time>
      </trkpt>
      <trkpt lat="48.72871" lon="-3.45964">
        <ele>19.36</ele>
        <time>2013-05-09T15:54:05Z</time>
      </trkpt>
      <trkpt lat="48.72876" lon="-3.4597">
        <ele>19.36</ele>
        <time>2013-05-09T15:54:06Z</time>
      </trkpt>
      <trkpt lat="48.72881" lon="-3.45976">
        <ele>19.36</ele>
        <time>2013-05-09T15:54:07Z</time>
      </trkpt>
      <trkpt lat="48.72892" lon="-3.4599">
        <ele>19.36</ele>
        <time>2013-05-09T15:54:10Z</time>
      </trkpt>
      <trkpt lat="48.72896" lon="-3.45993">
        <ele>18.88</ele>
        <time>2013-05-09T15:54:11Z</time>
      </trkpt>
      <trkpt lat="48.72915" lon="-3.46008">
        <ele>18.88</ele>
        <time>2013-05-09T15:54:15Z</time>
      </trkpt>
      <trkpt lat="48.72921" lon="-3.46012">
        <ele>19.36</ele>
        <time>2013-05-09T15:54:16Z</time>
      </trkpt>
      <trkpt lat="48.72987" lon="-3.46039">
        <ele>17.92</ele>
        <time>2013-05-09T15:54:26Z</time>
      </trkpt>
      <trkpt lat="48.72994" lon="-3.4604">
        <ele>18.4</ele>
        <time>2013-05-09T15:54:27Z</time>
      </trkpt>
      <trkpt lat="48.73011" lon="-3.46037">
        <ele>19.84</ele>
        <time>2013-05-09T15:54:30Z</time>
      </trkpt>
      <trkpt lat="48.73031" lon="-3.46028">
        <ele>17.44</ele>
        <time>2013-05-09T15:54:34Z</time>
      </trkpt>
      <trkpt lat="48.73041" lon="-3.46019">
        <ele>18.4</ele>
        <time>2013-05-09T15:54:38Z</time>
      </trkpt>
      <trkpt lat="48.73052" lon="-3.46001">
        <ele>19.84</ele>
        <time>2013-05-09T15:54:42Z</time>
      </trkpt>
      <trkpt lat="48.73062" lon="-3.45988">
        <ele>18.88</ele>
        <time>2013-05-09T15:54:45Z</time>
      </trkpt>
      <trkpt lat="48.73066" lon="-3.45986">
        <ele>19.84</ele>
        <time>2013-05-09T15:54:46Z</time>
      </trkpt>
      <trkpt lat="48.73075" lon="-3.45982">
        <ele>19.84</ele>
        <time>2013-05-09T15:54:48Z</time>
      </trkpt>
      <trkpt lat="48.7309" lon="-3.45985">
        <ele>17.44</ele>
        <time>2013-05-09T15:54:52Z</time>
      </trkpt>
      <trkpt lat="48.73102" lon="-3.45997">
        <ele>15.04</ele>
        <time>2013-05-09T15:54:55Z</time>
      </trkpt>
      <trkpt lat="48.73105" lon="-3.46002">
        <ele>14.56</ele>
        <time>2013-05-09T15:54:56Z</time>
      </trkpt>
      <trkpt lat="48.73126" lon="-3.46034">
        <ele>17.92</ele>
        <time>2013-05-09T15:55:02Z</time>
      </trkpt>
      <trkpt lat="48.7313" lon="-3.4604">
        <ele>18.88</ele>
        <time>2013-05-09T15:55:03Z</time>
      </trkpt>
      <trkpt lat="48.73134" lon="-3.46047">
        <ele>17.92</ele>
        <time>2013-05-09T15:55:04Z</time>
      </trkpt>
      <trkpt lat="48.73138" lon="-3.46052">
        <ele>18.88</ele>
        <time>2013-05-09T15:55:05Z</time>
      </trkpt>
      <trkpt lat="48.73142" lon="-3.46058">
        <ele>18.88</ele>
        <time>2013-05-09T15:55:06Z</time>
      </trkpt>
      <trkpt lat="48.73145" lon="-3.46064">
        <ele>18.88</ele>
        <time>2013-05-09T15:55:07Z</time>
      </trkpt>
      <trkpt lat="48.73149" lon="-3.4607">
        <ele>18.4</ele>
        <time>2013-05-09T15:55:08Z</time>
      </trkpt>
      <trkpt lat="48.73182" lon="-3.46116">
        <ele>16.48</ele>
        <time>2013-05-09T15:55:17Z</time>
      </trkpt>
      <trkpt lat="48.73189" lon="-3.46127">
        <ele>18.4</ele>
        <time>2013-05-09T15:55:19Z</time>
      </trkpt>
      <trkpt lat="48.73207" lon="-3.46154">
        <ele>18.4</ele>
        <time>2013-05-09T15:55:24Z</time>
      </trkpt>
      <trkpt lat="48.7321" lon="-3.46159">
        <ele>18.4</ele>
        <time>2013-05-09T15:55:25Z</time>
      </trkpt>
      <trkpt lat="48.73212" lon="-3.46163">
        <ele>17.92</ele>
        <time>2013-05-09T15:55:26Z</time>
      </trkpt>
      <trkpt lat="48.73214" lon="-3.46167">
        <ele>17.92</ele>
        <time>2013-05-09T15:55:27Z</time>
      </trkpt>
      <trkpt lat="48.73216" lon="-3.46169">
        <ele>17.44</ele>
        <time>2013-05-09T15:55:28Z</time>
      </trkpt>
      <trkpt lat="48.73219" lon="-3.46172">
        <ele>17.92</ele>
        <time>2013-05-09T15:55:29Z</time>
      </trkpt>
      <trkpt lat="48.73221" lon="-3.46173">
        <ele>17.92</ele>
        <time>2013-05-09T15:55:30Z</time>
      </trkpt>
      <trkpt lat="48.73222" lon="-3.46172">
        <ele>18.4</ele>
        <time>2013-05-09T15:55:31Z</time>
      </trkpt>
      <trkpt lat="48.73224" lon="-3.46171">
        <ele>18.4</ele>
        <time>2013-05-09T15:55:32Z</time>
      </trkpt>
      <trkpt lat="48.73226" lon="-3.4617">
        <ele>18.88</ele>
        <time>2013-05-09T15:55:33Z</time>
      </trkpt>
      <trkpt lat="48.73227" lon="-3.46169">
        <ele>18.88</ele>
        <time>2013-05-09T15:55:34Z</time>
      </trkpt>
      <trkpt lat="48.73229" lon="-3.46167">
        <ele>18.88</ele>
        <time>2013-05-09T15:55:35Z</time>
      </trkpt>
      <trkpt lat="48.73231" lon="-3.46165">
        <ele>18.88</ele>
        <time>2013-05-09T15:55:36Z</time>
      </trkpt>
      <trkpt lat="48.73239" lon="-3.46149">
        <ele>20.32</ele>
        <time>2013-05-09T15:55:39Z</time>
      </trkpt>
      <trkpt lat="48.73242" lon="-3.46139">
        <ele>20.32</ele>
        <time>2013-05-09T15:55:40Z</time>
      </trkpt>
      <trkpt lat="48.73258" lon="-3.46079">
        <ele>23.69</ele>
        <time>2013-05-09T15:55:47Z</time>
      </trkpt>
      <trkpt lat="48.73267" lon="-3.46052">
        <ele>24.65</ele>
        <time>2013-05-09T15:55:51Z</time>
      </trkpt>
      <trkpt lat="48.73284" lon="-3.46012">
        <ele>26.09</ele>
        <time>2013-05-09T15:56:03Z</time>
      </trkpt>
      <trkpt lat="48.73304" lon="-3.45973">
        <ele>26.09</ele>
        <time>2013-05-09T15:56:15Z</time>
      </trkpt>
      <trkpt lat="48.73309" lon="-3.45963">
        <ele>25.13</ele>
        <time>2013-05-09T15:56:17Z</time>
      </trkpt>
      <trkpt lat="48.73313" lon="-3.45958">
        <ele>24.17</ele>
        <time>2013-05-09T15:56:18Z</time>
      </trkpt>
      <trkpt lat="48.73318" lon="-3.45954">
        <ele>23.69</ele>
        <time>2013-05-09T15:56:19Z</time>
      </trkpt>
      <trkpt lat="48.73331" lon="-3.45946">
        <ele>22.25</ele>
        <time>2013-05-09T15:56:21Z</time>
      </trkpt>
      <trkpt lat="48.7334" lon="-3.45942">
        <ele>22.25</ele>
        <time>2013-05-09T15:56:22Z</time>
      </trkpt>
      <trkpt lat="48.73426" lon="-3.45907">
        <ele>23.21</ele>
        <time>2013-05-09T15:56:32Z</time>
      </trkpt>
      <trkpt lat="48.73432" lon="-3.45902">
        <ele>24.17</ele>
        <time>2013-05-09T15:56:33Z</time>
      </trkpt>
      <trkpt lat="48.73438" lon="-3.45896">
        <ele>24.65</ele>
        <time>2013-05-09T15:56:34Z</time>
      </trkpt>
      <trkpt lat="48.73443" lon="-3.4589">
        <ele>24.65</ele>
        <time>2013-05-09T15:56:35Z</time>
      </trkpt>
      <trkpt lat="48.73447" lon="-3.45883">
        <ele>24.17</ele>
        <time>2013-05-09T15:56:36Z</time>
      </trkpt>
      <trkpt lat="48.73452" lon="-3.45876">
        <ele>24.65</ele>
        <time>2013-05-09T15:56:37Z</time>
      </trkpt>
      <trkpt lat="48.73456" lon="-3.45867">
        <ele>24.65</ele>
        <time>2013-05-09T15:56:38Z</time>
      </trkpt>
      <trkpt lat="48.7346" lon="-3.45859">
        <ele>24.65</ele>
        <time>2013-05-09T15:56:39Z</time>
      </trkpt>
      <trkpt lat="48.7347" lon="-3.45833">
        <ele>27.05</ele>
        <time>2013-05-09T15:56:42Z</time>
      </trkpt>
      <trkpt lat="48.73473" lon="-3.45823">
        <ele>26.57</ele>
        <time>2013-05-09T15:56:43Z</time>
      </trkpt>
      <trkpt lat="48.73474" lon="-3.45813">
        <ele>26.09</ele>
        <time>2013-05-09T15:56:44Z</time>
      </trkpt>
      <trkpt lat="48.73474" lon="-3.45802">
        <ele>25.61</ele>
        <time>2013-05-09T15:56:45Z</time>
      </trkpt>
      <trkpt lat="48.73474" lon="-3.45792">
        <ele>26.09</ele>
        <time>2013-05-09T15:56:46Z</time>
      </trkpt>
      <trkpt lat="48.73474" lon="-3.45783">
        <ele>26.09</ele>
        <time>2013-05-09T15:56:47Z</time>
      </trkpt>
      <trkpt lat="48.73473" lon="-3.45773">
        <ele>25.61</ele>
        <time>2013-05-09T15:56:48Z</time>
      </trkpt>
      <trkpt lat="48.73471" lon="-3.45764">
        <ele>25.61</ele>
        <time>2013-05-09T15:56:49Z</time>
      </trkpt>
      <trkpt lat="48.73469" lon="-3.45755">
        <ele>26.09</ele>
        <time>2013-05-09T15:56:50Z</time>
      </trkpt>
      <trkpt lat="48.73466" lon="-3.45747">
        <ele>26.57</ele>
        <time>2013-05-09T15:56:51Z</time>
      </trkpt>
      <trkpt lat="48.73458" lon="-3.45723">
        <ele>27.05</ele>
        <time>2013-05-09T15:56:54Z</time>
      </trkpt>
      <trkpt lat="48.73456" lon="-3.45714">
        <ele>27.05</ele>
        <time>2013-05-09T15:56:55Z</time>
      </trkpt>
      <trkpt lat="48.73455" lon="-3.45705">
        <ele>27.05</ele>
        <time>2013-05-09T15:56:56Z</time>
      </trkpt>
      <trkpt lat="48.73455" lon="-3.45697">
        <ele>26.57</ele>
        <time>2013-05-09T15:56:57Z</time>
      </trkpt>
      <trkpt lat="48.73456" lon="-3.45689">
        <ele>26.09</ele>
        <time>2013-05-09T15:56:58Z</time>
      </trkpt>
      <trkpt lat="48.73458" lon="-3.45681">
        <ele>26.09</ele>
        <time>2013-05-09T15:56:59Z</time>
      </trkpt>
      <trkpt lat="48.73463" lon="-3.45674">
        <ele>26.57</ele>
        <time>2013-05-09T15:57:00Z</time>
      </trkpt>
      <trkpt lat="48.73467" lon="-3.45667">
        <ele>26.57</ele>
        <time>2013-05-09T15:57:01Z</time>
      </trkpt>
      <trkpt lat="48.73471" lon="-3.4566">
        <ele>26.57</ele>
        <time>2013-05-09T15:57:02Z</time>
      </trkpt>
      <trkpt lat="48.73485" lon="-3.45627">
        <ele>25.61</ele>
        <time>2013-05-09T15:57:06Z</time>
      </trkpt>
      <trkpt lat="48.73487" lon="-3.45618">
        <ele>25.13</ele>
        <time>2013-05-09T15:57:07Z</time>
      </trkpt>
      <trkpt lat="48.73489" lon="-3.45609">
        <ele>25.13</ele>
        <time>2013-05-09T15:57:08Z</time>
      </trkpt>
      <trkpt lat="48.73496" lon="-3.45551">
        <ele>25.61</ele>
        <time>2013-05-09T15:57:15Z</time>
      </trkpt>
      <trkpt lat="48.735" lon="-3.45543">
        <ele>25.13</ele>
        <time>2013-05-09T15:57:16Z</time>
      </trkpt>
      <trkpt lat="48.73509" lon="-3.45526">
        <ele>24.65</ele>
        <time>2013-05-09T15:57:19Z</time>
      </trkpt>
      <trkpt lat="48.73513" lon="-3.45523">
        <ele>24.65</ele>
        <time>2013-05-09T15:57:20Z</time>
      </trkpt>
      <trkpt lat="48.73517" lon="-3.45522">
        <ele>24.65</ele>
        <time>2013-05-09T15:57:21Z</time>
      </trkpt>
      <trkpt lat="48.73553" lon="-3.45516">
        <ele>27.05</ele>
        <time>2013-05-09T15:57:28Z</time>
      </trkpt>
      <trkpt lat="48.73558" lon="-3.45516">
        <ele>26.57</ele>
        <time>2013-05-09T15:57:29Z</time>
      </trkpt>
      <trkpt lat="48.73562" lon="-3.45515">
        <ele>26.57</ele>
        <time>2013-05-09T15:57:30Z</time>
      </trkpt>
      <trkpt lat="48.73566" lon="-3.45514">
        <ele>26.57</ele>
        <time>2013-05-09T15:57:31Z</time>
      </trkpt>
      <trkpt lat="48.73571" lon="-3.45512">
        <ele>26.57</ele>
        <time>2013-05-09T15:57:32Z</time>
      </trkpt>
      <trkpt lat="48.73575" lon="-3.4551">
        <ele>26.57</ele>
        <time>2013-05-09T15:57:33Z</time>
      </trkpt>
      <trkpt lat="48.7362" lon="-3.45498">
        <ele>28.98</ele>
        <time>2013-05-09T15:57:42Z</time>
      </trkpt>
      <trkpt lat="48.73625" lon="-3.45499">
        <ele>28.98</ele>
        <time>2013-05-09T15:57:43Z</time>
      </trkpt>
      <trkpt lat="48.7363" lon="-3.455">
        <ele>29.46</ele>
        <time>2013-05-09T15:57:44Z</time>
      </trkpt>
      <trkpt lat="48.73662" lon="-3.45512">
        <ele>31.38</ele>
        <time>2013-05-09T15:57:51Z</time>
      </trkpt>
      <trkpt lat="48.737" lon="-3.45517">
        <ele>35.23</ele>
        <time>2013-05-09T15:58:00Z</time>
      </trkpt>
      <trkpt lat="48.73762" lon="-3.455">
        <ele>37.63</ele>
        <time>2013-05-09T15:58:16Z</time>
      </trkpt>
      <trkpt lat="48.73799" lon="-3.45481">
        <ele>40.99</ele>
        <time>2013-05-09T15:58:27Z</time>
      </trkpt>
      <trkpt lat="48.73809" lon="-3.45476">
        <ele>42.44</ele>
        <time>2013-05-09T15:58:30Z</time>
      </trkpt>
      <trkpt lat="48.73856" lon="-3.45444">
        <ele>45.32</ele>
        <time>2013-05-09T15:58:45Z</time>
      </trkpt>
      <trkpt lat="48.73897" lon="-3.45406">
        <ele>48.68</ele>
        <time>2013-05-09T15:59:00Z</time>
      </trkpt>
      <trkpt lat="48.73926" lon="-3.45377">
        <ele>52.05</ele>
        <time>2013-05-09T15:59:11Z</time>
      </trkpt>
      <trkpt lat="48.73942" lon="-3.45365">
        <ele>55.41</ele>
        <time>2013-05-09T15:59:20Z</time>
      </trkpt>
      <trkpt lat="48.73967" lon="-3.45333">
        <ele>59.26</ele>
        <time>2013-05-09T15:59:30Z</time>
      </trkpt>
      <trkpt lat="48.73992" lon="-3.45304">
        <ele>61.66</ele>
        <time>2013-05-09T15:59:37Z</time>
      </trkpt>
      <trkpt lat="48.74018" lon="-3.4529">
        <ele>64.55</ele>
        <time>2013-05-09T15:59:47Z</time>
      </trkpt>
      <trkpt lat="48.74076" lon="-3.45304">
        <ele>66.95</ele>
        <time>2013-05-09T16:00:03Z</time>
      </trkpt>
      <trkpt lat="48.74126" lon="-3.45303">
        <ele>67.91</ele>
        <time>2013-05-09T16:00:16Z</time>
      </trkpt>
      <trkpt lat="48.74173" lon="-3.45304">
        <ele>71.27</ele>
        <time>2013-05-09T16:00:29Z</time>
      </trkpt>
      <trkpt lat="48.74181" lon="-3.45305">
        <ele>71.76</ele>
        <time>2013-05-09T16:00:31Z</time>
      </trkpt>
      <trkpt lat="48.74218" lon="-3.45296">
        <ele>75.12</ele>
        <time>2013-05-09T16:00:42Z</time>
      </trkpt>
      <trkpt lat="48.74279" lon="-3.45278">
        <ele>77.04</ele>
        <time>2013-05-09T16:00:59Z</time>
      </trkpt>
      <trkpt lat="48.74328" lon="-3.45261">
        <ele>77.04</ele>
        <time>2013-05-09T16:01:10Z</time>
      </trkpt>
      <trkpt lat="48.74332" lon="-3.45258">
        <ele>77.04</ele>
        <time>2013-05-09T16:01:11Z</time>
      </trkpt>
      <trkpt lat="48.74335" lon="-3.45254">
        <ele>77.04</ele>
        <time>2013-05-09T16:01:12Z</time>
      </trkpt>
      <trkpt lat="48.74338" lon="-3.45249">
        <ele>77.04</ele>
        <time>2013-05-09T16:01:13Z</time>
      </trkpt>
      <trkpt lat="48.7434" lon="-3.45244">
        <ele>77.04</ele>
        <time>2013-05-09T16:01:14Z</time>
      </trkpt>
      <trkpt lat="48.74342" lon="-3.45237">
        <ele>76.08</ele>
        <time>2013-05-09T16:01:15Z</time>
      </trkpt>
      <trkpt lat="48.74344" lon="-3.4523">
        <ele>76.56</ele>
        <time>2013-05-09T16:01:16Z</time>
      </trkpt>
      <trkpt lat="48.74346" lon="-3.45223">
        <ele>76.56</ele>
        <time>2013-05-09T16:01:17Z</time>
      </trkpt>
      <trkpt lat="48.74349" lon="-3.45218">
        <ele>77.04</ele>
        <time>2013-05-09T16:01:18Z</time>
      </trkpt>
      <trkpt lat="48.74352" lon="-3.45215">
        <ele>77.52</ele>
        <time>2013-05-09T16:01:19Z</time>
      </trkpt>
      <trkpt lat="48.74356" lon="-3.45214">
        <ele>77.52</ele>
        <time>2013-05-09T16:01:20Z</time>
      </trkpt>
      <trkpt lat="48.7436" lon="-3.45214">
        <ele>77.52</ele>
        <time>2013-05-09T16:01:21Z</time>
      </trkpt>
      <trkpt lat="48.74364" lon="-3.45216">
        <ele>77.52</ele>
        <time>2013-05-09T16:01:22Z</time>
      </trkpt>
      <trkpt lat="48.74369" lon="-3.45218">
        <ele>77.52</ele>
        <time>2013-05-09T16:01:23Z</time>
      </trkpt>
      <trkpt lat="48.74373" lon="-3.45219">
        <ele>77.52</ele>
        <time>2013-05-09T16:01:24Z</time>
      </trkpt>
      <trkpt lat="48.74399" lon="-3.45231">
        <ele>78</ele>
        <time>2013-05-09T16:01:36Z</time>
      </trkpt>
      <trkpt lat="48.744" lon="-3.45232">
        <ele>78</ele>
        <time>2013-05-09T16:01:47Z</time>
      </trkpt>
      <trkpt lat="48.74402" lon="-3.45233">
        <ele>78</ele>
        <time>2013-05-09T16:01:48Z</time>
      </trkpt>
      <trkpt lat="48.74404" lon="-3.45235">
        <ele>78.48</ele>
        <time>2013-05-09T16:01:49Z</time>
      </trkpt>
      <trkpt lat="48.74406" lon="-3.45237">
        <ele>78.97</ele>
        <time>2013-05-09T16:01:50Z</time>
      </trkpt>
      <trkpt lat="48.74409" lon="-3.4524">
        <ele>78</ele>
        <time>2013-05-09T16:01:51Z</time>
      </trkpt>
      <trkpt lat="48.74415" lon="-3.45248">
        <ele>77.04</ele>
        <time>2013-05-09T16:01:53Z</time>
      </trkpt>
      <trkpt lat="48.74435" lon="-3.45274">
        <ele>74.16</ele>
        <time>2013-05-09T16:01:58Z</time>
      </trkpt>
      <trkpt lat="48.745" lon="-3.45357">
        <ele>70.79</ele>
        <time>2013-05-09T16:02:08Z</time>
      </trkpt>
      <trkpt lat="48.74538" lon="-3.45417">
        <ele>67.43</ele>
        <time>2013-05-09T16:02:13Z</time>
      </trkpt>
      <trkpt lat="48.74544" lon="-3.45429">
        <ele>67.91</ele>
        <time>2013-05-09T16:02:14Z</time>
      </trkpt>
      <trkpt lat="48.74583" lon="-3.45497">
        <ele>70.31</ele>
        <time>2013-05-09T16:02:22Z</time>
      </trkpt>
      <trkpt lat="48.74596" lon="-3.4551">
        <ele>72.24</ele>
        <time>2013-05-09T16:02:26Z</time>
      </trkpt>
      <trkpt lat="48.74599" lon="-3.4551">
        <ele>72.72</ele>
        <time>2013-05-09T16:02:27Z</time>
      </trkpt>
      <trkpt lat="48.74602" lon="-3.45507">
        <ele>72.72</ele>
        <time>2013-05-09T16:02:28Z</time>
      </trkpt>
      <trkpt lat="48.74605" lon="-3.45502">
        <ele>73.2</ele>
        <time>2013-05-09T16:02:29Z</time>
      </trkpt>
      <trkpt lat="48.74622" lon="-3.45465">
        <ele>74.16</ele>
        <time>2013-05-09T16:02:37Z</time>
      </trkpt>
      <trkpt lat="48.74625" lon="-3.45465">
        <ele>74.64</ele>
        <time>2013-05-09T16:02:38Z</time>
      </trkpt>
      <trkpt lat="48.74628" lon="-3.45466">
        <ele>75.12</ele>
        <time>2013-05-09T16:02:39Z</time>
      </trkpt>
      <trkpt lat="48.74631" lon="-3.45469">
        <ele>75.6</ele>
        <time>2013-05-09T16:02:40Z</time>
      </trkpt>
      <trkpt lat="48.74634" lon="-3.45472">
        <ele>76.08</ele>
        <time>2013-05-09T16:02:41Z</time>
      </trkpt>
      <trkpt lat="48.74637" lon="-3.45475">
        <ele>76.56</ele>
        <time>2013-05-09T16:02:42Z</time>
      </trkpt>
      <trkpt lat="48.7464" lon="-3.45478">
        <ele>77.04</ele>
        <time>2013-05-09T16:02:43Z</time>
      </trkpt>
      <trkpt lat="48.74643" lon="-3.45481">
        <ele>77.52</ele>
        <time>2013-05-09T16:02:44Z</time>
      </trkpt>
      <trkpt lat="48.74646" lon="-3.45485">
        <ele>78</ele>
        <time>2013-05-09T16:02:45Z</time>
      </trkpt>
      <trkpt lat="48.74649" lon="-3.45489">
        <ele>78</ele>
        <time>2013-05-09T16:02:46Z</time>
      </trkpt>
      <trkpt lat="48.74667" lon="-3.45507">
        <ele>79.93</ele>
        <time>2013-05-09T16:02:55Z</time>
      </trkpt>
      <trkpt lat="48.74683" lon="-3.45504">
        <ele>81.37</ele>
        <time>2013-05-09T16:03:02Z</time>
      </trkpt>
      <trkpt lat="48.74688" lon="-3.45494">
        <ele>81.37</ele>
        <time>2013-05-09T16:03:11Z</time>
      </trkpt>
      <trkpt lat="48.74691" lon="-3.45499">
        <ele>80.41</ele>
        <time>2013-05-09T16:03:24Z</time>
      </trkpt>
      <trkpt lat="48.74693" lon="-3.45509">
        <ele>79.93</ele>
        <time>2013-05-09T16:03:47Z</time>
      </trkpt>
      <trkpt lat="48.74682" lon="-3.45512">
        <ele>80.41</ele>
        <time>2013-05-09T16:04:06Z</time>
      </trkpt>
    </trkseg>
  </trk>
</gpx>